Home > Products > Valid Products > TAF

000
FTUS45 KBOU 230121 AAA
TAFDEN
TAF AMD
KDEN 230121Z 2301/2406 04008KT P6SM VCSH SCT060 BKN080
      TEMPO 2301/2303 4SM -TSRA SCT030 BKN045CB
     FM230400 07007KT P6SM VCSH SCT028 BKN040 OVC060
     FM230600 10005KT 5SM BR BKN015 OVC030
     FM230900 08005KT 2SM BR BKN009 OVC015
      TEMPO 2310/2314 1/2SM FG BKN004
     FM231600 VRB05KT P6SM SCT007 SCT022
     FM231900 13010KT P6SM SCT025 BKN045
      TEMPO 2321/2324 VRB25G35KT 4SM -TSRA BKN020CB OVC040
     FM240100 32012KT P6SM VCTS SCT035CB BKN060=



000
FTUS45 KBOU 230121 AAA
TAFDEN
TAF AMD
KDEN 230121Z 2301/2406 04008KT P6SM VCSH SCT060 BKN080
      TEMPO 2301/2303 4SM -TSRA SCT030 BKN045CB
     FM230400 07007KT P6SM VCSH SCT028 BKN040 OVC060
     FM230600 10005KT 5SM BR BKN015 OVC030
     FM230900 08005KT 2SM BR BKN009 OVC015
      TEMPO 2310/2314 1/2SM FG BKN004
     FM231600 VRB05KT P6SM SCT007 SCT022
     FM231900 13010KT P6SM SCT025 BKN045
      TEMPO 2321/2324 VRB25G35KT 4SM -TSRA BKN020CB OVC040
     FM240100 32012KT P6SM VCTS SCT035CB BKN060=



000
FTUS45 KBOU 222326
TAFAPA
TAF
KAPA 222326Z 2300/2324 01012KT P6SM VCSH SCT025 BKN035 BKN080
      TEMPO 2300/2302 4SM -TSRA BKN025CB
     FM230200 03008KT P6SM VCTS SCT025CB OVC050
     FM230800 11005KT 2SM BR BKN008 OVC020
      TEMPO 2310/2314 1/2SM FG BKN005
     FM231500 08005KT 3SM BR BKN009 OVC015
     FM231700 11010KT P6SM SCT012 SCT025
     FM231900 13012KT P6SM SCT025 BKN045
      TEMPO 2320/2324 VRB25G35KT 4SM -TSRA BKN018CB OVC035=



000
FTUS45 KBOU 222326
TAFDEN
TAF
KDEN 222326Z 2300/2406 04008KT P6SM VCSH SCT025 BKN035
      TEMPO 2300/2302 4SM -TSRA BKN025CB
     FM230200 03007KT P6SM VCTS SCT025CB OVC050
     FM230600 11005KT 5SM BR BKN012 OVC025
     FM230900 08005KT 2SM BR BKN009 OVC015
      TEMPO 2310/2314 1/2SM FG BKN004
     FM231600 VRB05KT P6SM SCT007 SCT022
     FM231900 13010KT P6SM SCT025 BKN045
      TEMPO 2321/2324 VRB25G35KT 4SM -TSRA BKN020CB OVC040
     FM240100 32012KT P6SM VCTS SCT035CB BKN060=



000
FTUS45 KBOU 222326
TAFBJC
TAF
KBJC 222326Z 2300/2324 03008KT P6SM VCSH BKN015 BKN035
      TEMPO 2300/2301 4SM -TSRA BKN015CB
     FM230100 03010KT P6SM VCTS SCT025CB OVC050
     FM230700 11005KT 3SM BR BKN012 OVC025
     FM231000 VRB04KT 1SM BR BKN008 OVC014
      TEMPO 2310/2314 1/2SM FG VV003
     FM231500 36006KT P6SM BKN012 OVC020
     FM231700 34010KT P6SM SCT015 SCT035
     FM231900 32008KT P6SM SCT025 BKN045
      TEMPO 2320/2324 VRB25G35KT 4SM -TSRA BKN016CB OVC030=



000
FTUS45 KBOU 222326
TAFBJC
TAF
KBJC 222326Z 2300/2324 03008KT P6SM VCSH BKN015 BKN035
      TEMPO 2300/2301 4SM -TSRA BKN015CB
     FM230100 03010KT P6SM VCTS SCT025CB OVC050
     FM230700 11005KT 3SM BR BKN012 OVC025
     FM231000 VRB04KT 1SM BR BKN008 OVC014
      TEMPO 2310/2314 1/2SM FG VV003
     FM231500 36006KT P6SM BKN012 OVC020
     FM231700 34010KT P6SM SCT015 SCT035
     FM231900 32008KT P6SM SCT025 BKN045
      TEMPO 2320/2324 VRB25G35KT 4SM -TSRA BKN016CB OVC030=



000
FTUS45 KBOU 222326
TAFDEN
TAF
KDEN 222326Z 2300/2406 04008KT P6SM VCSH SCT025 BKN035
      TEMPO 2300/2302 4SM -TSRA BKN025CB
     FM230200 03007KT P6SM VCTS SCT025CB OVC050
     FM230600 11005KT 5SM BR BKN012 OVC025
     FM230900 08005KT 2SM BR BKN009 OVC015
      TEMPO 2310/2314 1/2SM FG BKN004
     FM231600 VRB05KT P6SM SCT007 SCT022
     FM231900 13010KT P6SM SCT025 BKN045
      TEMPO 2321/2324 VRB25G35KT 4SM -TSRA BKN020CB OVC040
     FM240100 32012KT P6SM VCTS SCT035CB BKN060=



000
FTUS45 KBOU 222326
TAFBJC
TAF
KBJC 222326Z 2300/2324 03008KT P6SM VCSH BKN015 BKN035
      TEMPO 2300/2301 4SM -TSRA BKN015CB
     FM230100 03010KT P6SM VCTS SCT025CB OVC050
     FM230700 11005KT 3SM BR BKN012 OVC025
     FM231000 VRB04KT 1SM BR BKN008 OVC014
      TEMPO 2310/2314 1/2SM FG VV003
     FM231500 36006KT P6SM BKN012 OVC020
     FM231700 34010KT P6SM SCT015 SCT035
     FM231900 32008KT P6SM SCT025 BKN045
      TEMPO 2320/2324 VRB25G35KT 4SM -TSRA BKN016CB OVC030=



000
FTUS45 KBOU 222326
TAFAPA
TAF
KAPA 222326Z 2300/2324 01012KT P6SM VCSH SCT025 BKN035 BKN080
      TEMPO 2300/2302 4SM -TSRA BKN025CB
     FM230200 03008KT P6SM VCTS SCT025CB OVC050
     FM230800 11005KT 2SM BR BKN008 OVC020
      TEMPO 2310/2314 1/2SM FG BKN005
     FM231500 08005KT 3SM BR BKN009 OVC015
     FM231700 11010KT P6SM SCT012 SCT025
     FM231900 13012KT P6SM SCT025 BKN045
      TEMPO 2320/2324 VRB25G35KT 4SM -TSRA BKN018CB OVC035=



000
FTUS45 KBOU 222326
TAFDEN
TAF
KDEN 222326Z 2300/2406 04008KT P6SM VCSH SCT025 BKN035
      TEMPO 2300/2302 4SM -TSRA BKN025CB
     FM230200 03007KT P6SM VCTS SCT025CB OVC050
     FM230600 11005KT 5SM BR BKN012 OVC025
     FM230900 08005KT 2SM BR BKN009 OVC015
      TEMPO 2310/2314 1/2SM FG BKN004
     FM231600 VRB05KT P6SM SCT007 SCT022
     FM231900 13010KT P6SM SCT025 BKN045
      TEMPO 2321/2324 VRB25G35KT 4SM -TSRA BKN020CB OVC040
     FM240100 32012KT P6SM VCTS SCT035CB BKN060=



000
FTUS45 KBOU 222326
TAFAPA
TAF
KAPA 222326Z 2300/2324 01012KT P6SM VCSH SCT025 BKN035 BKN080
      TEMPO 2300/2302 4SM -TSRA BKN025CB
     FM230200 03008KT P6SM VCTS SCT025CB OVC050
     FM230800 11005KT 2SM BR BKN008 OVC020
      TEMPO 2310/2314 1/2SM FG BKN005
     FM231500 08005KT 3SM BR BKN009 OVC015
     FM231700 11010KT P6SM SCT012 SCT025
     FM231900 13012KT P6SM SCT025 BKN045
      TEMPO 2320/2324 VRB25G35KT 4SM -TSRA BKN018CB OVC035=



000
FTUS45 KBOU 222326
TAFAPA
TAF
KAPA 222326Z 2300/2324 01012KT P6SM VCSH SCT025 BKN035 BKN080
      TEMPO 2300/2302 4SM -TSRA BKN025CB
     FM230200 03008KT P6SM VCTS SCT025CB OVC050
     FM230800 11005KT 2SM BR BKN008 OVC020
      TEMPO 2310/2314 1/2SM FG BKN005
     FM231500 08005KT 3SM BR BKN009 OVC015
     FM231700 11010KT P6SM SCT012 SCT025
     FM231900 13012KT P6SM SCT025 BKN045
      TEMPO 2320/2324 VRB25G35KT 4SM -TSRA BKN018CB OVC035=



000
FTUS45 KBOU 222326
TAFDEN
TAF
KDEN 222326Z 2300/2406 04008KT P6SM VCSH SCT025 BKN035
      TEMPO 2300/2302 4SM -TSRA BKN025CB
     FM230200 03007KT P6SM VCTS SCT025CB OVC050
     FM230600 11005KT 5SM BR BKN012 OVC025
     FM230900 08005KT 2SM BR BKN009 OVC015
      TEMPO 2310/2314 1/2SM FG BKN004
     FM231600 VRB05KT P6SM SCT007 SCT022
     FM231900 13010KT P6SM SCT025 BKN045
      TEMPO 2321/2324 VRB25G35KT 4SM -TSRA BKN020CB OVC040
     FM240100 32012KT P6SM VCTS SCT035CB BKN060=



000
FTUS45 KBOU 222326
TAFBJC
TAF
KBJC 222326Z 2300/2324 03008KT P6SM VCSH BKN015 BKN035
      TEMPO 2300/2301 4SM -TSRA BKN015CB
     FM230100 03010KT P6SM VCTS SCT025CB OVC050
     FM230700 11005KT 3SM BR BKN012 OVC025
     FM231000 VRB04KT 1SM BR BKN008 OVC014
      TEMPO 2310/2314 1/2SM FG VV003
     FM231500 36006KT P6SM BKN012 OVC020
     FM231700 34010KT P6SM SCT015 SCT035
     FM231900 32008KT P6SM SCT025 BKN045
      TEMPO 2320/2324 VRB25G35KT 4SM -TSRA BKN016CB OVC030=



000
FTUS45 KBOU 222025 AAA
TAFBJC
TAF AMD
KBJC 222025Z 2220/2318 08007KT P6SM VCSH BKN015 OVC030
     FM222200 08008KT P6SM VCSH SCT025 BKN040
      TEMPO 2222/2301 4SM -TSRA BKN025CB
     FM230100 03008KT P6SM VCTS SCT025CB OVC050
     FM230700 11005KT 5SM BR BKN012 OVC025
     FM231000 VRB04KT 1SM BR BKN009 OVC015
      TEMPO 2310/2314 1/2SM FG VV003
     FM231500 36006KT P6SM BKN012 OVC020=



000
FTUS45 KBOU 222025 AAA
TAFDEN
TAF AMD
KDEN 222025Z 2220/2324 08008KT P6SM BKN020 BKN035
     FM222200 08008KT P6SM VCSH SCT025 BKN040
      TEMPO 2223/2302 4SM -TSRA BKN025CB
     FM230200 03007KT P6SM VCTS SCT025CB OVC050
     FM230600 11005KT 5SM BR BKN012 OVC025
     FM230900 08005KT 2SM BR BKN009 OVC015
      TEMPO 2310/2314 1/2SM FG BKN004
     FM231600 VRB05KT P6SM SCT007 SCT020
     FM231900 13010KT P6SM SCT025 BKN045
      TEMPO 2320/2324 VRB25G35KT 4SM -TSRA BKN020CB OVC040=



000
FTUS45 KBOU 222025 AAA
TAFBJC
TAF AMD
KBJC 222025Z 2220/2318 08007KT P6SM VCSH BKN015 OVC030
     FM222200 08008KT P6SM VCSH SCT025 BKN040
      TEMPO 2222/2301 4SM -TSRA BKN025CB
     FM230100 03008KT P6SM VCTS SCT025CB OVC050
     FM230700 11005KT 5SM BR BKN012 OVC025
     FM231000 VRB04KT 1SM BR BKN009 OVC015
      TEMPO 2310/2314 1/2SM FG VV003
     FM231500 36006KT P6SM BKN012 OVC020=



000
FTUS45 KBOU 221740
TAFDEN
TAF
KDEN 221740Z 2218/2324 11008KT P6SM VCSH BKN025 BKN040
     FM222000 09008KT P6SM SCT040 BKN070
     FM222200 08008KT P6SM VCSH SCT035 BKN060
      TEMPO 2222/2302 4SM -TSRA BKN025CB
     FM230200 03007KT P6SM VCTS SCT025CB OVC050
     FM230600 11005KT 5SM BR BKN012 OVC025
     FM230900 08005KT 2SM BR BKN009 OVC015
      TEMPO 2310/2314 1/2SM FG BKN004
     FM231600 VRB05KT P6SM SCT007 SCT020
     FM231900 13010KT P6SM SCT025 BKN045
      TEMPO 2320/2324 VRB25G35KT 4SM -TSRA BKN020CB OVC040=



000
FTUS45 KBOU 221740
TAFBJC
TAF
KBJC 221740Z 2218/2318 33008KT P6SM VCSH BKN007 OVC020
     FM222000 09007KT P6SM SCT040 SCT090
     FM222100 08008KT P6SM VCSH SCT040 BKN070
      TEMPO 2221/2301 4SM -TSRA BKN030CB
     FM230100 03008KT P6SM VCTS SCT030CB OVC050
     FM230700 11005KT 5SM BR BKN012 OVC025
     FM231000 VRB04KT 1SM BR BKN009 OVC015
      TEMPO 2310/2314 1/2SM FG VV003=



000
FTUS45 KBOU 221740
TAFBJC
TAF
KBJC 221740Z 2218/2318 33008KT P6SM VCSH BKN007 OVC020
     FM222000 09007KT P6SM SCT040 SCT090
     FM222100 08008KT P6SM VCSH SCT040 BKN070
      TEMPO 2221/2301 4SM -TSRA BKN030CB
     FM230100 03008KT P6SM VCTS SCT030CB OVC050
     FM230700 11005KT 5SM BR BKN012 OVC025
     FM231000 VRB04KT 1SM BR BKN009 OVC015
      TEMPO 2310/2314 1/2SM FG VV003=



000
FTUS45 KBOU 221740
TAFAPA
TAF
KAPA 221740Z 2218/2318 35008KT P6SM BKN015 OVC025
     FM222000 32007KT P6SM SCT035 BKN070
     FM222200 34012KT P6SM VCSH SCT025 BKN050
      TEMPO 2222/2302 4SM -TSRA BKN025CB
     FM230200 03008KT P6SM VCTS SCT025CB OVC050
     FM230800 11005KT 2SM BR BKN012 OVC020
      TEMPO 2310/2314 1/2SM FG BKN006
     FM231500 08005KT 3SM BR BKN009 OVC015=



000
FTUS45 KBOU 221740
TAFDEN
TAF
KDEN 221740Z 2218/2324 11008KT P6SM VCSH BKN025 BKN040
     FM222000 09008KT P6SM SCT040 BKN070
     FM222200 08008KT P6SM VCSH SCT035 BKN060
      TEMPO 2222/2302 4SM -TSRA BKN025CB
     FM230200 03007KT P6SM VCTS SCT025CB OVC050
     FM230600 11005KT 5SM BR BKN012 OVC025
     FM230900 08005KT 2SM BR BKN009 OVC015
      TEMPO 2310/2314 1/2SM FG BKN004
     FM231600 VRB05KT P6SM SCT007 SCT020
     FM231900 13010KT P6SM SCT025 BKN045
      TEMPO 2320/2324 VRB25G35KT 4SM -TSRA BKN020CB OVC040=



000
FTUS45 KBOU 221740
TAFAPA
TAF
KAPA 221740Z 2218/2318 35008KT P6SM BKN015 OVC025
     FM222000 32007KT P6SM SCT035 BKN070
     FM222200 34012KT P6SM VCSH SCT025 BKN050
      TEMPO 2222/2302 4SM -TSRA BKN025CB
     FM230200 03008KT P6SM VCTS SCT025CB OVC050
     FM230800 11005KT 2SM BR BKN012 OVC020
      TEMPO 2310/2314 1/2SM FG BKN006
     FM231500 08005KT 3SM BR BKN009 OVC015=



000
FTUS45 KBOU 221740
TAFAPA
TAF
KAPA 221740Z 2218/2318 35008KT P6SM BKN015 OVC025
     FM222000 32007KT P6SM SCT035 BKN070
     FM222200 34012KT P6SM VCSH SCT025 BKN050
      TEMPO 2222/2302 4SM -TSRA BKN025CB
     FM230200 03008KT P6SM VCTS SCT025CB OVC050
     FM230800 11005KT 2SM BR BKN012 OVC020
      TEMPO 2310/2314 1/2SM FG BKN006
     FM231500 08005KT 3SM BR BKN009 OVC015=



000
FTUS45 KBOU 221740
TAFDEN
TAF
KDEN 221740Z 2218/2324 11008KT P6SM VCSH BKN025 BKN040
     FM222000 09008KT P6SM SCT040 BKN070
     FM222200 08008KT P6SM VCSH SCT035 BKN060
      TEMPO 2222/2302 4SM -TSRA BKN025CB
     FM230200 03007KT P6SM VCTS SCT025CB OVC050
     FM230600 11005KT 5SM BR BKN012 OVC025
     FM230900 08005KT 2SM BR BKN009 OVC015
      TEMPO 2310/2314 1/2SM FG BKN004
     FM231600 VRB05KT P6SM SCT007 SCT020
     FM231900 13010KT P6SM SCT025 BKN045
      TEMPO 2320/2324 VRB25G35KT 4SM -TSRA BKN020CB OVC040=



000
FTUS45 KBOU 221740
TAFBJC
TAF
KBJC 221740Z 2218/2318 33008KT P6SM VCSH BKN007 OVC020
     FM222000 09007KT P6SM SCT040 SCT090
     FM222100 08008KT P6SM VCSH SCT040 BKN070
      TEMPO 2221/2301 4SM -TSRA BKN030CB
     FM230100 03008KT P6SM VCTS SCT030CB OVC050
     FM230700 11005KT 5SM BR BKN012 OVC025
     FM231000 VRB04KT 1SM BR BKN009 OVC015
      TEMPO 2310/2314 1/2SM FG VV003=



000
FTUS45 KBOU 221740
TAFAPA
TAF
KAPA 221740Z 2218/2318 35008KT P6SM BKN015 OVC025
     FM222000 32007KT P6SM SCT035 BKN070
     FM222200 34012KT P6SM VCSH SCT025 BKN050
      TEMPO 2222/2302 4SM -TSRA BKN025CB
     FM230200 03008KT P6SM VCTS SCT025CB OVC050
     FM230800 11005KT 2SM BR BKN012 OVC020
      TEMPO 2310/2314 1/2SM FG BKN006
     FM231500 08005KT 3SM BR BKN009 OVC015=



000
FTUS45 KBOU 221740
TAFDEN
TAF
KDEN 221740Z 2218/2324 11008KT P6SM VCSH BKN025 BKN040
     FM222000 09008KT P6SM SCT040 BKN070
     FM222200 08008KT P6SM VCSH SCT035 BKN060
      TEMPO 2222/2302 4SM -TSRA BKN025CB
     FM230200 03007KT P6SM VCTS SCT025CB OVC050
     FM230600 11005KT 5SM BR BKN012 OVC025
     FM230900 08005KT 2SM BR BKN009 OVC015
      TEMPO 2310/2314 1/2SM FG BKN004
     FM231600 VRB05KT P6SM SCT007 SCT020
     FM231900 13010KT P6SM SCT025 BKN045
      TEMPO 2320/2324 VRB25G35KT 4SM -TSRA BKN020CB OVC040=



000
FTUS45 KBOU 221740
TAFBJC
TAF
KBJC 221740Z 2218/2318 33008KT P6SM VCSH BKN007 OVC020
     FM222000 09007KT P6SM SCT040 SCT090
     FM222100 08008KT P6SM VCSH SCT040 BKN070
      TEMPO 2221/2301 4SM -TSRA BKN030CB
     FM230100 03008KT P6SM VCTS SCT030CB OVC050
     FM230700 11005KT 5SM BR BKN012 OVC025
     FM231000 VRB04KT 1SM BR BKN009 OVC015
      TEMPO 2310/2314 1/2SM FG VV003=



000
FTUS45 KBOU 221410 AAB
TAFDEN
TAF AMD
KDEN 221410Z 2214/2318 14010KT P6SM -RA SCT008 BKN018 OVC028
      TEMPO 2214/2216 5SM -RA BKN008 OVC016
     FM221700 14008KT P6SM VCSH SCT025 BKN040
     FM221900 09007KT P6SM SCT050 SCT090
     FM222200 08008KT P6SM VCSH SCT040 BKN070
      TEMPO 2222/2302 4SM -TSRA BKN030CB
     FM230200 03008KT P6SM VCTS SCT030CB OVC050 PROB30 2302/2306 4SM
      -SHRA SCT008 BKN020
     FM230700 11005KT 5SM BR BKN012 OVC025
     FM231000 08005KT 2SM BR BKN009 OVC015
      TEMPO 2311/2314 3/4SM BR BKN004
     FM231600 VRB04KT P6SM SCT007 SCT050=



000
FTUS45 KBOU 221410 AAB
TAFDEN
TAF AMD
KDEN 221410Z 2214/2318 14010KT P6SM -RA SCT008 BKN018 OVC028
      TEMPO 2214/2216 5SM -RA BKN008 OVC016
     FM221700 14008KT P6SM VCSH SCT025 BKN040
     FM221900 09007KT P6SM SCT050 SCT090
     FM222200 08008KT P6SM VCSH SCT040 BKN070
      TEMPO 2222/2302 4SM -TSRA BKN030CB
     FM230200 03008KT P6SM VCTS SCT030CB OVC050 PROB30 2302/2306 4SM
      -SHRA SCT008 BKN020
     FM230700 11005KT 5SM BR BKN012 OVC025
     FM231000 08005KT 2SM BR BKN009 OVC015
      TEMPO 2311/2314 3/4SM BR BKN004
     FM231600 VRB04KT P6SM SCT007 SCT050=



000
FTUS45 KBOU 221207 AAA
TAFDEN
TAF AMD
KDEN 221207Z 2212/2318 09010KT P6SM -RA SCT008 BKN015 OVC040
      TEMPO 2212/2216 5SM -RA BKN007 OVC015
     FM221700 08007KT P6SM VCSH SCT050 BKN070
     FM221900 09007KT P6SM SCT050 SCT090
     FM222200 08008KT P6SM VCSH SCT040 BKN070
      TEMPO 2222/2302 4SM -TSRA BKN030CB
     FM230200 03008KT P6SM VCTS SCT030CB OVC050 PROB30 2302/2306 4SM
      -SHRA SCT008 BKN020
     FM230700 11005KT 5SM BR BKN012 OVC025
     FM231000 08005KT 2SM BR BKN009 OVC015
      TEMPO 2311/2314 3/4SM BR BKN004
     FM231600 VRB04KT P6SM SCT007 SCT050=



000
FTUS45 KBOU 221207 AAA
TAFDEN
TAF AMD
KDEN 221207Z 2212/2318 09010KT P6SM -RA SCT008 BKN015 OVC040
      TEMPO 2212/2216 5SM -RA BKN007 OVC015
     FM221700 08007KT P6SM VCSH SCT050 BKN070
     FM221900 09007KT P6SM SCT050 SCT090
     FM222200 08008KT P6SM VCSH SCT040 BKN070
      TEMPO 2222/2302 4SM -TSRA BKN030CB
     FM230200 03008KT P6SM VCTS SCT030CB OVC050 PROB30 2302/2306 4SM
      -SHRA SCT008 BKN020
     FM230700 11005KT 5SM BR BKN012 OVC025
     FM231000 08005KT 2SM BR BKN009 OVC015
      TEMPO 2311/2314 3/4SM BR BKN004
     FM231600 VRB04KT P6SM SCT007 SCT050=



000
FTUS45 KBOU 221207 AAA
TAFDEN
TAF AMD
KDEN 221207Z 2212/2318 09010KT P6SM -RA SCT008 BKN015 OVC040
      TEMPO 2212/2216 5SM -RA BKN007 OVC015
     FM221700 08007KT P6SM VCSH SCT050 BKN070
     FM221900 09007KT P6SM SCT050 SCT090
     FM222200 08008KT P6SM VCSH SCT040 BKN070
      TEMPO 2222/2302 4SM -TSRA BKN030CB
     FM230200 03008KT P6SM VCTS SCT030CB OVC050 PROB30 2302/2306 4SM
      -SHRA SCT008 BKN020
     FM230700 11005KT 5SM BR BKN012 OVC025
     FM231000 08005KT 2SM BR BKN009 OVC015
      TEMPO 2311/2314 3/4SM BR BKN004
     FM231600 VRB04KT P6SM SCT007 SCT050=



000
FTUS45 KBOU 221207 AAA
TAFDEN
TAF AMD
KDEN 221207Z 2212/2318 09010KT P6SM -RA SCT008 BKN015 OVC040
      TEMPO 2212/2216 5SM -RA BKN007 OVC015
     FM221700 08007KT P6SM VCSH SCT050 BKN070
     FM221900 09007KT P6SM SCT050 SCT090
     FM222200 08008KT P6SM VCSH SCT040 BKN070
      TEMPO 2222/2302 4SM -TSRA BKN030CB
     FM230200 03008KT P6SM VCTS SCT030CB OVC050 PROB30 2302/2306 4SM
      -SHRA SCT008 BKN020
     FM230700 11005KT 5SM BR BKN012 OVC025
     FM231000 08005KT 2SM BR BKN009 OVC015
      TEMPO 2311/2314 3/4SM BR BKN004
     FM231600 VRB04KT P6SM SCT007 SCT050=



000
FTUS45 KBOU 221139
TAFAPA
TAF
KAPA 221139Z 2212/2312 12007KT P6SM -RA BKN040 OVC050
      TEMPO 2212/2216 5SM -RA BKN030
     FM221700 08007KT P6SM VCSH SCT050 BKN070
     FM221900 09007KT P6SM SCT050 SCT090
     FM222100 08008KT P6SM VCSH SCT040 BKN070
      TEMPO 2222/2301 4SM -TSRA BKN030CB
     FM230100 03008KT P6SM VCTS SCT030CB OVC050 PROB30 2301/2305 4SM
      -SHRA SCT008 BKN020
     FM230800 11005KT 5SM BR BKN012 OVC025
     FM231100 08005KT 2SM BR BKN009 OVC015=



000
FTUS45 KBOU 221139
TAFDEN
TAF
KDEN 221139Z 2212/2318 09010KT P6SM -RA FEW014 BKN040 OVC050
      TEMPO 2212/2216 5SM -RA SCT013 BKN030
     FM221700 08007KT P6SM VCSH SCT050 BKN070
     FM221900 09007KT P6SM SCT050 SCT090
     FM222200 08008KT P6SM VCSH SCT040 BKN070
      TEMPO 2222/2302 4SM -TSRA BKN030CB
     FM230200 03008KT P6SM VCTS SCT030CB OVC050 PROB30 2302/2306 4SM
      -SHRA SCT008 BKN020
     FM230700 11005KT 5SM BR BKN012 OVC025
     FM231000 08005KT 2SM BR BKN009 OVC015
      TEMPO 2311/2314 3/4SM BR BKN004
     FM231600 VRB04KT P6SM SCT007 SCT050=



000
FTUS45 KBOU 221139
TAFBJC
TAF
KBJC 221139Z 2212/2312 VRB04KT P6SM -RA BKN015 OVC035
      TEMPO 2212/2216 5SM -RA BKN009
     FM221700 08007KT P6SM VCSH SCT040 BKN070
     FM221900 09007KT P6SM SCT040 SCT090
     FM222100 08008KT P6SM VCSH SCT040 BKN070
      TEMPO 2221/2301 4SM -TSRA BKN030CB
     FM230100 03008KT P6SM VCTS SCT030CB OVC050 PROB30 2302/2306 4SM
      -SHRA SCT008 BKN020
     FM230700 11005KT 5SM BR BKN012 OVC025
     FM231000 VRB04KT 1SM BR BKN009 OVC015
      TEMPO 2310/2312 1/2SM FG VV003=



000
FTUS45 KBOU 221139
TAFAPA
TAF
KAPA 221139Z 2212/2312 12007KT P6SM -RA BKN040 OVC050
      TEMPO 2212/2216 5SM -RA BKN030
     FM221700 08007KT P6SM VCSH SCT050 BKN070
     FM221900 09007KT P6SM SCT050 SCT090
     FM222100 08008KT P6SM VCSH SCT040 BKN070
      TEMPO 2222/2301 4SM -TSRA BKN030CB
     FM230100 03008KT P6SM VCTS SCT030CB OVC050 PROB30 2301/2305 4SM
      -SHRA SCT008 BKN020
     FM230800 11005KT 5SM BR BKN012 OVC025
     FM231100 08005KT 2SM BR BKN009 OVC015=



000
FTUS45 KBOU 221139
TAFAPA
TAF
KAPA 221139Z 2212/2312 12007KT P6SM -RA BKN040 OVC050
      TEMPO 2212/2216 5SM -RA BKN030
     FM221700 08007KT P6SM VCSH SCT050 BKN070
     FM221900 09007KT P6SM SCT050 SCT090
     FM222100 08008KT P6SM VCSH SCT040 BKN070
      TEMPO 2222/2301 4SM -TSRA BKN030CB
     FM230100 03008KT P6SM VCTS SCT030CB OVC050 PROB30 2301/2305 4SM
      -SHRA SCT008 BKN020
     FM230800 11005KT 5SM BR BKN012 OVC025
     FM231100 08005KT 2SM BR BKN009 OVC015=



000
FTUS45 KBOU 221139
TAFDEN
TAF
KDEN 221139Z 2212/2318 09010KT P6SM -RA FEW014 BKN040 OVC050
      TEMPO 2212/2216 5SM -RA SCT013 BKN030
     FM221700 08007KT P6SM VCSH SCT050 BKN070
     FM221900 09007KT P6SM SCT050 SCT090
     FM222200 08008KT P6SM VCSH SCT040 BKN070
      TEMPO 2222/2302 4SM -TSRA BKN030CB
     FM230200 03008KT P6SM VCTS SCT030CB OVC050 PROB30 2302/2306 4SM
      -SHRA SCT008 BKN020
     FM230700 11005KT 5SM BR BKN012 OVC025
     FM231000 08005KT 2SM BR BKN009 OVC015
      TEMPO 2311/2314 3/4SM BR BKN004
     FM231600 VRB04KT P6SM SCT007 SCT050=



000
FTUS45 KBOU 221139
TAFDEN
TAF
KDEN 221139Z 2212/2318 09010KT P6SM -RA FEW014 BKN040 OVC050
      TEMPO 2212/2216 5SM -RA SCT013 BKN030
     FM221700 08007KT P6SM VCSH SCT050 BKN070
     FM221900 09007KT P6SM SCT050 SCT090
     FM222200 08008KT P6SM VCSH SCT040 BKN070
      TEMPO 2222/2302 4SM -TSRA BKN030CB
     FM230200 03008KT P6SM VCTS SCT030CB OVC050 PROB30 2302/2306 4SM
      -SHRA SCT008 BKN020
     FM230700 11005KT 5SM BR BKN012 OVC025
     FM231000 08005KT 2SM BR BKN009 OVC015
      TEMPO 2311/2314 3/4SM BR BKN004
     FM231600 VRB04KT P6SM SCT007 SCT050=



000
FTUS45 KBOU 221139
TAFDEN
TAF
KDEN 221139Z 2212/2318 09010KT P6SM -RA FEW014 BKN040 OVC050
      TEMPO 2212/2216 5SM -RA SCT013 BKN030
     FM221700 08007KT P6SM VCSH SCT050 BKN070
     FM221900 09007KT P6SM SCT050 SCT090
     FM222200 08008KT P6SM VCSH SCT040 BKN070
      TEMPO 2222/2302 4SM -TSRA BKN030CB
     FM230200 03008KT P6SM VCTS SCT030CB OVC050 PROB30 2302/2306 4SM
      -SHRA SCT008 BKN020
     FM230700 11005KT 5SM BR BKN012 OVC025
     FM231000 08005KT 2SM BR BKN009 OVC015
      TEMPO 2311/2314 3/4SM BR BKN004
     FM231600 VRB04KT P6SM SCT007 SCT050=



000
FTUS45 KBOU 221139
TAFBJC
TAF
KBJC 221139Z 2212/2312 VRB04KT P6SM -RA BKN015 OVC035
      TEMPO 2212/2216 5SM -RA BKN009
     FM221700 08007KT P6SM VCSH SCT040 BKN070
     FM221900 09007KT P6SM SCT040 SCT090
     FM222100 08008KT P6SM VCSH SCT040 BKN070
      TEMPO 2221/2301 4SM -TSRA BKN030CB
     FM230100 03008KT P6SM VCTS SCT030CB OVC050 PROB30 2302/2306 4SM
      -SHRA SCT008 BKN020
     FM230700 11005KT 5SM BR BKN012 OVC025
     FM231000 VRB04KT 1SM BR BKN009 OVC015
      TEMPO 2310/2312 1/2SM FG VV003=



000
FTUS45 KBOU 221139
TAFBJC
TAF
KBJC 221139Z 2212/2312 VRB04KT P6SM -RA BKN015 OVC035
      TEMPO 2212/2216 5SM -RA BKN009
     FM221700 08007KT P6SM VCSH SCT040 BKN070
     FM221900 09007KT P6SM SCT040 SCT090
     FM222100 08008KT P6SM VCSH SCT040 BKN070
      TEMPO 2221/2301 4SM -TSRA BKN030CB
     FM230100 03008KT P6SM VCTS SCT030CB OVC050 PROB30 2302/2306 4SM
      -SHRA SCT008 BKN020
     FM230700 11005KT 5SM BR BKN012 OVC025
     FM231000 VRB04KT 1SM BR BKN009 OVC015
      TEMPO 2310/2312 1/2SM FG VV003=



000
FTUS45 KBOU 221139
TAFAPA
TAF
KAPA 221139Z 2212/2312 12007KT P6SM -RA BKN040 OVC050
      TEMPO 2212/2216 5SM -RA BKN030
     FM221700 08007KT P6SM VCSH SCT050 BKN070
     FM221900 09007KT P6SM SCT050 SCT090
     FM222100 08008KT P6SM VCSH SCT040 BKN070
      TEMPO 2222/2301 4SM -TSRA BKN030CB
     FM230100 03008KT P6SM VCTS SCT030CB OVC050 PROB30 2301/2305 4SM
      -SHRA SCT008 BKN020
     FM230800 11005KT 5SM BR BKN012 OVC025
     FM231100 08005KT 2SM BR BKN009 OVC015=



000
FTUS45 KBOU 221106 AAC
TAFAPA
TAF AMD
KAPA 221106Z 2211/2306 11011KT P6SM -RA BKN040 OVC050
      TEMPO 2211/2215 5SM -RA BKN020 OVC035
     FM221600 VRB05KT P6SM VCSH SCT035 BKN050
     FM221800 09007KT P6SM SCT050 SCT090
     FM222100 08008KT P6SM VCSH SCT015 BKN030 OVC050
      TEMPO 2222/2302 4SM -TSRA BKN015CB
     FM230200 03008KT P6SM VCTS SCT015CB OVC030 PROB30 2302/2306 4SM
      -SHRA SCT008 BKN015=



000
FTUS45 KBOU 221104 AAC
TAFDEN
TAF AMD
KDEN 221104Z 2211/2312 11011KT P6SM -RA BKN040 OVC050
      TEMPO 2212/2215 5SM -RA BKN020 OVC035
     FM221600 VRB05KT P6SM VCSH SCT035 BKN050
     FM221800 09007KT P6SM SCT050 SCT090
     FM222100 08008KT P6SM VCSH SCT015 BKN030 OVC050
      TEMPO 2222/2302 4SM -TSRA BKN015CB
     FM230200 03008KT P6SM VCTS SCT015CB OVC030 PROB30 2302/2306 4SM
      -SHRA SCT008 BKN015
     FM230700 15007KT P6SM BKN012 OVC025=



000
FTUS45 KBOU 221104 AAC
TAFDEN
TAF AMD
KDEN 221104Z 2211/2312 11011KT P6SM -RA BKN040 OVC050
      TEMPO 2212/2215 5SM -RA BKN020 OVC035
     FM221600 VRB05KT P6SM VCSH SCT035 BKN050
     FM221800 09007KT P6SM SCT050 SCT090
     FM222100 08008KT P6SM VCSH SCT015 BKN030 OVC050
      TEMPO 2222/2302 4SM -TSRA BKN015CB
     FM230200 03008KT P6SM VCTS SCT015CB OVC030 PROB30 2302/2306 4SM
      -SHRA SCT008 BKN015
     FM230700 15007KT P6SM BKN012 OVC025=



000
FTUS45 KBOU 220906 AAB
TAFBJC
TAF AMD
KBJC 220906Z 2209/2306 11005KT P6SM BKN018 OVC030
      TEMPO 2210/2212 -SHRA BKN015
     FM221200 10007KT 5SM -SHRA BR SCT012 OVC025
      TEMPO 2212/2213 3SM -RA BR BKN012
     FM221300 13010KT 3SM -RA BKN009 OVC020
     FM221500 VRB05KT P6SM VCSH SCT020 BKN040 BKN080
     FM222100 08008KT P6SM VCSH SCT015 BKN030 OVC050
      TEMPO 2222/2302 4SM -TSRA BKN015CB
     FM230200 03008KT P6SM VCTS SCT015CB OVC030 PROB30 2302/2306 4SM
      -SHRA SCT008 BKN015=



000
FTUS45 KBOU 220905 AAB
TAFAPA
TAF AMD
KAPA 220905Z 2209/2306 15010KT P6SM VCSH SCT040 BKN060 OVC070
      TEMPO 2209/2211 -SHRA BKN030
     FM221100 13010KT P6SM -SHRA BKN020 OVC035
      TEMPO 2211/2213 5SM -RA BR BKN011
     FM221300 13010KT 3SM -RA BKN009 OVC020
     FM221500 VRB05KT P6SM SCT017 BKN028 BKN050
     FM222100 08008KT P6SM VCSH SCT015 BKN030 OVC050
      TEMPO 2222/2302 4SM -TSRA BKN015CB
     FM230200 03008KT P6SM VCTS SCT015CB OVC030 PROB30 2302/2306 4SM
      -SHRA SCT008 BKN015=



000
FTUS45 KBOU 220905 AAB
TAFAPA
TAF AMD
KAPA 220905Z 2209/2306 15010KT P6SM VCSH SCT040 BKN060 OVC070
      TEMPO 2209/2211 -SHRA BKN030
     FM221100 13010KT P6SM -SHRA BKN020 OVC035
      TEMPO 2211/2213 5SM -RA BR BKN011
     FM221300 13010KT 3SM -RA BKN009 OVC020
     FM221500 VRB05KT P6SM SCT017 BKN028 BKN050
     FM222100 08008KT P6SM VCSH SCT015 BKN030 OVC050
      TEMPO 2222/2302 4SM -TSRA BKN015CB
     FM230200 03008KT P6SM VCTS SCT015CB OVC030 PROB30 2302/2306 4SM
      -SHRA SCT008 BKN015=



000
FTUS45 KBOU 220905 AAB
TAFAPA
TAF AMD
KAPA 220905Z 2209/2306 15010KT P6SM VCSH SCT040 BKN060 OVC070
      TEMPO 2209/2211 -SHRA BKN030
     FM221100 13010KT P6SM -SHRA BKN020 OVC035
      TEMPO 2211/2213 5SM -RA BR BKN011
     FM221300 13010KT 3SM -RA BKN009 OVC020
     FM221500 VRB05KT P6SM SCT017 BKN028 BKN050
     FM222100 08008KT P6SM VCSH SCT015 BKN030 OVC050
      TEMPO 2222/2302 4SM -TSRA BKN015CB
     FM230200 03008KT P6SM VCTS SCT015CB OVC030 PROB30 2302/2306 4SM
      -SHRA SCT008 BKN015=



000
FTUS45 KBOU 220903 AAB
TAFDEN
TAF AMD
KDEN 220903Z 2209/2312 13012KT P6SM VCSH SCT013 BKN040 BKN070
      TEMPO 2209/2211 -SHRA BKN011
     FM221100 12011KT 5SM -SHRA BR BKN015 OVC025
      TEMPO 2211/2213 3SM -RA BR BKN011
     FM221300 09012KT 4SM -SHRA BKN012 OVC020
     FM221500 VRB05KT P6SM SCT017 BKN028 BKN050
     FM222100 08008KT P6SM VCSH SCT015 BKN030 OVC050
      TEMPO 2222/2302 4SM -TSRA BKN015CB
     FM230200 03008KT P6SM VCTS SCT015CB OVC030 PROB30 2302/2306 4SM
      -SHRA SCT008 BKN015
     FM230700 15007KT P6SM BKN012 OVC025=



000
FTUS45 KBOU 220903 AAB
TAFDEN
TAF AMD
KDEN 220903Z 2209/2312 13012KT P6SM VCSH SCT013 BKN040 BKN070
      TEMPO 2209/2211 -SHRA BKN011
     FM221100 12011KT 5SM -SHRA BR BKN015 OVC025
      TEMPO 2211/2213 3SM -RA BR BKN011
     FM221300 09012KT 4SM -SHRA BKN012 OVC020
     FM221500 VRB05KT P6SM SCT017 BKN028 BKN050
     FM222100 08008KT P6SM VCSH SCT015 BKN030 OVC050
      TEMPO 2222/2302 4SM -TSRA BKN015CB
     FM230200 03008KT P6SM VCTS SCT015CB OVC030 PROB30 2302/2306 4SM
      -SHRA SCT008 BKN015
     FM230700 15007KT P6SM BKN012 OVC025=



000
FTUS45 KBOU 220903 AAB
TAFDEN
TAF AMD
KDEN 220903Z 2209/2312 13012KT P6SM VCSH SCT013 BKN040 BKN070
      TEMPO 2209/2211 -SHRA BKN011
     FM221100 12011KT 5SM -SHRA BR BKN015 OVC025
      TEMPO 2211/2213 3SM -RA BR BKN011
     FM221300 09012KT 4SM -SHRA BKN012 OVC020
     FM221500 VRB05KT P6SM SCT017 BKN028 BKN050
     FM222100 08008KT P6SM VCSH SCT015 BKN030 OVC050
      TEMPO 2222/2302 4SM -TSRA BKN015CB
     FM230200 03008KT P6SM VCTS SCT015CB OVC030 PROB30 2302/2306 4SM
      -SHRA SCT008 BKN015
     FM230700 15007KT P6SM BKN012 OVC025=



000
FTUS45 KBOU 220903 AAB
TAFDEN
TAF AMD
KDEN 220903Z 2209/2312 13012KT P6SM VCSH SCT013 BKN040 BKN070
      TEMPO 2209/2211 -SHRA BKN011
     FM221100 12011KT 5SM -SHRA BR BKN015 OVC025
      TEMPO 2211/2213 3SM -RA BR BKN011
     FM221300 09012KT 4SM -SHRA BKN012 OVC020
     FM221500 VRB05KT P6SM SCT017 BKN028 BKN050
     FM222100 08008KT P6SM VCSH SCT015 BKN030 OVC050
      TEMPO 2222/2302 4SM -TSRA BKN015CB
     FM230200 03008KT P6SM VCTS SCT015CB OVC030 PROB30 2302/2306 4SM
      -SHRA SCT008 BKN015
     FM230700 15007KT P6SM BKN012 OVC025=



000
FTUS45 KBOU 220702 AAA
TAFAPA
TAF AMD
KAPA 220702Z 2207/2306 15011KT P6SM VCSH SCT022 BKN030 OVC050
      TEMPO 2207/2209 -SHRA BKN015
     FM220900 13010KT P6SM -SHRA BKN015 OVC027
      TEMPO 2209/2211 5SM -RA BR BKN011
     FM221100 13010KT 3SM -RA BKN009 OVC020
     FM221400 VRB05KT P6SM SCT017 BKN028 BKN050
     FM222100 08008KT P6SM VCSH SCT015 BKN030 OVC050
      TEMPO 2222/2302 4SM -TSRA BKN015CB
     FM230200 03008KT P6SM VCTS SCT015CB OVC030 PROB30 2302/2306 4SM
      -SHRA SCT008 BKN015=



000
FTUS45 KBOU 220702 AAA
TAFAPA
TAF AMD
KAPA 220702Z 2207/2306 15011KT P6SM VCSH SCT022 BKN030 OVC050
      TEMPO 2207/2209 -SHRA BKN015
     FM220900 13010KT P6SM -SHRA BKN015 OVC027
      TEMPO 2209/2211 5SM -RA BR BKN011
     FM221100 13010KT 3SM -RA BKN009 OVC020
     FM221400 VRB05KT P6SM SCT017 BKN028 BKN050
     FM222100 08008KT P6SM VCSH SCT015 BKN030 OVC050
      TEMPO 2222/2302 4SM -TSRA BKN015CB
     FM230200 03008KT P6SM VCTS SCT015CB OVC030 PROB30 2302/2306 4SM
      -SHRA SCT008 BKN015=



000
FTUS45 KBOU 220702 AAA
TAFAPA
TAF AMD
KAPA 220702Z 2207/2306 15011KT P6SM VCSH SCT022 BKN030 OVC050
      TEMPO 2207/2209 -SHRA BKN015
     FM220900 13010KT P6SM -SHRA BKN015 OVC027
      TEMPO 2209/2211 5SM -RA BR BKN011
     FM221100 13010KT 3SM -RA BKN009 OVC020
     FM221400 VRB05KT P6SM SCT017 BKN028 BKN050
     FM222100 08008KT P6SM VCSH SCT015 BKN030 OVC050
      TEMPO 2222/2302 4SM -TSRA BKN015CB
     FM230200 03008KT P6SM VCTS SCT015CB OVC030 PROB30 2302/2306 4SM
      -SHRA SCT008 BKN015=



000
FTUS45 KBOU 220702 AAA
TAFAPA
TAF AMD
KAPA 220702Z 2207/2306 15011KT P6SM VCSH SCT022 BKN030 OVC050
      TEMPO 2207/2209 -SHRA BKN015
     FM220900 13010KT P6SM -SHRA BKN015 OVC027
      TEMPO 2209/2211 5SM -RA BR BKN011
     FM221100 13010KT 3SM -RA BKN009 OVC020
     FM221400 VRB05KT P6SM SCT017 BKN028 BKN050
     FM222100 08008KT P6SM VCSH SCT015 BKN030 OVC050
      TEMPO 2222/2302 4SM -TSRA BKN015CB
     FM230200 03008KT P6SM VCTS SCT015CB OVC030 PROB30 2302/2306 4SM
      -SHRA SCT008 BKN015=



000
FTUS45 KBOU 220641 AAA
TAFBJC
TAF AMD
KBJC 220641Z 2207/2306 VRB04KT P6SM SCT025 BKN035 OVC040
      TEMPO 2207/2208 -SHRA BKN025
     FM220800 13007KT 5SM -SHRA BR SCT012 OVC025
      TEMPO 2208/2211 3SM -RA BR BKN012
     FM221100 13010KT 3SM -RA BKN009 OVC020
     FM221500 VRB05KT P6SM VCSH SCT020 BKN040 BKN080
     FM222100 08008KT P6SM VCSH SCT015 BKN030 OVC050
      TEMPO 2222/2302 4SM -TSRA BKN015CB
     FM230200 03008KT P6SM VCTS SCT015CB OVC030 PROB30 2302/2306 4SM
      -SHRA SCT008 BKN015=



000
FTUS45 KBOU 220641 AAA
TAFBJC
TAF AMD
KBJC 220641Z 2207/2306 VRB04KT P6SM SCT025 BKN035 OVC040
      TEMPO 2207/2208 -SHRA BKN025
     FM220800 13007KT 5SM -SHRA BR SCT012 OVC025
      TEMPO 2208/2211 3SM -RA BR BKN012
     FM221100 13010KT 3SM -RA BKN009 OVC020
     FM221500 VRB05KT P6SM VCSH SCT020 BKN040 BKN080
     FM222100 08008KT P6SM VCSH SCT015 BKN030 OVC050
      TEMPO 2222/2302 4SM -TSRA BKN015CB
     FM230200 03008KT P6SM VCTS SCT015CB OVC030 PROB30 2302/2306 4SM
      -SHRA SCT008 BKN015=



000
FTUS45 KBOU 220641 AAA
TAFBJC
TAF AMD
KBJC 220641Z 2207/2306 VRB04KT P6SM SCT025 BKN035 OVC040
      TEMPO 2207/2208 -SHRA BKN025
     FM220800 13007KT 5SM -SHRA BR SCT012 OVC025
      TEMPO 2208/2211 3SM -RA BR BKN012
     FM221100 13010KT 3SM -RA BKN009 OVC020
     FM221500 VRB05KT P6SM VCSH SCT020 BKN040 BKN080
     FM222100 08008KT P6SM VCSH SCT015 BKN030 OVC050
      TEMPO 2222/2302 4SM -TSRA BKN015CB
     FM230200 03008KT P6SM VCTS SCT015CB OVC030 PROB30 2302/2306 4SM
      -SHRA SCT008 BKN015=



000
FTUS45 KBOU 220641 AAA
TAFBJC
TAF AMD
KBJC 220641Z 2207/2306 VRB04KT P6SM SCT025 BKN035 OVC040
      TEMPO 2207/2208 -SHRA BKN025
     FM220800 13007KT 5SM -SHRA BR SCT012 OVC025
      TEMPO 2208/2211 3SM -RA BR BKN012
     FM221100 13010KT 3SM -RA BKN009 OVC020
     FM221500 VRB05KT P6SM VCSH SCT020 BKN040 BKN080
     FM222100 08008KT P6SM VCSH SCT015 BKN030 OVC050
      TEMPO 2222/2302 4SM -TSRA BKN015CB
     FM230200 03008KT P6SM VCTS SCT015CB OVC030 PROB30 2302/2306 4SM
      -SHRA SCT008 BKN015=



000
FTUS45 KBOU 220640 AAA
TAFDEN
TAF AMD
KDEN 220640Z 2207/2312 15014KT P6SM VCSH BKN013 OVC025
      TEMPO 2207/2209 -SHRA BKN010
     FM220900 12012KT 5SM -SHRA BR BKN015 OVC025
      TEMPO 2209/2213 3SM -RA BR BKN011
     FM221300 09012KT 4SM -SHRA BKN012 OVC020
     FM221500 VRB05KT P6SM SCT017 BKN028 BKN050
     FM222100 08008KT P6SM VCSH SCT015 BKN030 OVC050
      TEMPO 2222/2302 4SM -TSRA BKN015CB
     FM230200 03008KT P6SM VCTS SCT015CB OVC030 PROB30 2302/2306 4SM
      -SHRA SCT008 BKN015
     FM230700 15007KT P6SM BKN012 OVC025=



000
FTUS45 KBOU 220640 AAA
TAFDEN
TAF AMD
KDEN 220640Z 2207/2312 15014KT P6SM VCSH BKN013 OVC025
      TEMPO 2207/2209 -SHRA BKN010
     FM220900 12012KT 5SM -SHRA BR BKN015 OVC025
      TEMPO 2209/2213 3SM -RA BR BKN011
     FM221300 09012KT 4SM -SHRA BKN012 OVC020
     FM221500 VRB05KT P6SM SCT017 BKN028 BKN050
     FM222100 08008KT P6SM VCSH SCT015 BKN030 OVC050
      TEMPO 2222/2302 4SM -TSRA BKN015CB
     FM230200 03008KT P6SM VCTS SCT015CB OVC030 PROB30 2302/2306 4SM
      -SHRA SCT008 BKN015
     FM230700 15007KT P6SM BKN012 OVC025=



000
FTUS45 KBOU 220640 AAA
TAFDEN
TAF AMD
KDEN 220640Z 2207/2312 15014KT P6SM VCSH BKN013 OVC025
      TEMPO 2207/2209 -SHRA BKN010
     FM220900 12012KT 5SM -SHRA BR BKN015 OVC025
      TEMPO 2209/2213 3SM -RA BR BKN011
     FM221300 09012KT 4SM -SHRA BKN012 OVC020
     FM221500 VRB05KT P6SM SCT017 BKN028 BKN050
     FM222100 08008KT P6SM VCSH SCT015 BKN030 OVC050
      TEMPO 2222/2302 4SM -TSRA BKN015CB
     FM230200 03008KT P6SM VCTS SCT015CB OVC030 PROB30 2302/2306 4SM
      -SHRA SCT008 BKN015
     FM230700 15007KT P6SM BKN012 OVC025=



000
FTUS45 KBOU 220538
TAFDEN
TAF
KDEN 220538Z 2206/2312 13012KT P6SM VCSH BKN022 OVC035
      TEMPO 2207/2209 -SHRA BKN017
     FM220900 12012KT 5SM -SHRA BR BKN015 OVC025
      TEMPO 2209/2213 3SM -RA BR BKN011
     FM221300 09012KT 4SM -SHRA BKN012 OVC020
     FM221500 VRB05KT P6SM SCT017 BKN028 BKN050
     FM222100 08008KT P6SM VCSH SCT015 BKN030 OVC050
      TEMPO 2222/2302 4SM -TSRA BKN015CB
     FM230200 03008KT P6SM VCTS SCT015CB OVC030 PROB30 2302/2306 4SM
      -SHRA SCT008 BKN015
     FM230700 15007KT P6SM BKN012 OVC025=



000
FTUS45 KBOU 220538
TAFBJC
TAF
KBJC 220538Z 2206/2306 VRB04KT P6SM SCT025 BKN035 OVC040
      TEMPO 2206/2208 -SHRA BKN025
     FM220800 13007KT 5SM -SHRA BR SCT012 OVC025
      TEMPO 2208/2211 3SM -RA BR BKN012
     FM221100 13010KT 3SM -RA BKN009 OVC020
     FM221500 VRB05KT P6SM VCSH SCT020 BKN040 BKN080
     FM222100 08008KT P6SM VCSH SCT015 BKN030 OVC050
      TEMPO 2222/2302 4SM -TSRA BKN015CB
     FM230200 03008KT P6SM VCTS SCT015CB OVC030 PROB30 2302/2306 4SM
      -SHRA SCT008 BKN015=



000
FTUS45 KBOU 220538
TAFAPA
TAF
KAPA 220538Z 2206/2306 15011KT P6SM VCSH SCT022 BKN035 OVC050
      TEMPO 2206/2208 -SHRA BKN020
     FM220800 13010KT 5SM -SHRA BR SCT012 BKN020 OVC030
      TEMPO 2208/2211 3SM -RA BR BKN011
     FM221100 13010KT 3SM -RA BKN009 OVC020
     FM221400 VRB05KT P6SM SCT017 BKN028 BKN050
     FM222100 08008KT P6SM VCSH SCT015 BKN030 OVC050
      TEMPO 2222/2302 4SM -TSRA BKN015CB
     FM230200 03008KT P6SM VCTS SCT015CB OVC030 PROB30 2302/2306 4SM
      -SHRA SCT008 BKN015=



000
FTUS45 KBOU 220538
TAFDEN
TAF
KDEN 220538Z 2206/2312 13012KT P6SM VCSH BKN022 OVC035
      TEMPO 2207/2209 -SHRA BKN017
     FM220900 12012KT 5SM -SHRA BR BKN015 OVC025
      TEMPO 2209/2213 3SM -RA BR BKN011
     FM221300 09012KT 4SM -SHRA BKN012 OVC020
     FM221500 VRB05KT P6SM SCT017 BKN028 BKN050
     FM222100 08008KT P6SM VCSH SCT015 BKN030 OVC050
      TEMPO 2222/2302 4SM -TSRA BKN015CB
     FM230200 03008KT P6SM VCTS SCT015CB OVC030 PROB30 2302/2306 4SM
      -SHRA SCT008 BKN015
     FM230700 15007KT P6SM BKN012 OVC025=



000
FTUS45 KBOU 220538
TAFAPA
TAF
KAPA 220538Z 2206/2306 15011KT P6SM VCSH SCT022 BKN035 OVC050
      TEMPO 2206/2208 -SHRA BKN020
     FM220800 13010KT 5SM -SHRA BR SCT012 BKN020 OVC030
      TEMPO 2208/2211 3SM -RA BR BKN011
     FM221100 13010KT 3SM -RA BKN009 OVC020
     FM221400 VRB05KT P6SM SCT017 BKN028 BKN050
     FM222100 08008KT P6SM VCSH SCT015 BKN030 OVC050
      TEMPO 2222/2302 4SM -TSRA BKN015CB
     FM230200 03008KT P6SM VCTS SCT015CB OVC030 PROB30 2302/2306 4SM
      -SHRA SCT008 BKN015=



000
FTUS45 KBOU 220538
TAFAPA
TAF
KAPA 220538Z 2206/2306 15011KT P6SM VCSH SCT022 BKN035 OVC050
      TEMPO 2206/2208 -SHRA BKN020
     FM220800 13010KT 5SM -SHRA BR SCT012 BKN020 OVC030
      TEMPO 2208/2211 3SM -RA BR BKN011
     FM221100 13010KT 3SM -RA BKN009 OVC020
     FM221400 VRB05KT P6SM SCT017 BKN028 BKN050
     FM222100 08008KT P6SM VCSH SCT015 BKN030 OVC050
      TEMPO 2222/2302 4SM -TSRA BKN015CB
     FM230200 03008KT P6SM VCTS SCT015CB OVC030 PROB30 2302/2306 4SM
      -SHRA SCT008 BKN015=



000
FTUS45 KBOU 220538
TAFBJC
TAF
KBJC 220538Z 2206/2306 VRB04KT P6SM SCT025 BKN035 OVC040
      TEMPO 2206/2208 -SHRA BKN025
     FM220800 13007KT 5SM -SHRA BR SCT012 OVC025
      TEMPO 2208/2211 3SM -RA BR BKN012
     FM221100 13010KT 3SM -RA BKN009 OVC020
     FM221500 VRB05KT P6SM VCSH SCT020 BKN040 BKN080
     FM222100 08008KT P6SM VCSH SCT015 BKN030 OVC050
      TEMPO 2222/2302 4SM -TSRA BKN015CB
     FM230200 03008KT P6SM VCTS SCT015CB OVC030 PROB30 2302/2306 4SM
      -SHRA SCT008 BKN015=



000
FTUS45 KBOU 220538
TAFDEN
TAF
KDEN 220538Z 2206/2312 13012KT P6SM VCSH BKN022 OVC035
      TEMPO 2207/2209 -SHRA BKN017
     FM220900 12012KT 5SM -SHRA BR BKN015 OVC025
      TEMPO 2209/2213 3SM -RA BR BKN011
     FM221300 09012KT 4SM -SHRA BKN012 OVC020
     FM221500 VRB05KT P6SM SCT017 BKN028 BKN050
     FM222100 08008KT P6SM VCSH SCT015 BKN030 OVC050
      TEMPO 2222/2302 4SM -TSRA BKN015CB
     FM230200 03008KT P6SM VCTS SCT015CB OVC030 PROB30 2302/2306 4SM
      -SHRA SCT008 BKN015
     FM230700 15007KT P6SM BKN012 OVC025=



000
FTUS45 KBOU 220538
TAFBJC
TAF
KBJC 220538Z 2206/2306 VRB04KT P6SM SCT025 BKN035 OVC040
      TEMPO 2206/2208 -SHRA BKN025
     FM220800 13007KT 5SM -SHRA BR SCT012 OVC025
      TEMPO 2208/2211 3SM -RA BR BKN012
     FM221100 13010KT 3SM -RA BKN009 OVC020
     FM221500 VRB05KT P6SM VCSH SCT020 BKN040 BKN080
     FM222100 08008KT P6SM VCSH SCT015 BKN030 OVC050
      TEMPO 2222/2302 4SM -TSRA BKN015CB
     FM230200 03008KT P6SM VCTS SCT015CB OVC030 PROB30 2302/2306 4SM
      -SHRA SCT008 BKN015=



000
FTUS45 KBOU 220453 AAE
TAFDEN
TAF AMD
KDEN 220453Z 2205/2306 13014KT P6SM VCSH SCT015 BKN028 OVC035
      TEMPO 2205/2207 BKN015
     FM220800 12014KT 5SM -SHRA BR SCT012 OVC025
      TEMPO 2208/2211 3SM -RA BR BKN012
     FM221100 12012KT 3SM -RA BKN009 OVC020
     FM221800 VRB05KT P6SM VCSH SCT020 BKN040 BKN080
     FM222200 08008KT P6SM SCT015 BKN030 OVC050
      TEMPO 2222/2302 4SM -SHRA BKN015
     FM230200 03008KT P6SM SCT015 OVC030 PROB30 2302/2306 4SM -SHRA
      SCT008 BKN015=



000
FTUS45 KBOU 220453 AAD
TAFBJC
TAF AMD
KBJC 220453Z 2205/2224 VRB05KT P6SM SCT035 BKN050
      TEMPO 2206/2208 -SHRA BKN025
     FM220800 13007KT 5SM -SHRA BR SCT012 OVC025
      TEMPO 2208/2211 3SM -RA BR BKN012
     FM221100 13010KT 3SM -RA BKN009 OVC020
     FM221800 VRB05KT P6SM VCSH SCT020 BKN040 BKN080
     FM222200 08005KT P6SM SCT015 BKN030 OVC050
      TEMPO 2222/2224 4SM -SHRA BKN015=



000
FTUS45 KBOU 220453 AAE
TAFDEN
TAF AMD
KDEN 220453Z 2205/2306 13014KT P6SM VCSH SCT015 BKN028 OVC035
      TEMPO 2205/2207 BKN015
     FM220800 12014KT 5SM -SHRA BR SCT012 OVC025
      TEMPO 2208/2211 3SM -RA BR BKN012
     FM221100 12012KT 3SM -RA BKN009 OVC020
     FM221800 VRB05KT P6SM VCSH SCT020 BKN040 BKN080
     FM222200 08008KT P6SM SCT015 BKN030 OVC050
      TEMPO 2222/2302 4SM -SHRA BKN015
     FM230200 03008KT P6SM SCT015 OVC030 PROB30 2302/2306 4SM -SHRA
      SCT008 BKN015=



000
FTUS45 KBOU 220453 AAD
TAFBJC
TAF AMD
KBJC 220453Z 2205/2224 VRB05KT P6SM SCT035 BKN050
      TEMPO 2206/2208 -SHRA BKN025
     FM220800 13007KT 5SM -SHRA BR SCT012 OVC025
      TEMPO 2208/2211 3SM -RA BR BKN012
     FM221100 13010KT 3SM -RA BKN009 OVC020
     FM221800 VRB05KT P6SM VCSH SCT020 BKN040 BKN080
     FM222200 08005KT P6SM SCT015 BKN030 OVC050
      TEMPO 2222/2224 4SM -SHRA BKN015=



000
FTUS45 KBOU 220453 AAC
TAFAPA
TAF AMD
KAPA 220453Z 2205/2224 13014KT P6SM VCSH SCT025 BKN035 BKN050
      TEMPO 2206/2208 5SM -SHRA BR BKN015
     FM220800 12010KT 5SM -SHRA BR SCT012 OVC025
      TEMPO 2208/2211 3SM -RA BR BKN012
     FM221100 13010KT 3SM -RA BKN009 OVC020
     FM221800 VRB05KT P6SM VCSH SCT020 BKN040 BKN080
     FM222200 08008KT P6SM SCT015 BKN030 OVC050
      TEMPO 2222/2224 4SM -SHRA BKN015=



000
FTUS45 KBOU 220453 AAC
TAFAPA
TAF AMD
KAPA 220453Z 2205/2224 13014KT P6SM VCSH SCT025 BKN035 BKN050
      TEMPO 2206/2208 5SM -SHRA BR BKN015
     FM220800 12010KT 5SM -SHRA BR SCT012 OVC025
      TEMPO 2208/2211 3SM -RA BR BKN012
     FM221100 13010KT 3SM -RA BKN009 OVC020
     FM221800 VRB05KT P6SM VCSH SCT020 BKN040 BKN080
     FM222200 08008KT P6SM SCT015 BKN030 OVC050
      TEMPO 2222/2224 4SM -SHRA BKN015=



000
FTUS45 KBOU 220249 AAC
TAFBJC
TAF AMD
KBJC 220249Z 2203/2224 19005KT P6SM SCT015 OVC025
      TEMPO 2203/2207 -SHRA BKN015
     FM220700 13007KT 5SM -SHRA BR SCT012 OVC025
      TEMPO 2207/2211 3SM -RA BR BKN012
     FM221100 13010KT 3SM -RA BKN009 OVC020
     FM221800 VRB05KT P6SM VCSH SCT020 BKN040 BKN080
     FM222200 08005KT P6SM SCT015 BKN030 OVC050
      TEMPO 2222/2224 4SM -SHRA BKN015=



000
FTUS45 KBOU 220249 AAC
TAFBJC
TAF AMD
KBJC 220249Z 2203/2224 19005KT P6SM SCT015 OVC025
      TEMPO 2203/2207 -SHRA BKN015
     FM220700 13007KT 5SM -SHRA BR SCT012 OVC025
      TEMPO 2207/2211 3SM -RA BR BKN012
     FM221100 13010KT 3SM -RA BKN009 OVC020
     FM221800 VRB05KT P6SM VCSH SCT020 BKN040 BKN080
     FM222200 08005KT P6SM SCT015 BKN030 OVC050
      TEMPO 2222/2224 4SM -SHRA BKN015=



000
FTUS45 KBOU 220249 AAD
TAFDEN
TAF AMD
KDEN 220249Z 2203/2306 24007KT P6SM SCT025 OVC040
     FM220400 16007KT P6SM BKN025 OVC040
      TEMPO 2204/2207 -SHRA BKN015
     FM220700 13010KT 5SM -SHRA BR SCT012 OVC025
      TEMPO 2207/2211 3SM -RA BR BKN012
     FM221100 13010KT 3SM -RA BKN009 OVC020
     FM221800 VRB05KT P6SM VCSH SCT020 BKN040 BKN080
     FM222200 08008KT P6SM SCT015 BKN030 OVC050
      TEMPO 2222/2302 4SM -SHRA BKN015
     FM230200 03008KT P6SM SCT015 OVC030 PROB30 2302/2306 4SM -SHRA
      SCT008 BKN015=



000
FTUS45 KBOU 220249 AAC
TAFBJC
TAF AMD
KBJC 220249Z 2203/2224 19005KT P6SM SCT015 OVC025
      TEMPO 2203/2207 -SHRA BKN015
     FM220700 13007KT 5SM -SHRA BR SCT012 OVC025
      TEMPO 2207/2211 3SM -RA BR BKN012
     FM221100 13010KT 3SM -RA BKN009 OVC020
     FM221800 VRB05KT P6SM VCSH SCT020 BKN040 BKN080
     FM222200 08005KT P6SM SCT015 BKN030 OVC050
      TEMPO 2222/2224 4SM -SHRA BKN015=



000
FTUS45 KBOU 220249 AAB
TAFAPA
TAF AMD
KAPA 220249Z 2203/2224 16008KT P6SM VCSH SCT025 OVC035
     FM220400 13008KT P6SM BKN025 OVC035
      TEMPO 2204/2207 5SM -SHRA BR BKN015
     FM220700 13010KT 5SM -SHRA BR SCT012 OVC025
      TEMPO 2207/2211 3SM -RA BR BKN012
     FM221100 13010KT 3SM -RA BKN009 OVC020
     FM221800 VRB05KT P6SM VCSH SCT020 BKN040 BKN080
     FM222200 08008KT P6SM SCT015 BKN030 OVC050
      TEMPO 2222/2224 4SM -SHRA BKN015=



000
FTUS45 KBOU 220249 AAB
TAFAPA
TAF AMD
KAPA 220249Z 2203/2224 16008KT P6SM VCSH SCT025 OVC035
     FM220400 13008KT P6SM BKN025 OVC035
      TEMPO 2204/2207 5SM -SHRA BR BKN015
     FM220700 13010KT 5SM -SHRA BR SCT012 OVC025
      TEMPO 2207/2211 3SM -RA BR BKN012
     FM221100 13010KT 3SM -RA BKN009 OVC020
     FM221800 VRB05KT P6SM VCSH SCT020 BKN040 BKN080
     FM222200 08008KT P6SM SCT015 BKN030 OVC050
      TEMPO 2222/2224 4SM -SHRA BKN015=



000
FTUS45 KBOU 220249 AAD
TAFDEN
TAF AMD
KDEN 220249Z 2203/2306 24007KT P6SM SCT025 OVC040
     FM220400 16007KT P6SM BKN025 OVC040
      TEMPO 2204/2207 -SHRA BKN015
     FM220700 13010KT 5SM -SHRA BR SCT012 OVC025
      TEMPO 2207/2211 3SM -RA BR BKN012
     FM221100 13010KT 3SM -RA BKN009 OVC020
     FM221800 VRB05KT P6SM VCSH SCT020 BKN040 BKN080
     FM222200 08008KT P6SM SCT015 BKN030 OVC050
      TEMPO 2222/2302 4SM -SHRA BKN015
     FM230200 03008KT P6SM SCT015 OVC030 PROB30 2302/2306 4SM -SHRA
      SCT008 BKN015=



000
FTUS45 KBOU 220119 AAA
TAFAPA
TAF AMD
KAPA 220119Z 2201/2224 VRB04KT P6SM VCSH BKN028 OVC040
     FM220300 13008KT P6SM BKN025 OVC040
      TEMPO 2203/2207 5SM -SHRA BR BKN015
     FM220700 13010KT 5SM -SHRA BR SCT012 OVC025
      TEMPO 2207/2211 3SM -RA BR BKN012
     FM221100 13010KT 3SM -RA BKN009 OVC020
     FM221800 VRB05KT P6SM VCSH SCT020 BKN040 BKN080
     FM222200 08008KT P6SM SCT015 BKN030 OVC050
      TEMPO 2222/2224 4SM -SHRA BKN015=



000
FTUS45 KBOU 220119 AAB
TAFBJC
TAF AMD
KBJC 220119Z 2201/2224 33006KT P6SM SCT028 BKN050 OVC100
     FM220300 VRB05KT P6SM SCT015 BKN030 OVC050
      TEMPO 2203/2207 -SHRA BKN015
     FM220700 13010KT 5SM -SHRA BR SCT012 OVC025
      TEMPO 2207/2211 3SM -RA BR BKN012
     FM221100 13010KT 3SM -RA BKN009 OVC020
     FM221800 VRB05KT P6SM VCSH SCT020 BKN040 BKN080
     FM222200 08005KT P6SM SCT015 BKN030 OVC050
      TEMPO 2222/2224 4SM -SHRA BKN015=



000
FTUS45 KBOU 220119 AAB
TAFBJC
TAF AMD
KBJC 220119Z 2201/2224 33006KT P6SM SCT028 BKN050 OVC100
     FM220300 VRB05KT P6SM SCT015 BKN030 OVC050
      TEMPO 2203/2207 -SHRA BKN015
     FM220700 13010KT 5SM -SHRA BR SCT012 OVC025
      TEMPO 2207/2211 3SM -RA BR BKN012
     FM221100 13010KT 3SM -RA BKN009 OVC020
     FM221800 VRB05KT P6SM VCSH SCT020 BKN040 BKN080
     FM222200 08005KT P6SM SCT015 BKN030 OVC050
      TEMPO 2222/2224 4SM -SHRA BKN015=



000
FTUS45 KBOU 220119 AAC
TAFDEN
TAF AMD
KDEN 220119Z 2201/2306 29007KT P6SM SCT025 BKN050 OVC100
     FM220300 13007KT P6SM SCT025 BKN050 OVC080
      TEMPO 2204/2207 -SHRA BKN025
     FM220700 13010KT 5SM -SHRA BR SCT012 OVC025
      TEMPO 2207/2211 3SM -RA BR BKN012
     FM221100 13010KT 3SM -RA BKN009 OVC020
     FM221800 VRB05KT P6SM VCSH SCT020 BKN040 BKN080
     FM222200 08008KT P6SM SCT015 BKN030 OVC050
      TEMPO 2222/2302 4SM -SHRA BKN015
     FM230200 03008KT P6SM SCT015 OVC030 PROB30 2302/2306 4SM -SHRA
      SCT008 BKN015=



000
FTUS45 KBOU 220119 AAC
TAFDEN
TAF AMD
KDEN 220119Z 2201/2306 29007KT P6SM SCT025 BKN050 OVC100
     FM220300 13007KT P6SM SCT025 BKN050 OVC080
      TEMPO 2204/2207 -SHRA BKN025
     FM220700 13010KT 5SM -SHRA BR SCT012 OVC025
      TEMPO 2207/2211 3SM -RA BR BKN012
     FM221100 13010KT 3SM -RA BKN009 OVC020
     FM221800 VRB05KT P6SM VCSH SCT020 BKN040 BKN080
     FM222200 08008KT P6SM SCT015 BKN030 OVC050
      TEMPO 2222/2302 4SM -SHRA BKN015
     FM230200 03008KT P6SM SCT015 OVC030 PROB30 2302/2306 4SM -SHRA
      SCT008 BKN015=



000
FTUS45 KBOU 220119 AAA
TAFAPA
TAF AMD
KAPA 220119Z 2201/2224 VRB04KT P6SM VCSH BKN028 OVC040
     FM220300 13008KT P6SM BKN025 OVC040
      TEMPO 2203/2207 5SM -SHRA BR BKN015
     FM220700 13010KT 5SM -SHRA BR SCT012 OVC025
      TEMPO 2207/2211 3SM -RA BR BKN012
     FM221100 13010KT 3SM -RA BKN009 OVC020
     FM221800 VRB05KT P6SM VCSH SCT020 BKN040 BKN080
     FM222200 08008KT P6SM SCT015 BKN030 OVC050
      TEMPO 2222/2224 4SM -SHRA BKN015=



000
FTUS45 KBOU 220009 AAA
TAFBJC
TAF AMD
KBJC 220009Z 2200/2224 33006KT P6SM VCTS SCT028 BKN060CB OVC090
      TEMPO 2200/2203 -SHRA BKN028
     FM220300 VRB05KT P6SM SCT015 BKN030 OVC050
      TEMPO 2203/2207 -SHRA BKN015
     FM220700 13010KT 5SM -SHRA BR SCT012 OVC025
      TEMPO 2207/2211 3SM -RA BR BKN012
     FM221100 13010KT 3SM -RA BKN009 OVC020
     FM221800 VRB05KT P6SM VCSH SCT020 BKN040 BKN080
     FM222200 08005KT P6SM SCT015 BKN030 OVC050
      TEMPO 2222/2224 4SM -SHRA BKN015=



000
FTUS45 KBOU 220009 AAA
TAFBJC
TAF AMD
KBJC 220009Z 2200/2224 33006KT P6SM VCTS SCT028 BKN060CB OVC090
      TEMPO 2200/2203 -SHRA BKN028
     FM220300 VRB05KT P6SM SCT015 BKN030 OVC050
      TEMPO 2203/2207 -SHRA BKN015
     FM220700 13010KT 5SM -SHRA BR SCT012 OVC025
      TEMPO 2207/2211 3SM -RA BR BKN012
     FM221100 13010KT 3SM -RA BKN009 OVC020
     FM221800 VRB05KT P6SM VCSH SCT020 BKN040 BKN080
     FM222200 08005KT P6SM SCT015 BKN030 OVC050
      TEMPO 2222/2224 4SM -SHRA BKN015=



000
FTUS45 KBOU 220009 AAA
TAFBJC
TAF AMD
KBJC 220009Z 2200/2224 33006KT P6SM VCTS SCT028 BKN060CB OVC090
      TEMPO 2200/2203 -SHRA BKN028
     FM220300 VRB05KT P6SM SCT015 BKN030 OVC050
      TEMPO 2203/2207 -SHRA BKN015
     FM220700 13010KT 5SM -SHRA BR SCT012 OVC025
      TEMPO 2207/2211 3SM -RA BR BKN012
     FM221100 13010KT 3SM -RA BKN009 OVC020
     FM221800 VRB05KT P6SM VCSH SCT020 BKN040 BKN080
     FM222200 08005KT P6SM SCT015 BKN030 OVC050
      TEMPO 2222/2224 4SM -SHRA BKN015=



000
FTUS45 KBOU 220009 AAA
TAFBJC
TAF AMD
KBJC 220009Z 2200/2224 33006KT P6SM VCTS SCT028 BKN060CB OVC090
      TEMPO 2200/2203 -SHRA BKN028
     FM220300 VRB05KT P6SM SCT015 BKN030 OVC050
      TEMPO 2203/2207 -SHRA BKN015
     FM220700 13010KT 5SM -SHRA BR SCT012 OVC025
      TEMPO 2207/2211 3SM -RA BR BKN012
     FM221100 13010KT 3SM -RA BKN009 OVC020
     FM221800 VRB05KT P6SM VCSH SCT020 BKN040 BKN080
     FM222200 08005KT P6SM SCT015 BKN030 OVC050
      TEMPO 2222/2224 4SM -SHRA BKN015=



000
FTUS45 KBOU 220008 AAB
TAFDEN
TAF AMD
KDEN 220008Z 2200/2306 29007KT P6SM VCSH SCT021 BKN030 OVC060
     FM220130 VRB05KT P6SM VCSH SCT027 BKN060 OVC100
     FM220300 08007KT P6SM SCT025 BKN050 OVC080
      TEMPO 2203/2207 -SHRA BKN025
     FM220700 13010KT 5SM -SHRA BR SCT012 OVC025
      TEMPO 2207/2211 3SM -RA BR BKN012
     FM221100 13010KT 3SM -RA BKN009 OVC020
     FM221800 VRB05KT P6SM VCSH SCT020 BKN040 BKN080
     FM222200 08008KT P6SM SCT015 BKN030 OVC050
      TEMPO 2222/2302 4SM -SHRA BKN015
     FM230200 03008KT P6SM SCT015 OVC030 PROB30 2302/2306 4SM -SHRA
      SCT008 BKN015=



000
FTUS45 KBOU 220008 AAB
TAFDEN
TAF AMD
KDEN 220008Z 2200/2306 29007KT P6SM VCSH SCT021 BKN030 OVC060
     FM220130 VRB05KT P6SM VCSH SCT027 BKN060 OVC100
     FM220300 08007KT P6SM SCT025 BKN050 OVC080
      TEMPO 2203/2207 -SHRA BKN025
     FM220700 13010KT 5SM -SHRA BR SCT012 OVC025
      TEMPO 2207/2211 3SM -RA BR BKN012
     FM221100 13010KT 3SM -RA BKN009 OVC020
     FM221800 VRB05KT P6SM VCSH SCT020 BKN040 BKN080
     FM222200 08008KT P6SM SCT015 BKN030 OVC050
      TEMPO 2222/2302 4SM -SHRA BKN015
     FM230200 03008KT P6SM SCT015 OVC030 PROB30 2302/2306 4SM -SHRA
      SCT008 BKN015=



000
FTUS45 KBOU 220008 AAB
TAFDEN
TAF AMD
KDEN 220008Z 2200/2306 29007KT P6SM VCSH SCT021 BKN030 OVC060
     FM220130 VRB05KT P6SM VCSH SCT027 BKN060 OVC100
     FM220300 08007KT P6SM SCT025 BKN050 OVC080
      TEMPO 2203/2207 -SHRA BKN025
     FM220700 13010KT 5SM -SHRA BR SCT012 OVC025
      TEMPO 2207/2211 3SM -RA BR BKN012
     FM221100 13010KT 3SM -RA BKN009 OVC020
     FM221800 VRB05KT P6SM VCSH SCT020 BKN040 BKN080
     FM222200 08008KT P6SM SCT015 BKN030 OVC050
      TEMPO 2222/2302 4SM -SHRA BKN015
     FM230200 03008KT P6SM SCT015 OVC030 PROB30 2302/2306 4SM -SHRA
      SCT008 BKN015=



000
FTUS45 KBOU 220008 AAB
TAFDEN
TAF AMD
KDEN 220008Z 2200/2306 29007KT P6SM VCSH SCT021 BKN030 OVC060
     FM220130 VRB05KT P6SM VCSH SCT027 BKN060 OVC100
     FM220300 08007KT P6SM SCT025 BKN050 OVC080
      TEMPO 2203/2207 -SHRA BKN025
     FM220700 13010KT 5SM -SHRA BR SCT012 OVC025
      TEMPO 2207/2211 3SM -RA BR BKN012
     FM221100 13010KT 3SM -RA BKN009 OVC020
     FM221800 VRB05KT P6SM VCSH SCT020 BKN040 BKN080
     FM222200 08008KT P6SM SCT015 BKN030 OVC050
      TEMPO 2222/2302 4SM -SHRA BKN015
     FM230200 03008KT P6SM SCT015 OVC030 PROB30 2302/2306 4SM -SHRA
      SCT008 BKN015=



000
FTUS45 KBOU 212342 AAA
TAFDEN
TAF AMD
KDEN 212342Z 2200/2306 29007KT P6SM VCSH SCT027 BKN060 OVC110
     FM220130 VRB05KT P6SM VCSH SCT027 BKN060 OVC100
     FM220300 08007KT P6SM SCT025 BKN050 OVC080
      TEMPO 2203/2207 -SHRA BKN025
     FM220700 13010KT 5SM -SHRA BR SCT012 OVC025
      TEMPO 2207/2211 3SM -RA BR BKN012
     FM221100 13010KT 3SM -RA BKN009 OVC020
     FM221800 VRB05KT P6SM VCSH SCT020 BKN040 BKN080
     FM222200 08008KT P6SM SCT015 BKN030 OVC050
      TEMPO 2222/2302 4SM -SHRA BKN015
     FM230200 03008KT P6SM SCT015 OVC030 PROB30 2302/2306 4SM -SHRA
      SCT008 BKN015=



000
FTUS45 KBOU 212342 AAA
TAFDEN
TAF AMD
KDEN 212342Z 2200/2306 29007KT P6SM VCSH SCT027 BKN060 OVC110
     FM220130 VRB05KT P6SM VCSH SCT027 BKN060 OVC100
     FM220300 08007KT P6SM SCT025 BKN050 OVC080
      TEMPO 2203/2207 -SHRA BKN025
     FM220700 13010KT 5SM -SHRA BR SCT012 OVC025
      TEMPO 2207/2211 3SM -RA BR BKN012
     FM221100 13010KT 3SM -RA BKN009 OVC020
     FM221800 VRB05KT P6SM VCSH SCT020 BKN040 BKN080
     FM222200 08008KT P6SM SCT015 BKN030 OVC050
      TEMPO 2222/2302 4SM -SHRA BKN015
     FM230200 03008KT P6SM SCT015 OVC030 PROB30 2302/2306 4SM -SHRA
      SCT008 BKN015=



000
FTUS45 KBOU 212320
TAFBJC
TAF
KBJC 212320Z 2200/2224 35006KT P6SM VCTS SCT015 BKN060CB OVC080
      TEMPO 2200/2203 -SHRA BKN015
     FM220300 VRB05KT P6SM SCT015 BKN030 OVC050
      TEMPO 2203/2207 -SHRA BKN015
     FM220700 13010KT 5SM -SHRA BR SCT012 OVC025
      TEMPO 2207/2211 3SM -RA BR BKN012
     FM221100 13010KT 3SM -RA BKN009 OVC020
     FM221800 VRB05KT P6SM VCSH SCT020 BKN040 BKN080
     FM222200 08005KT P6SM SCT015 BKN030 OVC050
      TEMPO 2222/2224 4SM -SHRA BKN015=



000
FTUS45 KBOU 212320
TAFDEN
TAF
KDEN 212320Z 2200/2306 04006KT P6SM VCSH SCT027 BKN060 OVC110
     FM220300 08007KT P6SM SCT025 BKN050 OVC080
      TEMPO 2203/2207 -SHRA BKN025
     FM220700 13010KT 5SM -SHRA BR SCT012 OVC025
      TEMPO 2207/2211 3SM -RA BR BKN012
     FM221100 13010KT 3SM -RA BKN009 OVC020
     FM221800 VRB05KT P6SM VCSH SCT020 BKN040 BKN080
     FM222200 08008KT P6SM SCT015 BKN030 OVC050
      TEMPO 2222/2302 4SM -SHRA BKN015
     FM230200 03008KT P6SM SCT015 OVC030 PROB30 2302/2306 4SM -SHRA
      SCT008 BKN015=



000
FTUS45 KBOU 212320
TAFBJC
TAF
KBJC 212320Z 2200/2224 35006KT P6SM VCTS SCT015 BKN060CB OVC080
      TEMPO 2200/2203 -SHRA BKN015
     FM220300 VRB05KT P6SM SCT015 BKN030 OVC050
      TEMPO 2203/2207 -SHRA BKN015
     FM220700 13010KT 5SM -SHRA BR SCT012 OVC025
      TEMPO 2207/2211 3SM -RA BR BKN012
     FM221100 13010KT 3SM -RA BKN009 OVC020
     FM221800 VRB05KT P6SM VCSH SCT020 BKN040 BKN080
     FM222200 08005KT P6SM SCT015 BKN030 OVC050
      TEMPO 2222/2224 4SM -SHRA BKN015=



000
FTUS45 KBOU 212320
TAFDEN
TAF
KDEN 212320Z 2200/2306 04006KT P6SM VCSH SCT027 BKN060 OVC110
     FM220300 08007KT P6SM SCT025 BKN050 OVC080
      TEMPO 2203/2207 -SHRA BKN025
     FM220700 13010KT 5SM -SHRA BR SCT012 OVC025
      TEMPO 2207/2211 3SM -RA BR BKN012
     FM221100 13010KT 3SM -RA BKN009 OVC020
     FM221800 VRB05KT P6SM VCSH SCT020 BKN040 BKN080
     FM222200 08008KT P6SM SCT015 BKN030 OVC050
      TEMPO 2222/2302 4SM -SHRA BKN015
     FM230200 03008KT P6SM SCT015 OVC030 PROB30 2302/2306 4SM -SHRA
      SCT008 BKN015=



000
FTUS45 KBOU 212320
TAFDEN
TAF
KDEN 212320Z 2200/2306 04006KT P6SM VCSH SCT027 BKN060 OVC110
     FM220300 08007KT P6SM SCT025 BKN050 OVC080
      TEMPO 2203/2207 -SHRA BKN025
     FM220700 13010KT 5SM -SHRA BR SCT012 OVC025
      TEMPO 2207/2211 3SM -RA BR BKN012
     FM221100 13010KT 3SM -RA BKN009 OVC020
     FM221800 VRB05KT P6SM VCSH SCT020 BKN040 BKN080
     FM222200 08008KT P6SM SCT015 BKN030 OVC050
      TEMPO 2222/2302 4SM -SHRA BKN015
     FM230200 03008KT P6SM SCT015 OVC030 PROB30 2302/2306 4SM -SHRA
      SCT008 BKN015=



000
FTUS45 KBOU 212320
TAFDEN
TAF
KDEN 212320Z 2200/2306 04006KT P6SM VCSH SCT027 BKN060 OVC110
     FM220300 08007KT P6SM SCT025 BKN050 OVC080
      TEMPO 2203/2207 -SHRA BKN025
     FM220700 13010KT 5SM -SHRA BR SCT012 OVC025
      TEMPO 2207/2211 3SM -RA BR BKN012
     FM221100 13010KT 3SM -RA BKN009 OVC020
     FM221800 VRB05KT P6SM VCSH SCT020 BKN040 BKN080
     FM222200 08008KT P6SM SCT015 BKN030 OVC050
      TEMPO 2222/2302 4SM -SHRA BKN015
     FM230200 03008KT P6SM SCT015 OVC030 PROB30 2302/2306 4SM -SHRA
      SCT008 BKN015=



000
FTUS45 KBOU 212320
TAFBJC
TAF
KBJC 212320Z 2200/2224 35006KT P6SM VCTS SCT015 BKN060CB OVC080
      TEMPO 2200/2203 -SHRA BKN015
     FM220300 VRB05KT P6SM SCT015 BKN030 OVC050
      TEMPO 2203/2207 -SHRA BKN015
     FM220700 13010KT 5SM -SHRA BR SCT012 OVC025
      TEMPO 2207/2211 3SM -RA BR BKN012
     FM221100 13010KT 3SM -RA BKN009 OVC020
     FM221800 VRB05KT P6SM VCSH SCT020 BKN040 BKN080
     FM222200 08005KT P6SM SCT015 BKN030 OVC050
      TEMPO 2222/2224 4SM -SHRA BKN015=



000
FTUS45 KBOU 212320
TAFAPA
TAF
KAPA 212320Z 2200/2224 VRB04KT P6SM VCSH SCT025 BKN030 OVC050
     FM220300 09008KT P6SM SCT025 BKN030 OVC050
      TEMPO 2203/2207 -SHRA BKN025
     FM220700 13010KT 5SM -SHRA BR SCT012 OVC025
      TEMPO 2207/2211 3SM -RA BR BKN012
     FM221100 13010KT 3SM -RA BKN009 OVC020
     FM221800 VRB05KT P6SM VCSH SCT020 BKN040 BKN080
     FM222200 08008KT P6SM SCT015 BKN030 OVC050
      TEMPO 2222/2224 4SM -SHRA BKN015=



000
FTUS45 KBOU 212320
TAFAPA
TAF
KAPA 212320Z 2200/2224 VRB04KT P6SM VCSH SCT025 BKN030 OVC050
     FM220300 09008KT P6SM SCT025 BKN030 OVC050
      TEMPO 2203/2207 -SHRA BKN025
     FM220700 13010KT 5SM -SHRA BR SCT012 OVC025
      TEMPO 2207/2211 3SM -RA BR BKN012
     FM221100 13010KT 3SM -RA BKN009 OVC020
     FM221800 VRB05KT P6SM VCSH SCT020 BKN040 BKN080
     FM222200 08008KT P6SM SCT015 BKN030 OVC050
      TEMPO 2222/2224 4SM -SHRA BKN015=



000
FTUS45 KBOU 212320
TAFAPA
TAF
KAPA 212320Z 2200/2224 VRB04KT P6SM VCSH SCT025 BKN030 OVC050
     FM220300 09008KT P6SM SCT025 BKN030 OVC050
      TEMPO 2203/2207 -SHRA BKN025
     FM220700 13010KT 5SM -SHRA BR SCT012 OVC025
      TEMPO 2207/2211 3SM -RA BR BKN012
     FM221100 13010KT 3SM -RA BKN009 OVC020
     FM221800 VRB05KT P6SM VCSH SCT020 BKN040 BKN080
     FM222200 08008KT P6SM SCT015 BKN030 OVC050
      TEMPO 2222/2224 4SM -SHRA BKN015=



000
FTUS45 KBOU 212320
TAFAPA
TAF
KAPA 212320Z 2200/2224 VRB04KT P6SM VCSH SCT025 BKN030 OVC050
     FM220300 09008KT P6SM SCT025 BKN030 OVC050
      TEMPO 2203/2207 -SHRA BKN025
     FM220700 13010KT 5SM -SHRA BR SCT012 OVC025
      TEMPO 2207/2211 3SM -RA BR BKN012
     FM221100 13010KT 3SM -RA BKN009 OVC020
     FM221800 VRB05KT P6SM VCSH SCT020 BKN040 BKN080
     FM222200 08008KT P6SM SCT015 BKN030 OVC050
      TEMPO 2222/2224 4SM -SHRA BKN015=



000
FTUS45 KBOU 212320
TAFBJC
TAF
KBJC 212320Z 2200/2224 35006KT P6SM VCTS SCT015 BKN060CB OVC080
      TEMPO 2200/2203 -SHRA BKN015
     FM220300 VRB05KT P6SM SCT015 BKN030 OVC050
      TEMPO 2203/2207 -SHRA BKN015
     FM220700 13010KT 5SM -SHRA BR SCT012 OVC025
      TEMPO 2207/2211 3SM -RA BR BKN012
     FM221100 13010KT 3SM -RA BKN009 OVC020
     FM221800 VRB05KT P6SM VCSH SCT020 BKN040 BKN080
     FM222200 08005KT P6SM SCT015 BKN030 OVC050
      TEMPO 2222/2224 4SM -SHRA BKN015=



000
FTUS45 KBOU 212315 AAD
TAFAPA
TAF AMD
KAPA 212315Z 2123/2218 VRB04KT P6SM BKN030 BKN040
     FM220000 33008KT P6SM VCSH SCT035 BKN060 OVC110
      TEMPO 2201/2205 -SHRA BKN018
     FM220500 14012G18KT 5SM -SHRA BR SCT012 OVC025
      TEMPO 2205/2209 3SM -RA BR BKN012
     FM220900 11010KT 3SM -RA BKN009 OVC020
     FM221600 VRB05KT P6SM VCSH SCT015 BKN035 BKN070=



000
FTUS45 KBOU 212315 AAD
TAFAPA
TAF AMD
KAPA 212315Z 2123/2218 VRB04KT P6SM BKN030 BKN040
     FM220000 33008KT P6SM VCSH SCT035 BKN060 OVC110
      TEMPO 2201/2205 -SHRA BKN018
     FM220500 14012G18KT 5SM -SHRA BR SCT012 OVC025
      TEMPO 2205/2209 3SM -RA BR BKN012
     FM220900 11010KT 3SM -RA BKN009 OVC020
     FM221600 VRB05KT P6SM VCSH SCT015 BKN035 BKN070=



000
FTUS45 KBOU 212246 AAD
TAFDEN
TAF AMD
KDEN 212246Z 2123/2224 01008KT P6SM VCSH SCT035 BKN060 OVC120
     FM212330 08007KT P6SM VCSH SCT040 BKN060 OVC120
      TEMPO 2201/2205 -SHRA BKN020
     FM220500 14012KT 5SM -SHRA BR SCT012 OVC025
      TEMPO 2205/2209 3SM -RA BR BKN012
     FM220900 13010KT 3SM -RA BKN009 OVC020
     FM221700 VRB05KT P6SM VCSH SCT020 BKN040 BKN080
     FM222200 10010KT P6SM SCT015 BKN030 OVC050
      TEMPO 2222/2224 4SM -SHRA BKN015=



000
FTUS45 KBOU 212246 AAD
TAFDEN
TAF AMD
KDEN 212246Z 2123/2224 01008KT P6SM VCSH SCT035 BKN060 OVC120
     FM212330 08007KT P6SM VCSH SCT040 BKN060 OVC120
      TEMPO 2201/2205 -SHRA BKN020
     FM220500 14012KT 5SM -SHRA BR SCT012 OVC025
      TEMPO 2205/2209 3SM -RA BR BKN012
     FM220900 13010KT 3SM -RA BKN009 OVC020
     FM221700 VRB05KT P6SM VCSH SCT020 BKN040 BKN080
     FM222200 10010KT P6SM SCT015 BKN030 OVC050
      TEMPO 2222/2224 4SM -SHRA BKN015=



000
FTUS45 KBOU 212246 AAD
TAFDEN
TAF AMD
KDEN 212246Z 2123/2224 01008KT P6SM VCSH SCT035 BKN060 OVC120
     FM212330 08007KT P6SM VCSH SCT040 BKN060 OVC120
      TEMPO 2201/2205 -SHRA BKN020
     FM220500 14012KT 5SM -SHRA BR SCT012 OVC025
      TEMPO 2205/2209 3SM -RA BR BKN012
     FM220900 13010KT 3SM -RA BKN009 OVC020
     FM221700 VRB05KT P6SM VCSH SCT020 BKN040 BKN080
     FM222200 10010KT P6SM SCT015 BKN030 OVC050
      TEMPO 2222/2224 4SM -SHRA BKN015=



000
FTUS45 KBOU 212159 AAC
TAFDEN
TAF AMD
KDEN 212159Z 2122/2224 01008KT P6SM VCSH SCT035 BKN060 OVC120
      TEMPO 2201/2205 -SHRA BKN020
     FM220500 14012KT 5SM -SHRA BR SCT012 OVC025
      TEMPO 2205/2209 3SM -RA BR BKN012
     FM220900 13010KT 3SM -RA BKN009 OVC020
     FM221700 VRB05KT P6SM VCSH SCT020 BKN040 BKN080
     FM222200 10010KT P6SM SCT015 BKN030 OVC050
      TEMPO 2222/2224 4SM -SHRA BKN015=



000
FTUS45 KBOU 212159 AAC
TAFDEN
TAF AMD
KDEN 212159Z 2122/2224 01008KT P6SM VCSH SCT035 BKN060 OVC120
      TEMPO 2201/2205 -SHRA BKN020
     FM220500 14012KT 5SM -SHRA BR SCT012 OVC025
      TEMPO 2205/2209 3SM -RA BR BKN012
     FM220900 13010KT 3SM -RA BKN009 OVC020
     FM221700 VRB05KT P6SM VCSH SCT020 BKN040 BKN080
     FM222200 10010KT P6SM SCT015 BKN030 OVC050
      TEMPO 2222/2224 4SM -SHRA BKN015=



000
FTUS45 KBOU 212159 AAC
TAFDEN
TAF AMD
KDEN 212159Z 2122/2224 01008KT P6SM VCSH SCT035 BKN060 OVC120
      TEMPO 2201/2205 -SHRA BKN020
     FM220500 14012KT 5SM -SHRA BR SCT012 OVC025
      TEMPO 2205/2209 3SM -RA BR BKN012
     FM220900 13010KT 3SM -RA BKN009 OVC020
     FM221700 VRB05KT P6SM VCSH SCT020 BKN040 BKN080
     FM222200 10010KT P6SM SCT015 BKN030 OVC050
      TEMPO 2222/2224 4SM -SHRA BKN015=



000
FTUS45 KBOU 212159 AAC
TAFDEN
TAF AMD
KDEN 212159Z 2122/2224 01008KT P6SM VCSH SCT035 BKN060 OVC120
      TEMPO 2201/2205 -SHRA BKN020
     FM220500 14012KT 5SM -SHRA BR SCT012 OVC025
      TEMPO 2205/2209 3SM -RA BR BKN012
     FM220900 13010KT 3SM -RA BKN009 OVC020
     FM221700 VRB05KT P6SM VCSH SCT020 BKN040 BKN080
     FM222200 10010KT P6SM SCT015 BKN030 OVC050
      TEMPO 2222/2224 4SM -SHRA BKN015=



000
FTUS45 KBOU 212059 AAB
TAFBJC
TAF AMD
KBJC 212059Z 2121/2218 30006KT P6SM SCT015 BKN060 OVC090
     FM212300 34007KT P6SM VCSH SCT025 BKN050 OVC080
      TEMPO 2201/2205 -SHRA BKN015
     FM220500 12012G18KT 5SM -SHRA BR SCT012 OVC025
      TEMPO 2205/2209 3SM -RA BR BKN012
     FM220900 11010KT 3SM -RA BKN009 OVC020
     FM221500 VRB05KT P6SM VCSH SCT012 BKN030 BKN060=



000
FTUS45 KBOU 212059 AAB
TAFBJC
TAF AMD
KBJC 212059Z 2121/2218 30006KT P6SM SCT015 BKN060 OVC090
     FM212300 34007KT P6SM VCSH SCT025 BKN050 OVC080
      TEMPO 2201/2205 -SHRA BKN015
     FM220500 12012G18KT 5SM -SHRA BR SCT012 OVC025
      TEMPO 2205/2209 3SM -RA BR BKN012
     FM220900 11010KT 3SM -RA BKN009 OVC020
     FM221500 VRB05KT P6SM VCSH SCT012 BKN030 BKN060=



000
FTUS45 KBOU 212059 AAB
TAFBJC
TAF AMD
KBJC 212059Z 2121/2218 30006KT P6SM SCT015 BKN060 OVC090
     FM212300 34007KT P6SM VCSH SCT025 BKN050 OVC080
      TEMPO 2201/2205 -SHRA BKN015
     FM220500 12012G18KT 5SM -SHRA BR SCT012 OVC025
      TEMPO 2205/2209 3SM -RA BR BKN012
     FM220900 11010KT 3SM -RA BKN009 OVC020
     FM221500 VRB05KT P6SM VCSH SCT012 BKN030 BKN060=



000
FTUS45 KBOU 212059 AAB
TAFBJC
TAF AMD
KBJC 212059Z 2121/2218 30006KT P6SM SCT015 BKN060 OVC090
     FM212300 34007KT P6SM VCSH SCT025 BKN050 OVC080
      TEMPO 2201/2205 -SHRA BKN015
     FM220500 12012G18KT 5SM -SHRA BR SCT012 OVC025
      TEMPO 2205/2209 3SM -RA BR BKN012
     FM220900 11010KT 3SM -RA BKN009 OVC020
     FM221500 VRB05KT P6SM VCSH SCT012 BKN030 BKN060=



000
FTUS45 KBOU 212058 AAC
TAFAPA
TAF AMD
KAPA 212058Z 2121/2218 35008KT P6SM SCT030 BKN060 OVC120
     FM212300 33008KT P6SM VCSH SCT035 BKN060 OVC110
      TEMPO 2201/2205 -SHRA BKN018
     FM220500 14012G18KT 5SM -SHRA BR SCT012 OVC025
      TEMPO 2205/2209 3SM -RA BR BKN012
     FM220900 11010KT 3SM -RA BKN009 OVC020
     FM221600 VRB05KT P6SM VCSH SCT015 BKN035 BKN070=



000
FTUS45 KBOU 212058 AAC
TAFAPA
TAF AMD
KAPA 212058Z 2121/2218 35008KT P6SM SCT030 BKN060 OVC120
     FM212300 33008KT P6SM VCSH SCT035 BKN060 OVC110
      TEMPO 2201/2205 -SHRA BKN018
     FM220500 14012G18KT 5SM -SHRA BR SCT012 OVC025
      TEMPO 2205/2209 3SM -RA BR BKN012
     FM220900 11010KT 3SM -RA BKN009 OVC020
     FM221600 VRB05KT P6SM VCSH SCT015 BKN035 BKN070=



000
FTUS45 KBOU 212056 AAB
TAFDEN
TAF AMD
KDEN 212056Z 2121/2224 31010KT P6SM SCT035 SCT060 BKN120
     FM212300 28011KT P6SM VCSH SCT035 BKN060 OVC100
      TEMPO 2201/2205 -SHRA BKN020
     FM220500 14012G20KT 5SM -SHRA BR SCT012 OVC025
      TEMPO 2205/2209 3SM -RA BR BKN012
     FM220900 13010KT 3SM -RA BKN009 OVC020
     FM221700 VRB05KT P6SM VCSH SCT020 BKN040 BKN080
     FM222200 10010KT P6SM SCT015 BKN030 OVC050
      TEMPO 2222/2224 4SM -SHRA BKN015=



000
FTUS45 KBOU 212056 AAB
TAFDEN
TAF AMD
KDEN 212056Z 2121/2224 31010KT P6SM SCT035 SCT060 BKN120
     FM212300 28011KT P6SM VCSH SCT035 BKN060 OVC100
      TEMPO 2201/2205 -SHRA BKN020
     FM220500 14012G20KT 5SM -SHRA BR SCT012 OVC025
      TEMPO 2205/2209 3SM -RA BR BKN012
     FM220900 13010KT 3SM -RA BKN009 OVC020
     FM221700 VRB05KT P6SM VCSH SCT020 BKN040 BKN080
     FM222200 10010KT P6SM SCT015 BKN030 OVC050
      TEMPO 2222/2224 4SM -SHRA BKN015=



000
FTUS45 KBOU 212056 AAB
TAFDEN
TAF AMD
KDEN 212056Z 2121/2224 31010KT P6SM SCT035 SCT060 BKN120
     FM212300 28011KT P6SM VCSH SCT035 BKN060 OVC100
      TEMPO 2201/2205 -SHRA BKN020
     FM220500 14012G20KT 5SM -SHRA BR SCT012 OVC025
      TEMPO 2205/2209 3SM -RA BR BKN012
     FM220900 13010KT 3SM -RA BKN009 OVC020
     FM221700 VRB05KT P6SM VCSH SCT020 BKN040 BKN080
     FM222200 10010KT P6SM SCT015 BKN030 OVC050
      TEMPO 2222/2224 4SM -SHRA BKN015=



000
FTUS45 KBOU 212004 AAA
TAFBJC
TAF AMD
KBJC 212004Z 2120/2218 30006KT P6SM BKN018 OVC024
     FM212300 VRB05KT P6SM VCSH SCT025 BKN035 OVC060
      TEMPO 2201/2205 -SHRA BKN015
     FM220500 12012G18KT 5SM -SHRA BR SCT012 OVC025
      TEMPO 2205/2209 3SM -RA BR BKN012
     FM220900 11010KT 3SM -RA BKN009 OVC020
     FM221500 VRB05KT P6SM VCSH SCT012 BKN030 BKN060=



000
FTUS45 KBOU 212004 AAA
TAFBJC
TAF AMD
KBJC 212004Z 2120/2218 30006KT P6SM BKN018 OVC024
     FM212300 VRB05KT P6SM VCSH SCT025 BKN035 OVC060
      TEMPO 2201/2205 -SHRA BKN015
     FM220500 12012G18KT 5SM -SHRA BR SCT012 OVC025
      TEMPO 2205/2209 3SM -RA BR BKN012
     FM220900 11010KT 3SM -RA BKN009 OVC020
     FM221500 VRB05KT P6SM VCSH SCT012 BKN030 BKN060=



000
FTUS45 KBOU 212003 AAB
TAFAPA
TAF AMD
KAPA 212003Z 2120/2218 13005KT P6SM SCT028 BKN030
     FM212300 10011KT P6SM VCSH SCT025 BKN040 OVC050
      TEMPO 2201/2205 -SHRA BKN018
     FM220500 14012G18KT 5SM -SHRA BR SCT012 OVC025
      TEMPO 2205/2209 3SM -RA BR BKN012
     FM220900 11010KT 3SM -RA BKN009 OVC020
     FM221600 VRB05KT P6SM VCSH SCT015 BKN035 BKN070=



000
FTUS45 KBOU 212003 AAB
TAFAPA
TAF AMD
KAPA 212003Z 2120/2218 13005KT P6SM SCT028 BKN030
     FM212300 10011KT P6SM VCSH SCT025 BKN040 OVC050
      TEMPO 2201/2205 -SHRA BKN018
     FM220500 14012G18KT 5SM -SHRA BR SCT012 OVC025
      TEMPO 2205/2209 3SM -RA BR BKN012
     FM220900 11010KT 3SM -RA BKN009 OVC020
     FM221600 VRB05KT P6SM VCSH SCT015 BKN035 BKN070=



000
FTUS45 KBOU 212002 AAA
TAFDEN
TAF AMD
KDEN 212002Z 2120/2224 30008KT P6SM BKN030 OVC060
     FM212300 10011KT P6SM VCSH SCT025 BKN045 OVC090
      TEMPO 2201/2205 -SHRA BKN020
     FM220500 14012G20KT 5SM -SHRA BR SCT012 OVC025
      TEMPO 2205/2209 3SM -RA BR BKN012
     FM220900 13010KT 3SM -RA BKN009 OVC020
     FM221700 VRB05KT P6SM VCSH SCT020 BKN040 BKN080
     FM222200 10010KT P6SM SCT015 BKN030 OVC050
      TEMPO 2222/2224 4SM -SHRA BKN015=



000
FTUS45 KBOU 212002 AAA
TAFDEN
TAF AMD
KDEN 212002Z 2120/2224 30008KT P6SM BKN030 OVC060
     FM212300 10011KT P6SM VCSH SCT025 BKN045 OVC090
      TEMPO 2201/2205 -SHRA BKN020
     FM220500 14012G20KT 5SM -SHRA BR SCT012 OVC025
      TEMPO 2205/2209 3SM -RA BR BKN012
     FM220900 13010KT 3SM -RA BKN009 OVC020
     FM221700 VRB05KT P6SM VCSH SCT020 BKN040 BKN080
     FM222200 10010KT P6SM SCT015 BKN030 OVC050
      TEMPO 2222/2224 4SM -SHRA BKN015=



000
FTUS45 KBOU 211928 AAA
TAFAPA
TAF AMD
KAPA 211928Z 2119/2218 13005KT P6SM SCT028 BKN030
     FM212000 14008KT P6SM SCT035 BKN050
     FM212300 10011KT P6SM VCSH SCT025 BKN040 OVC080
      TEMPO 2201/2205 -SHRA BKN018
     FM220500 14012G18KT 5SM -SHRA BR SCT012 OVC025
      TEMPO 2205/2209 3SM -RA BR BKN012
     FM220900 11010KT 3SM -RA BKN009 OVC020
     FM221600 VRB05KT P6SM VCSH SCT015 BKN035 BKN070=



000
FTUS45 KBOU 211928 AAA
TAFAPA
TAF AMD
KAPA 211928Z 2119/2218 13005KT P6SM SCT028 BKN030
     FM212000 14008KT P6SM SCT035 BKN050
     FM212300 10011KT P6SM VCSH SCT025 BKN040 OVC080
      TEMPO 2201/2205 -SHRA BKN018
     FM220500 14012G18KT 5SM -SHRA BR SCT012 OVC025
      TEMPO 2205/2209 3SM -RA BR BKN012
     FM220900 11010KT 3SM -RA BKN009 OVC020
     FM221600 VRB05KT P6SM VCSH SCT015 BKN035 BKN070=



000
FTUS45 KBOU 211928 AAA
TAFAPA
TAF AMD
KAPA 211928Z 2119/2218 13005KT P6SM SCT028 BKN030
     FM212000 14008KT P6SM SCT035 BKN050
     FM212300 10011KT P6SM VCSH SCT025 BKN040 OVC080
      TEMPO 2201/2205 -SHRA BKN018
     FM220500 14012G18KT 5SM -SHRA BR SCT012 OVC025
      TEMPO 2205/2209 3SM -RA BR BKN012
     FM220900 11010KT 3SM -RA BKN009 OVC020
     FM221600 VRB05KT P6SM VCSH SCT015 BKN035 BKN070=



000
FTUS45 KBOU 211928 AAA
TAFAPA
TAF AMD
KAPA 211928Z 2119/2218 13005KT P6SM SCT028 BKN030
     FM212000 14008KT P6SM SCT035 BKN050
     FM212300 10011KT P6SM VCSH SCT025 BKN040 OVC080
      TEMPO 2201/2205 -SHRA BKN018
     FM220500 14012G18KT 5SM -SHRA BR SCT012 OVC025
      TEMPO 2205/2209 3SM -RA BR BKN012
     FM220900 11010KT 3SM -RA BKN009 OVC020
     FM221600 VRB05KT P6SM VCSH SCT015 BKN035 BKN070=



000
FTUS45 KBOU 211733
TAFDEN
TAF
KDEN 211733Z 2118/2224 30006KT P6SM SCT015 BKN025
     FM212000 13009KT P6SM SCT025 BKN060
     FM212300 10011KT P6SM VCSH SCT025 BKN045 OVC090
      TEMPO 2201/2205 -SHRA BKN020
     FM220500 14012G20KT 5SM -SHRA BR SCT012 OVC025
      TEMPO 2205/2209 3SM -RA BR BKN012
     FM220900 13010KT 3SM -RA BKN009 OVC020
     FM221700 VRB05KT P6SM VCSH SCT020 BKN040 BKN080
     FM222200 10010KT P6SM SCT015 BKN030 OVC050
      TEMPO 2222/2224 4SM -SHRA BKN015=



000
FTUS45 KBOU 211733
TAFDEN
TAF
KDEN 211733Z 2118/2224 30006KT P6SM SCT015 BKN025
     FM212000 13009KT P6SM SCT025 BKN060
     FM212300 10011KT P6SM VCSH SCT025 BKN045 OVC090
      TEMPO 2201/2205 -SHRA BKN020
     FM220500 14012G20KT 5SM -SHRA BR SCT012 OVC025
      TEMPO 2205/2209 3SM -RA BR BKN012
     FM220900 13010KT 3SM -RA BKN009 OVC020
     FM221700 VRB05KT P6SM VCSH SCT020 BKN040 BKN080
     FM222200 10010KT P6SM SCT015 BKN030 OVC050
      TEMPO 2222/2224 4SM -SHRA BKN015=



000
FTUS45 KBOU 211733
TAFAPA
TAF
KAPA 211733Z 2118/2218 VRB05KT P6SM SCT015 BKN025
     FM212000 14008KT P6SM SCT025 BKN050
     FM212300 10011KT P6SM VCSH SCT025 BKN040 OVC080
      TEMPO 2201/2205 -SHRA BKN018
     FM220500 14012G18KT 5SM -SHRA BR SCT012 OVC025
      TEMPO 2205/2209 3SM -RA BR BKN012
     FM220900 11010KT 3SM -RA BKN009 OVC020
     FM221600 VRB05KT P6SM VCSH SCT015 BKN035 BKN070=



000
FTUS45 KBOU 211733
TAFBJC
TAF
KBJC 211733Z 2118/2218 35006KT P6SM SCT005 OVC012
     FM212000 02005KT P6SM SCT015 BKN025
     FM212300 10011KT P6SM VCSH SCT025 BKN040 OVC080
      TEMPO 2201/2205 -SHRA BKN015
     FM220500 12012G18KT 5SM -SHRA BR SCT012 OVC025
      TEMPO 2205/2209 3SM -RA BR BKN012
     FM220900 11010KT 3SM -RA BKN009 OVC020
     FM221500 VRB05KT P6SM VCSH SCT012 BKN030 BKN060=



000
FTUS45 KBOU 211733
TAFBJC
TAF
KBJC 211733Z 2118/2218 35006KT P6SM SCT005 OVC012
     FM212000 02005KT P6SM SCT015 BKN025
     FM212300 10011KT P6SM VCSH SCT025 BKN040 OVC080
      TEMPO 2201/2205 -SHRA BKN015
     FM220500 12012G18KT 5SM -SHRA BR SCT012 OVC025
      TEMPO 2205/2209 3SM -RA BR BKN012
     FM220900 11010KT 3SM -RA BKN009 OVC020
     FM221500 VRB05KT P6SM VCSH SCT012 BKN030 BKN060=



000
FTUS45 KBOU 211733
TAFAPA
TAF
KAPA 211733Z 2118/2218 VRB05KT P6SM SCT015 BKN025
     FM212000 14008KT P6SM SCT025 BKN050
     FM212300 10011KT P6SM VCSH SCT025 BKN040 OVC080
      TEMPO 2201/2205 -SHRA BKN018
     FM220500 14012G18KT 5SM -SHRA BR SCT012 OVC025
      TEMPO 2205/2209 3SM -RA BR BKN012
     FM220900 11010KT 3SM -RA BKN009 OVC020
     FM221600 VRB05KT P6SM VCSH SCT015 BKN035 BKN070=



000
FTUS45 KBOU 211437 AAA
TAFAPA
TAF AMD
KAPA 211437Z 2115/2212 VRB05KT P6SM SCT006 OVC009
      TEMPO 2115/2117 SCT009 OVC020
     FM211700 16007KT P6SM SCT007 BKN015
     FM211900 14008KT P6SM SCT025 BKN150
     FM212200 10011KT P6SM VCSH SCT025 BKN050 OVC100
      TEMPO 2123/2203 -SHRA BKN025
     FM220300 14012KT 5SM -SHRA BR SCT012 OVC025
      TEMPO 2203/2206 3SM -RA BR BKN012
     FM220600 11010KT 3SM -RA BKN009 OVC020=



000
FTUS45 KBOU 211437 AAB
TAFDEN
TAF AMD
KDEN 211437Z 2115/2218 16005KT P6SM SCT012 OVC020
      TEMPO 2115/2117 5SM BR SCT008 BKN012
     FM211700 14006KT P6SM SCT012 BKN025
     FM211900 13009KT P6SM SCT025 BKN150
     FM212200 10011KT P6SM VCSH SCT025 BKN050 OVC100
      TEMPO 2123/2203 -SHRA BKN025
     FM220300 14012G20KT 5SM -SHRA BR SCT012 OVC025
      TEMPO 2203/2206 3SM -RA BR BKN012
     FM220600 11010KT 3SM -RA BKN009 OVC020
     FM221700 VRB05KT P6SM VCSH SCT020 BKN040 BKN080=



000
FTUS45 KBOU 211437 AAB
TAFDEN
TAF AMD
KDEN 211437Z 2115/2218 16005KT P6SM SCT012 OVC020
      TEMPO 2115/2117 5SM BR SCT008 BKN012
     FM211700 14006KT P6SM SCT012 BKN025
     FM211900 13009KT P6SM SCT025 BKN150
     FM212200 10011KT P6SM VCSH SCT025 BKN050 OVC100
      TEMPO 2123/2203 -SHRA BKN025
     FM220300 14012G20KT 5SM -SHRA BR SCT012 OVC025
      TEMPO 2203/2206 3SM -RA BR BKN012
     FM220600 11010KT 3SM -RA BKN009 OVC020
     FM221700 VRB05KT P6SM VCSH SCT020 BKN040 BKN080=



000
FTUS45 KBOU 211437 AAA
TAFAPA
TAF AMD
KAPA 211437Z 2115/2212 VRB05KT P6SM SCT006 OVC009
      TEMPO 2115/2117 SCT009 OVC020
     FM211700 16007KT P6SM SCT007 BKN015
     FM211900 14008KT P6SM SCT025 BKN150
     FM212200 10011KT P6SM VCSH SCT025 BKN050 OVC100
      TEMPO 2123/2203 -SHRA BKN025
     FM220300 14012KT 5SM -SHRA BR SCT012 OVC025
      TEMPO 2203/2206 3SM -RA BR BKN012
     FM220600 11010KT 3SM -RA BKN009 OVC020=



000
FTUS45 KBOU 211302 AAA
TAFBJC
TAF AMD
KBJC 211302Z 2113/2212 36004KT 6SM BR BKN005 OVC012
     FM211600 35006KT P6SM SCT007 BKN018
     FM211900 02005KT P6SM SCT025 BKN150
     FM212200 10011KT P6SM VCSH SCT025 BKN050 OVC100
      TEMPO 2123/2203 -SHRA BKN025
     FM220300 14012KT 5SM -SHRA BR SCT012 OVC025
      TEMPO 2203/2206 3SM -RA BR BKN012
     FM220600 11010KT 3SM -RA BKN009 OVC020=



000
FTUS45 KBOU 211302 AAA
TAFBJC
TAF AMD
KBJC 211302Z 2113/2212 36004KT 6SM BR BKN005 OVC012
     FM211600 35006KT P6SM SCT007 BKN018
     FM211900 02005KT P6SM SCT025 BKN150
     FM212200 10011KT P6SM VCSH SCT025 BKN050 OVC100
      TEMPO 2123/2203 -SHRA BKN025
     FM220300 14012KT 5SM -SHRA BR SCT012 OVC025
      TEMPO 2203/2206 3SM -RA BR BKN012
     FM220600 11010KT 3SM -RA BKN009 OVC020=



000
FTUS45 KBOU 211258 AAA
TAFDEN
TAF AMD
KDEN 211258Z 2113/2218 13007KT P6SM SCT012 OVC019
     FM211500 34005KT P6SM BKN012 OVC020
      TEMPO 2115/2116 5SM BR BKN008
     FM211700 01006KT P6SM SCT012 BKN028
     FM211900 04007KT P6SM SCT025 BKN150
     FM212200 10011KT P6SM VCSH SCT025 BKN050 OVC100
      TEMPO 2123/2203 -SHRA BKN025
     FM220300 14012G20KT 5SM -SHRA BR SCT012 OVC025
      TEMPO 2203/2206 3SM -RA BR BKN012
     FM220600 11010KT 3SM -RA BKN009 OVC020
     FM221700 VRB05KT P6SM VCSH SCT020 BKN040 BKN080=



000
FTUS45 KBOU 211258 AAA
TAFDEN
TAF AMD
KDEN 211258Z 2113/2218 13007KT P6SM SCT012 OVC019
     FM211500 34005KT P6SM BKN012 OVC020
      TEMPO 2115/2116 5SM BR BKN008
     FM211700 01006KT P6SM SCT012 BKN028
     FM211900 04007KT P6SM SCT025 BKN150
     FM212200 10011KT P6SM VCSH SCT025 BKN050 OVC100
      TEMPO 2123/2203 -SHRA BKN025
     FM220300 14012G20KT 5SM -SHRA BR SCT012 OVC025
      TEMPO 2203/2206 3SM -RA BR BKN012
     FM220600 11010KT 3SM -RA BKN009 OVC020
     FM221700 VRB05KT P6SM VCSH SCT020 BKN040 BKN080=



000
FTUS45 KBOU 211143 CCA
TAFBJC
TAF COR
KBJC 211143Z 2112/2212 29006KT 5SM BR SCT004 BKN009 OVC030
      TEMPO 2113/2115 3SM BR BKN004
     FM211600 30006KT P6SM SCT007 BKN020
     FM211800 02005KT P6SM SCT025 BKN150
     FM212200 10011KT P6SM VCSH SCT025 BKN050 OVC100
      TEMPO 2123/2203 -SHRA BKN025
     FM220300 14012KT 5SM -SHRA BR SCT012 OVC025
      TEMPO 2203/2206 3SM -RA BR BKN012
     FM220600 11010KT 3SM -RA BKN009 OVC020=



000
FTUS45 KBOU 211143 CCA
TAFBJC
TAF COR
KBJC 211143Z 2112/2212 29006KT 5SM BR SCT004 BKN009 OVC030
      TEMPO 2113/2115 3SM BR BKN004
     FM211600 30006KT P6SM SCT007 BKN020
     FM211800 02005KT P6SM SCT025 BKN150
     FM212200 10011KT P6SM VCSH SCT025 BKN050 OVC100
      TEMPO 2123/2203 -SHRA BKN025
     FM220300 14012KT 5SM -SHRA BR SCT012 OVC025
      TEMPO 2203/2206 3SM -RA BR BKN012
     FM220600 11010KT 3SM -RA BKN009 OVC020=



000
FTUS45 KBOU 211143 CCA
TAFBJC
TAF COR
KBJC 211143Z 2112/2212 29006KT 5SM BR SCT004 BKN009 OVC030
      TEMPO 2113/2115 3SM BR BKN004
     FM211600 30006KT P6SM SCT007 BKN020
     FM211800 02005KT P6SM SCT025 BKN150
     FM212200 10011KT P6SM VCSH SCT025 BKN050 OVC100
      TEMPO 2123/2203 -SHRA BKN025
     FM220300 14012KT 5SM -SHRA BR SCT012 OVC025
      TEMPO 2203/2206 3SM -RA BR BKN012
     FM220600 11010KT 3SM -RA BKN009 OVC020=



000
FTUS45 KBOU 211143 CCA
TAFBJC
TAF COR
KBJC 211143Z 2112/2212 29006KT 5SM BR SCT004 BKN009 OVC030
      TEMPO 2113/2115 3SM BR BKN004
     FM211600 30006KT P6SM SCT007 BKN020
     FM211800 02005KT P6SM SCT025 BKN150
     FM212200 10011KT P6SM VCSH SCT025 BKN050 OVC100
      TEMPO 2123/2203 -SHRA BKN025
     FM220300 14012KT 5SM -SHRA BR SCT012 OVC025
      TEMPO 2203/2206 3SM -RA BR BKN012
     FM220600 11010KT 3SM -RA BKN009 OVC020=



000
FTUS45 KBOU 211141
TAFDEN
TAF
KDEN 211141Z 2112/2218 13009KT P6SM SCT015 OVC028
     FM211400 34007KT P6SM BKN012 OVC020
      TEMPO 2114/2116 5SM BR BKN008
     FM211700 01006KT P6SM SCT007 BKN030
     FM211900 04007KT P6SM SCT025 BKN150
     FM212200 10011KT P6SM VCSH SCT025 BKN050 OVC100
      TEMPO 2123/2203 -SHRA BKN025
     FM220300 14012G20KT 5SM -SHRA BR SCT012 OVC025
      TEMPO 2203/2206 3SM -RA BR BKN012
     FM220600 11010KT 3SM -RA BKN009 OVC020
     FM221700 VRB05KT P6SM VCSH SCT020 BKN040 BKN080=



000
FTUS45 KBOU 211141
TAFAPA
TAF
KAPA 211141Z 2112/2212 29006KT P6SM SCT007 BKN015 OVC030
      TEMPO 2113/2115 BKN008
     FM211600 30006KT P6SM SCT007 BKN020
     FM211800 02005KT P6SM SCT025 BKN150
     FM212200 10011KT P6SM VCSH SCT025 BKN050 OVC100
      TEMPO 2123/2203 -SHRA BKN025
     FM220300 14012KT 5SM -SHRA BR SCT012 OVC025
      TEMPO 2203/2206 3SM -RA BR BKN012
     FM220600 11010KT 3SM -RA BKN009 OVC020=



000
FTUS45 KBOU 211141
TAFBJC
TAF
KBJC 211141Z 2112/2212 29006KT P6SM SCT007 BKN015 OVC030
      TEMPO 2113/2115 BKN008
     FM211600 30006KT P6SM SCT007 BKN020
     FM211800 02005KT P6SM SCT025 BKN150
     FM212200 10011KT P6SM VCSH SCT025 BKN050 OVC100
      TEMPO 2123/2203 -SHRA BKN025
     FM220300 14012KT 5SM -SHRA BR SCT012 OVC025
      TEMPO 2203/2206 3SM -RA BR BKN012
     FM220600 11010KT 3SM -RA BKN009 OVC020=



000
FTUS45 KBOU 211141
TAFAPA
TAF
KAPA 211141Z 2112/2212 29006KT P6SM SCT007 BKN015 OVC030
      TEMPO 2113/2115 BKN008
     FM211600 30006KT P6SM SCT007 BKN020
     FM211800 02005KT P6SM SCT025 BKN150
     FM212200 10011KT P6SM VCSH SCT025 BKN050 OVC100
      TEMPO 2123/2203 -SHRA BKN025
     FM220300 14012KT 5SM -SHRA BR SCT012 OVC025
      TEMPO 2203/2206 3SM -RA BR BKN012
     FM220600 11010KT 3SM -RA BKN009 OVC020=



000
FTUS45 KBOU 211141
TAFBJC
TAF
KBJC 211141Z 2112/2212 29006KT P6SM SCT007 BKN015 OVC030
      TEMPO 2113/2115 BKN008
     FM211600 30006KT P6SM SCT007 BKN020
     FM211800 02005KT P6SM SCT025 BKN150
     FM212200 10011KT P6SM VCSH SCT025 BKN050 OVC100
      TEMPO 2123/2203 -SHRA BKN025
     FM220300 14012KT 5SM -SHRA BR SCT012 OVC025
      TEMPO 2203/2206 3SM -RA BR BKN012
     FM220600 11010KT 3SM -RA BKN009 OVC020=



000
FTUS45 KBOU 211141
TAFDEN
TAF
KDEN 211141Z 2112/2218 13009KT P6SM SCT015 OVC028
     FM211400 34007KT P6SM BKN012 OVC020
      TEMPO 2114/2116 5SM BR BKN008
     FM211700 01006KT P6SM SCT007 BKN030
     FM211900 04007KT P6SM SCT025 BKN150
     FM212200 10011KT P6SM VCSH SCT025 BKN050 OVC100
      TEMPO 2123/2203 -SHRA BKN025
     FM220300 14012G20KT 5SM -SHRA BR SCT012 OVC025
      TEMPO 2203/2206 3SM -RA BR BKN012
     FM220600 11010KT 3SM -RA BKN009 OVC020
     FM221700 VRB05KT P6SM VCSH SCT020 BKN040 BKN080=



000
FTUS45 KBOU 211141
TAFBJC
TAF
KBJC 211141Z 2112/2212 29006KT P6SM SCT007 BKN015 OVC030
      TEMPO 2113/2115 BKN008
     FM211600 30006KT P6SM SCT007 BKN020
     FM211800 02005KT P6SM SCT025 BKN150
     FM212200 10011KT P6SM VCSH SCT025 BKN050 OVC100
      TEMPO 2123/2203 -SHRA BKN025
     FM220300 14012KT 5SM -SHRA BR SCT012 OVC025
      TEMPO 2203/2206 3SM -RA BR BKN012
     FM220600 11010KT 3SM -RA BKN009 OVC020=



000
FTUS45 KBOU 211141
TAFDEN
TAF
KDEN 211141Z 2112/2218 13009KT P6SM SCT015 OVC028
     FM211400 34007KT P6SM BKN012 OVC020
      TEMPO 2114/2116 5SM BR BKN008
     FM211700 01006KT P6SM SCT007 BKN030
     FM211900 04007KT P6SM SCT025 BKN150
     FM212200 10011KT P6SM VCSH SCT025 BKN050 OVC100
      TEMPO 2123/2203 -SHRA BKN025
     FM220300 14012G20KT 5SM -SHRA BR SCT012 OVC025
      TEMPO 2203/2206 3SM -RA BR BKN012
     FM220600 11010KT 3SM -RA BKN009 OVC020
     FM221700 VRB05KT P6SM VCSH SCT020 BKN040 BKN080=



000
FTUS45 KBOU 211141
TAFAPA
TAF
KAPA 211141Z 2112/2212 29006KT P6SM SCT007 BKN015 OVC030
      TEMPO 2113/2115 BKN008
     FM211600 30006KT P6SM SCT007 BKN020
     FM211800 02005KT P6SM SCT025 BKN150
     FM212200 10011KT P6SM VCSH SCT025 BKN050 OVC100
      TEMPO 2123/2203 -SHRA BKN025
     FM220300 14012KT 5SM -SHRA BR SCT012 OVC025
      TEMPO 2203/2206 3SM -RA BR BKN012
     FM220600 11010KT 3SM -RA BKN009 OVC020=



000
FTUS45 KBOU 211141
TAFBJC
TAF
KBJC 211141Z 2112/2212 29006KT P6SM SCT007 BKN015 OVC030
      TEMPO 2113/2115 BKN008
     FM211600 30006KT P6SM SCT007 BKN020
     FM211800 02005KT P6SM SCT025 BKN150
     FM212200 10011KT P6SM VCSH SCT025 BKN050 OVC100
      TEMPO 2123/2203 -SHRA BKN025
     FM220300 14012KT 5SM -SHRA BR SCT012 OVC025
      TEMPO 2203/2206 3SM -RA BR BKN012
     FM220600 11010KT 3SM -RA BKN009 OVC020=



000
FTUS45 KBOU 211141
TAFDEN
TAF
KDEN 211141Z 2112/2218 13009KT P6SM SCT015 OVC028
     FM211400 34007KT P6SM BKN012 OVC020
      TEMPO 2114/2116 5SM BR BKN008
     FM211700 01006KT P6SM SCT007 BKN030
     FM211900 04007KT P6SM SCT025 BKN150
     FM212200 10011KT P6SM VCSH SCT025 BKN050 OVC100
      TEMPO 2123/2203 -SHRA BKN025
     FM220300 14012G20KT 5SM -SHRA BR SCT012 OVC025
      TEMPO 2203/2206 3SM -RA BR BKN012
     FM220600 11010KT 3SM -RA BKN009 OVC020
     FM221700 VRB05KT P6SM VCSH SCT020 BKN040 BKN080=



000
FTUS45 KBOU 211141
TAFAPA
TAF
KAPA 211141Z 2112/2212 29006KT P6SM SCT007 BKN015 OVC030
      TEMPO 2113/2115 BKN008
     FM211600 30006KT P6SM SCT007 BKN020
     FM211800 02005KT P6SM SCT025 BKN150
     FM212200 10011KT P6SM VCSH SCT025 BKN050 OVC100
      TEMPO 2123/2203 -SHRA BKN025
     FM220300 14012KT 5SM -SHRA BR SCT012 OVC025
      TEMPO 2203/2206 3SM -RA BR BKN012
     FM220600 11010KT 3SM -RA BKN009 OVC020=



000
FTUS45 KBOU 211101 AAB
TAFAPA
TAF AMD
KAPA 211101Z 2111/2206 31006KT P6SM SCT009 BKN015 OVC030
      TEMPO 2111/2114 BKN008
     FM211600 30006KT P6SM SCT007 BKN020
     FM211800 16010KT P6SM SCT025 BKN110
     FM212100 14012G20KT P6SM SCT025 BKN050 OVC100 PROB30 2122/2202
      -SHRA BKN025
     FM220200 14012G20KT 5SM -SHRA BR SCT012 OVC025
      TEMPO 2202/2205 3SM -RA BR BKN012
     FM220500 11010KT 3SM -RA BKN009 OVC020=



000
FTUS45 KBOU 211101 AAB
TAFAPA
TAF AMD
KAPA 211101Z 2111/2206 31006KT P6SM SCT009 BKN015 OVC030
      TEMPO 2111/2114 BKN008
     FM211600 30006KT P6SM SCT007 BKN020
     FM211800 16010KT P6SM SCT025 BKN110
     FM212100 14012G20KT P6SM SCT025 BKN050 OVC100 PROB30 2122/2202
      -SHRA BKN025
     FM220200 14012G20KT 5SM -SHRA BR SCT012 OVC025
      TEMPO 2202/2205 3SM -RA BR BKN012
     FM220500 11010KT 3SM -RA BKN009 OVC020=



000
FTUS45 KBOU 211101 AAB
TAFAPA
TAF AMD
KAPA 211101Z 2111/2206 31006KT P6SM SCT009 BKN015 OVC030
      TEMPO 2111/2114 BKN008
     FM211600 30006KT P6SM SCT007 BKN020
     FM211800 16010KT P6SM SCT025 BKN110
     FM212100 14012G20KT P6SM SCT025 BKN050 OVC100 PROB30 2122/2202
      -SHRA BKN025
     FM220200 14012G20KT 5SM -SHRA BR SCT012 OVC025
      TEMPO 2202/2205 3SM -RA BR BKN012
     FM220500 11010KT 3SM -RA BKN009 OVC020=



000
FTUS45 KBOU 211057 AAB
TAFBJC
TAF AMD
KBJC 211057Z 2111/2206 VRB05KT 5SM BR SCT006 BKN013 OVC025
     FM211200 34007KT 3SM BR BKN006 OVC015
     FM211500 VRB05KT P6SM SCT007 BKN020 BKN040
     FM211700 06008KT P6SM BKN025 BKN110
     FM212000 34008KT P6SM SCT020 BKN050 OVC080 PROB30 2121/2124
      -SHRA BKN020
     FM220500 11010KT 3SM -RA BKN009 OVC020=



000
FTUS45 KBOU 211057 AAB
TAFBJC
TAF AMD
KBJC 211057Z 2111/2206 VRB05KT 5SM BR SCT006 BKN013 OVC025
     FM211200 34007KT 3SM BR BKN006 OVC015
     FM211500 VRB05KT P6SM SCT007 BKN020 BKN040
     FM211700 06008KT P6SM BKN025 BKN110
     FM212000 34008KT P6SM SCT020 BKN050 OVC080 PROB30 2121/2124
      -SHRA BKN020
     FM220500 11010KT 3SM -RA BKN009 OVC020=



000
FTUS45 KBOU 211057 AAB
TAFBJC
TAF AMD
KBJC 211057Z 2111/2206 VRB05KT 5SM BR SCT006 BKN013 OVC025
     FM211200 34007KT 3SM BR BKN006 OVC015
     FM211500 VRB05KT P6SM SCT007 BKN020 BKN040
     FM211700 06008KT P6SM BKN025 BKN110
     FM212000 34008KT P6SM SCT020 BKN050 OVC080 PROB30 2121/2124
      -SHRA BKN020
     FM220500 11010KT 3SM -RA BKN009 OVC020=



000
FTUS45 KBOU 211057 AAB
TAFBJC
TAF AMD
KBJC 211057Z 2111/2206 VRB05KT 5SM BR SCT006 BKN013 OVC025
     FM211200 34007KT 3SM BR BKN006 OVC015
     FM211500 VRB05KT P6SM SCT007 BKN020 BKN040
     FM211700 06008KT P6SM BKN025 BKN110
     FM212000 34008KT P6SM SCT020 BKN050 OVC080 PROB30 2121/2124
      -SHRA BKN020
     FM220500 11010KT 3SM -RA BKN009 OVC020=



000
FTUS45 KBOU 210901 AAA
TAFBJC
TAF AMD
KBJC 210901Z 2109/2206 VRB05KT 5SM BR OVC006
     FM211100 34007KT 3SM BR BKN004 OVC009
      TEMPO 2111/2114 3/4SM BR VV002
     FM211500 04008KT P6SM BKN008 OVC015
     FM211700 06008KT P6SM BKN015 OVC080
     FM212000 34008KT P6SM SCT020 BKN050 OVC080 PROB30 2121/2124
      -SHRA BKN020
     FM220500 11010KT 3SM -RA BKN009 OVC020=



000
FTUS45 KBOU 210901 AAA
TAFBJC
TAF AMD
KBJC 210901Z 2109/2206 VRB05KT 5SM BR OVC006
     FM211100 34007KT 3SM BR BKN004 OVC009
      TEMPO 2111/2114 3/4SM BR VV002
     FM211500 04008KT P6SM BKN008 OVC015
     FM211700 06008KT P6SM BKN015 OVC080
     FM212000 34008KT P6SM SCT020 BKN050 OVC080 PROB30 2121/2124
      -SHRA BKN020
     FM220500 11010KT 3SM -RA BKN009 OVC020=



000
FTUS45 KBOU 210901 AAA
TAFBJC
TAF AMD
KBJC 210901Z 2109/2206 VRB05KT 5SM BR OVC006
     FM211100 34007KT 3SM BR BKN004 OVC009
      TEMPO 2111/2114 3/4SM BR VV002
     FM211500 04008KT P6SM BKN008 OVC015
     FM211700 06008KT P6SM BKN015 OVC080
     FM212000 34008KT P6SM SCT020 BKN050 OVC080 PROB30 2121/2124
      -SHRA BKN020
     FM220500 11010KT 3SM -RA BKN009 OVC020=



000
FTUS45 KBOU 210900 AAA
TAFDEN
TAF AMD
KDEN 210900Z 2109/2212 10007KT P6SM SCT005 BKN010 OVC022
     FM211300 34005KT 1 1/2SM BR BKN004 OVC010
     FM211600 30006KT P6SM SCT007 BKN020
     FM211900 16010KT P6SM SCT025 BKN110
     FM212100 14012G20KT P6SM SCT025 BKN050 OVC100 PROB30 2122/2202
      -SHRA BKN025
     FM220200 14012G20KT 5SM -SHRA BR SCT012 OVC025
      TEMPO 2202/2206 3SM -RA BR BKN012
     FM220600 11010KT 3SM -RA BKN009 OVC020=



000
FTUS45 KBOU 210900 AAA
TAFDEN
TAF AMD
KDEN 210900Z 2109/2212 10007KT P6SM SCT005 BKN010 OVC022
     FM211300 34005KT 1 1/2SM BR BKN004 OVC010
     FM211600 30006KT P6SM SCT007 BKN020
     FM211900 16010KT P6SM SCT025 BKN110
     FM212100 14012G20KT P6SM SCT025 BKN050 OVC100 PROB30 2122/2202
      -SHRA BKN025
     FM220200 14012G20KT 5SM -SHRA BR SCT012 OVC025
      TEMPO 2202/2206 3SM -RA BR BKN012
     FM220600 11010KT 3SM -RA BKN009 OVC020=



000
FTUS45 KBOU 210900 AAA
TAFDEN
TAF AMD
KDEN 210900Z 2109/2212 10007KT P6SM SCT005 BKN010 OVC022
     FM211300 34005KT 1 1/2SM BR BKN004 OVC010
     FM211600 30006KT P6SM SCT007 BKN020
     FM211900 16010KT P6SM SCT025 BKN110
     FM212100 14012G20KT P6SM SCT025 BKN050 OVC100 PROB30 2122/2202
      -SHRA BKN025
     FM220200 14012G20KT 5SM -SHRA BR SCT012 OVC025
      TEMPO 2202/2206 3SM -RA BR BKN012
     FM220600 11010KT 3SM -RA BKN009 OVC020=



000
FTUS45 KBOU 210900 AAA
TAFDEN
TAF AMD
KDEN 210900Z 2109/2212 10007KT P6SM SCT005 BKN010 OVC022
     FM211300 34005KT 1 1/2SM BR BKN004 OVC010
     FM211600 30006KT P6SM SCT007 BKN020
     FM211900 16010KT P6SM SCT025 BKN110
     FM212100 14012G20KT P6SM SCT025 BKN050 OVC100 PROB30 2122/2202
      -SHRA BKN025
     FM220200 14012G20KT 5SM -SHRA BR SCT012 OVC025
      TEMPO 2202/2206 3SM -RA BR BKN012
     FM220600 11010KT 3SM -RA BKN009 OVC020=



000
FTUS45 KBOU 210831 AAA
TAFAPA
TAF AMD
KAPA 210831Z 2109/2206 04006KT P6SM BKN009 OVC020
     FM211100 35006KT 2SM BR BKN006 OVC014
     FM211600 30006KT P6SM SCT007 BKN020
     FM211800 16010KT P6SM SCT025 BKN110
     FM212100 14012G20KT P6SM SCT025 BKN050 OVC100 PROB30 2122/2202
      -SHRA BKN025
     FM220200 14012G20KT 5SM -SHRA BR SCT012 OVC025
      TEMPO 2202/2205 3SM -RA BR BKN012
     FM220500 11010KT 3SM -RA BKN009 OVC020=



000
FTUS45 KBOU 210831 AAA
TAFAPA
TAF AMD
KAPA 210831Z 2109/2206 04006KT P6SM BKN009 OVC020
     FM211100 35006KT 2SM BR BKN006 OVC014
     FM211600 30006KT P6SM SCT007 BKN020
     FM211800 16010KT P6SM SCT025 BKN110
     FM212100 14012G20KT P6SM SCT025 BKN050 OVC100 PROB30 2122/2202
      -SHRA BKN025
     FM220200 14012G20KT 5SM -SHRA BR SCT012 OVC025
      TEMPO 2202/2205 3SM -RA BR BKN012
     FM220500 11010KT 3SM -RA BKN009 OVC020=



000
FTUS45 KBOU 210538
TAFDEN
TAF
KDEN 210538Z 2106/2212 12006KT 6SM -DZ BKN006 OVC025
     FM210900 15004KT P6SM BKN009 OVC020
     FM211300 34005KT 1 1/2SM BR BKN004 OVC010
     FM211600 30006KT P6SM SCT007 BKN020
     FM211900 16010KT P6SM SCT025 BKN110
     FM212100 14012G20KT P6SM SCT025 BKN050 OVC100 PROB30 2122/2202
      -SHRA BKN025
     FM220200 14012G20KT 5SM -SHRA BR SCT012 OVC025
      TEMPO 2202/2206 3SM -RA BR BKN012
     FM220600 11010KT 3SM -RA BKN009 OVC020=



000
FTUS45 KBOU 210538
TAFAPA
TAF
KAPA 210538Z 2106/2206 11006KT 6SM -DZ BKN006 OVC015
     FM210900 15004KT P6SM BKN007 OVC015
     FM211100 34006KT 2SM BR BKN006 OVC014
     FM211600 30006KT P6SM SCT007 BKN020
     FM211800 16010KT P6SM SCT025 BKN110
     FM212100 14012G20KT P6SM SCT025 BKN050 OVC100 PROB30 2122/2202
      -SHRA BKN025
     FM220200 14012G20KT 5SM -SHRA BR SCT012 OVC025
      TEMPO 2202/2205 3SM -RA BR BKN012
     FM220500 11010KT 3SM -RA BKN009 OVC020=



000
FTUS45 KBOU 210538
TAFBJC
TAF
KBJC 210538Z 2106/2206 VRB05KT 2SM BR OVC005
      TEMPO 2106/2109 1SM -DZ BR VV003
     FM211100 34007KT 2SM BR BKN003 OVC006
      TEMPO 2111/2114 3/4SM BR VV002
     FM211500 04008KT P6SM BKN008 OVC015
     FM211700 06008KT P6SM BKN015 OVC080
     FM212000 34008KT P6SM SCT020 BKN050 OVC080 PROB30 2121/2124
      -SHRA BKN020
     FM220500 11010KT 3SM -RA BKN009 OVC020=



000
FTUS45 KBOU 210538
TAFDEN
TAF
KDEN 210538Z 2106/2212 12006KT 6SM -DZ BKN006 OVC025
     FM210900 15004KT P6SM BKN009 OVC020
     FM211300 34005KT 1 1/2SM BR BKN004 OVC010
     FM211600 30006KT P6SM SCT007 BKN020
     FM211900 16010KT P6SM SCT025 BKN110
     FM212100 14012G20KT P6SM SCT025 BKN050 OVC100 PROB30 2122/2202
      -SHRA BKN025
     FM220200 14012G20KT 5SM -SHRA BR SCT012 OVC025
      TEMPO 2202/2206 3SM -RA BR BKN012
     FM220600 11010KT 3SM -RA BKN009 OVC020=



000
FTUS45 KBOU 210538
TAFBJC
TAF
KBJC 210538Z 2106/2206 VRB05KT 2SM BR OVC005
      TEMPO 2106/2109 1SM -DZ BR VV003
     FM211100 34007KT 2SM BR BKN003 OVC006
      TEMPO 2111/2114 3/4SM BR VV002
     FM211500 04008KT P6SM BKN008 OVC015
     FM211700 06008KT P6SM BKN015 OVC080
     FM212000 34008KT P6SM SCT020 BKN050 OVC080 PROB30 2121/2124
      -SHRA BKN020
     FM220500 11010KT 3SM -RA BKN009 OVC020=



000
FTUS45 KBOU 210538
TAFAPA
TAF
KAPA 210538Z 2106/2206 11006KT 6SM -DZ BKN006 OVC015
     FM210900 15004KT P6SM BKN007 OVC015
     FM211100 34006KT 2SM BR BKN006 OVC014
     FM211600 30006KT P6SM SCT007 BKN020
     FM211800 16010KT P6SM SCT025 BKN110
     FM212100 14012G20KT P6SM SCT025 BKN050 OVC100 PROB30 2122/2202
      -SHRA BKN025
     FM220200 14012G20KT 5SM -SHRA BR SCT012 OVC025
      TEMPO 2202/2205 3SM -RA BR BKN012
     FM220500 11010KT 3SM -RA BKN009 OVC020=



000
FTUS45 KBOU 210538
TAFBJC
TAF
KBJC 210538Z 2106/2206 VRB05KT 2SM BR OVC005
      TEMPO 2106/2109 1SM -DZ BR VV003
     FM211100 34007KT 2SM BR BKN003 OVC006
      TEMPO 2111/2114 3/4SM BR VV002
     FM211500 04008KT P6SM BKN008 OVC015
     FM211700 06008KT P6SM BKN015 OVC080
     FM212000 34008KT P6SM SCT020 BKN050 OVC080 PROB30 2121/2124
      -SHRA BKN020
     FM220500 11010KT 3SM -RA BKN009 OVC020=



000
FTUS45 KBOU 210538
TAFAPA
TAF
KAPA 210538Z 2106/2206 11006KT 6SM -DZ BKN006 OVC015
     FM210900 15004KT P6SM BKN007 OVC015
     FM211100 34006KT 2SM BR BKN006 OVC014
     FM211600 30006KT P6SM SCT007 BKN020
     FM211800 16010KT P6SM SCT025 BKN110
     FM212100 14012G20KT P6SM SCT025 BKN050 OVC100 PROB30 2122/2202
      -SHRA BKN025
     FM220200 14012G20KT 5SM -SHRA BR SCT012 OVC025
      TEMPO 2202/2205 3SM -RA BR BKN012
     FM220500 11010KT 3SM -RA BKN009 OVC020=



000
FTUS45 KBOU 210538
TAFDEN
TAF
KDEN 210538Z 2106/2212 12006KT 6SM -DZ BKN006 OVC025
     FM210900 15004KT P6SM BKN009 OVC020
     FM211300 34005KT 1 1/2SM BR BKN004 OVC010
     FM211600 30006KT P6SM SCT007 BKN020
     FM211900 16010KT P6SM SCT025 BKN110
     FM212100 14012G20KT P6SM SCT025 BKN050 OVC100 PROB30 2122/2202
      -SHRA BKN025
     FM220200 14012G20KT 5SM -SHRA BR SCT012 OVC025
      TEMPO 2202/2206 3SM -RA BR BKN012
     FM220600 11010KT 3SM -RA BKN009 OVC020=



000
FTUS45 KBOU 210538
TAFBJC
TAF
KBJC 210538Z 2106/2206 VRB05KT 2SM BR OVC005
      TEMPO 2106/2109 1SM -DZ BR VV003
     FM211100 34007KT 2SM BR BKN003 OVC006
      TEMPO 2111/2114 3/4SM BR VV002
     FM211500 04008KT P6SM BKN008 OVC015
     FM211700 06008KT P6SM BKN015 OVC080
     FM212000 34008KT P6SM SCT020 BKN050 OVC080 PROB30 2121/2124
      -SHRA BKN020
     FM220500 11010KT 3SM -RA BKN009 OVC020=



000
FTUS45 KBOU 210538
TAFDEN
TAF
KDEN 210538Z 2106/2212 12006KT 6SM -DZ BKN006 OVC025
     FM210900 15004KT P6SM BKN009 OVC020
     FM211300 34005KT 1 1/2SM BR BKN004 OVC010
     FM211600 30006KT P6SM SCT007 BKN020
     FM211900 16010KT P6SM SCT025 BKN110
     FM212100 14012G20KT P6SM SCT025 BKN050 OVC100 PROB30 2122/2202
      -SHRA BKN025
     FM220200 14012G20KT 5SM -SHRA BR SCT012 OVC025
      TEMPO 2202/2206 3SM -RA BR BKN012
     FM220600 11010KT 3SM -RA BKN009 OVC020=



000
FTUS45 KBOU 210538
TAFAPA
TAF
KAPA 210538Z 2106/2206 11006KT 6SM -DZ BKN006 OVC015
     FM210900 15004KT P6SM BKN007 OVC015
     FM211100 34006KT 2SM BR BKN006 OVC014
     FM211600 30006KT P6SM SCT007 BKN020
     FM211800 16010KT P6SM SCT025 BKN110
     FM212100 14012G20KT P6SM SCT025 BKN050 OVC100 PROB30 2122/2202
      -SHRA BKN025
     FM220200 14012G20KT 5SM -SHRA BR SCT012 OVC025
      TEMPO 2202/2205 3SM -RA BR BKN012
     FM220500 11010KT 3SM -RA BKN009 OVC020=



000
FTUS45 KBOU 210438 AAC
TAFDEN
TAF AMD
KDEN 210438Z 2105/2206 10006KT P6SM SCT006 OVC025
      TEMPO 2105/2109 5SM -DZ BR BKN006
     FM210900 30006KT 3SM BR OVC005
     FM211600 30006KT P6SM SCT010 BKN020
     FM212000 16010KT P6SM SCT025 OVC080
     FM212200 14012G20KT P6SM SCT025 BKN050 OVC100 PROB30 2122/2202
      -SHRA BKN025
     FM220200 14012G20KT 5SM -SHRA BR SCT012 OVC025
      TEMPO 2202/2206 3SM -RA BR BKN012=



000
FTUS45 KBOU 210438 AAC
TAFBJC
TAF AMD
KBJC 210438Z 2105/2124 09005KT 4SM -DZ BR BKN005 OVC010
     FM210600 VRB05KT 3SM BR OVC005
      TEMPO 2109/2113 1SM BR OVC003
     FM211500 04008KT P6SM BKN008 OVC015
     FM211700 06008KT P6SM BKN015 OVC080
     FM212000 34008KT P6SM SCT020 BKN050 OVC080 PROB30 2121/2124
      -SHRA BKN020=



000
FTUS45 KBOU 210313 AAB
TAFAPA
TAF AMD
KAPA 210313Z 2103/2124 11008KT P6SM FEW006 OVC020
      TEMPO 2103/2106 2SM -DZ BR BKN006
     FM210600 18006KT P6SM SCT007 OVC015
      TEMPO 2106/2110 BKN007
     FM211200 15010KT P6SM BKN015 OVC080
     FM211600 15010KT P6SM SCT020 BKN080
     FM212100 13012G20KT P6SM SCT025 BKN050 OVC100 PROB30 2121/2124
      -SHRA BKN025=



000
FTUS45 KBOU 210313 AAB
TAFAPA
TAF AMD
KAPA 210313Z 2103/2124 11008KT P6SM FEW006 OVC020
      TEMPO 2103/2106 2SM -DZ BR BKN006
     FM210600 18006KT P6SM SCT007 OVC015
      TEMPO 2106/2110 BKN007
     FM211200 15010KT P6SM BKN015 OVC080
     FM211600 15010KT P6SM SCT020 BKN080
     FM212100 13012G20KT P6SM SCT025 BKN050 OVC100 PROB30 2121/2124
      -SHRA BKN025=



000
FTUS45 KBOU 210313 AAB
TAFBJC
TAF AMD
KBJC 210313Z 2103/2124 09005KT 4SM BR SCT005 OVC008
     FM210600 VRB05KT 3SM BR OVC005
      TEMPO 2109/2113 1SM BR OVC003
     FM211500 04008KT P6SM BKN008 OVC015
     FM211700 06008KT P6SM BKN015 OVC080
     FM212000 34008KT P6SM SCT020 BKN050 OVC080 PROB30 2121/2124
      -SHRA BKN020=



000
FTUS45 KBOU 210313 AAB
TAFBJC
TAF AMD
KBJC 210313Z 2103/2124 09005KT 4SM BR SCT005 OVC008
     FM210600 VRB05KT 3SM BR OVC005
      TEMPO 2109/2113 1SM BR OVC003
     FM211500 04008KT P6SM BKN008 OVC015
     FM211700 06008KT P6SM BKN015 OVC080
     FM212000 34008KT P6SM SCT020 BKN050 OVC080 PROB30 2121/2124
      -SHRA BKN020=



000
FTUS45 KBOU 210313 AAB
TAFDEN
TAF AMD
KDEN 210313Z 2103/2206 10006KT P6SM SCT006 OVC020
     FM210600 16006KT P6SM SCT006 OVC012
      TEMPO 2106/2110 BKN006
     FM211200 30006KT 3SM BR OVC005
     FM211600 30006KT P6SM SCT010 BKN020
     FM212000 16010KT P6SM SCT025 OVC080
     FM212200 14012G20KT P6SM SCT025 BKN050 OVC100 PROB30 2122/2202
      -SHRA BKN025
     FM220200 14012G20KT 5SM -SHRA BR SCT012 OVC025
      TEMPO 2202/2206 3SM -RA BR BKN012=



000
FTUS45 KBOU 210313 AAB
TAFDEN
TAF AMD
KDEN 210313Z 2103/2206 10006KT P6SM SCT006 OVC020
     FM210600 16006KT P6SM SCT006 OVC012
      TEMPO 2106/2110 BKN006
     FM211200 30006KT 3SM BR OVC005
     FM211600 30006KT P6SM SCT010 BKN020
     FM212000 16010KT P6SM SCT025 OVC080
     FM212200 14012G20KT P6SM SCT025 BKN050 OVC100 PROB30 2122/2202
      -SHRA BKN025
     FM220200 14012G20KT 5SM -SHRA BR SCT012 OVC025
      TEMPO 2202/2206 3SM -RA BR BKN012=



000
FTUS45 KBOU 210053 AAA
TAFBJC
TAF AMD
KBJC 210053Z 2101/2124 06006KT P6SM VCSH SCT008 OVC012
      TEMPO 2101/2104 3SM -DZ BR BKN008
     FM210400 06005KT P6SM SCT005 OVC008
     FM210700 VRB05KT 3SM BR OVC005
      TEMPO 2109/2113 1SM BR OVC003
     FM211500 04008KT P6SM BKN008 OVC015
     FM211700 06008KT P6SM BKN015 OVC080
     FM212000 34008KT P6SM SCT020 BKN050 OVC080 PROB30 2121/2124
      -SHRA BKN020=



000
FTUS45 KBOU 210053 AAA
TAFBJC
TAF AMD
KBJC 210053Z 2101/2124 06006KT P6SM VCSH SCT008 OVC012
      TEMPO 2101/2104 3SM -DZ BR BKN008
     FM210400 06005KT P6SM SCT005 OVC008
     FM210700 VRB05KT 3SM BR OVC005
      TEMPO 2109/2113 1SM BR OVC003
     FM211500 04008KT P6SM BKN008 OVC015
     FM211700 06008KT P6SM BKN015 OVC080
     FM212000 34008KT P6SM SCT020 BKN050 OVC080 PROB30 2121/2124
      -SHRA BKN020=



000
FTUS45 KBOU 210053 AAA
TAFAPA
TAF AMD
KAPA 210053Z 2101/2124 06008KT P6SM VCSH FEW007 OVC012
      TEMPO 2101/2104 2SM -SHRA BR BKN007
     FM210600 18006KT P6SM SCT007 OVC015
      TEMPO 2106/2110 BKN007
     FM211200 15010KT P6SM BKN015 OVC080
     FM211600 15010KT P6SM SCT020 BKN080
     FM212100 13012G20KT P6SM SCT025 BKN050 OVC100 PROB30 2121/2124
      -SHRA BKN025=



000
FTUS45 KBOU 210053 AAA
TAFDEN
TAF AMD
KDEN 210053Z 2101/2206 07006KT P6SM VCSH OVC014
      TEMPO 2101/2104 2SM -SHRA BR BKN009
     FM210500 16006KT P6SM SCT006 OVC012
      TEMPO 2106/2110 BKN006
     FM211200 30006KT 3SM BR OVC005
     FM211600 30006KT P6SM SCT010 BKN020
     FM212000 16010KT P6SM SCT025 OVC080
     FM212200 14012G20KT P6SM SCT025 BKN050 OVC100 PROB30 2122/2202
      -SHRA BKN025
     FM220200 14012G20KT 5SM -SHRA BR SCT012 OVC025
      TEMPO 2202/2206 3SM -RA BR BKN012=



000
FTUS45 KBOU 210053 AAA
TAFAPA
TAF AMD
KAPA 210053Z 2101/2124 06008KT P6SM VCSH FEW007 OVC012
      TEMPO 2101/2104 2SM -SHRA BR BKN007
     FM210600 18006KT P6SM SCT007 OVC015
      TEMPO 2106/2110 BKN007
     FM211200 15010KT P6SM BKN015 OVC080
     FM211600 15010KT P6SM SCT020 BKN080
     FM212100 13012G20KT P6SM SCT025 BKN050 OVC100 PROB30 2121/2124
      -SHRA BKN025=



000
FTUS45 KBOU 210053 AAA
TAFDEN
TAF AMD
KDEN 210053Z 2101/2206 07006KT P6SM VCSH OVC014
      TEMPO 2101/2104 2SM -SHRA BR BKN009
     FM210500 16006KT P6SM SCT006 OVC012
      TEMPO 2106/2110 BKN006
     FM211200 30006KT 3SM BR OVC005
     FM211600 30006KT P6SM SCT010 BKN020
     FM212000 16010KT P6SM SCT025 OVC080
     FM212200 14012G20KT P6SM SCT025 BKN050 OVC100 PROB30 2122/2202
      -SHRA BKN025
     FM220200 14012G20KT 5SM -SHRA BR SCT012 OVC025
      TEMPO 2202/2206 3SM -RA BR BKN012=



000
FTUS45 KBOU 210053 AAA
TAFAPA
TAF AMD
KAPA 210053Z 2101/2124 06008KT P6SM VCSH FEW007 OVC012
      TEMPO 2101/2104 2SM -SHRA BR BKN007
     FM210600 18006KT P6SM SCT007 OVC015
      TEMPO 2106/2110 BKN007
     FM211200 15010KT P6SM BKN015 OVC080
     FM211600 15010KT P6SM SCT020 BKN080
     FM212100 13012G20KT P6SM SCT025 BKN050 OVC100 PROB30 2121/2124
      -SHRA BKN025=



000
FTUS45 KBOU 210053 AAA
TAFAPA
TAF AMD
KAPA 210053Z 2101/2124 06008KT P6SM VCSH FEW007 OVC012
      TEMPO 2101/2104 2SM -SHRA BR BKN007
     FM210600 18006KT P6SM SCT007 OVC015
      TEMPO 2106/2110 BKN007
     FM211200 15010KT P6SM BKN015 OVC080
     FM211600 15010KT P6SM SCT020 BKN080
     FM212100 13012G20KT P6SM SCT025 BKN050 OVC100 PROB30 2121/2124
      -SHRA BKN025=



000
FTUS45 KBOU 210053 AAA
TAFBJC
TAF AMD
KBJC 210053Z 2101/2124 06006KT P6SM VCSH SCT008 OVC012
      TEMPO 2101/2104 3SM -DZ BR BKN008
     FM210400 06005KT P6SM SCT005 OVC008
     FM210700 VRB05KT 3SM BR OVC005
      TEMPO 2109/2113 1SM BR OVC003
     FM211500 04008KT P6SM BKN008 OVC015
     FM211700 06008KT P6SM BKN015 OVC080
     FM212000 34008KT P6SM SCT020 BKN050 OVC080 PROB30 2121/2124
      -SHRA BKN020=



000
FTUS45 KBOU 210053 AAA
TAFBJC
TAF AMD
KBJC 210053Z 2101/2124 06006KT P6SM VCSH SCT008 OVC012
      TEMPO 2101/2104 3SM -DZ BR BKN008
     FM210400 06005KT P6SM SCT005 OVC008
     FM210700 VRB05KT 3SM BR OVC005
      TEMPO 2109/2113 1SM BR OVC003
     FM211500 04008KT P6SM BKN008 OVC015
     FM211700 06008KT P6SM BKN015 OVC080
     FM212000 34008KT P6SM SCT020 BKN050 OVC080 PROB30 2121/2124
      -SHRA BKN020=



000
FTUS45 KBOU 210053 AAA
TAFDEN
TAF AMD
KDEN 210053Z 2101/2206 07006KT P6SM VCSH OVC014
      TEMPO 2101/2104 2SM -SHRA BR BKN009
     FM210500 16006KT P6SM SCT006 OVC012
      TEMPO 2106/2110 BKN006
     FM211200 30006KT 3SM BR OVC005
     FM211600 30006KT P6SM SCT010 BKN020
     FM212000 16010KT P6SM SCT025 OVC080
     FM212200 14012G20KT P6SM SCT025 BKN050 OVC100 PROB30 2122/2202
      -SHRA BKN025
     FM220200 14012G20KT 5SM -SHRA BR SCT012 OVC025
      TEMPO 2202/2206 3SM -RA BR BKN012=



000
FTUS45 KBOU 210053 AAA
TAFDEN
TAF AMD
KDEN 210053Z 2101/2206 07006KT P6SM VCSH OVC014
      TEMPO 2101/2104 2SM -SHRA BR BKN009
     FM210500 16006KT P6SM SCT006 OVC012
      TEMPO 2106/2110 BKN006
     FM211200 30006KT 3SM BR OVC005
     FM211600 30006KT P6SM SCT010 BKN020
     FM212000 16010KT P6SM SCT025 OVC080
     FM212200 14012G20KT P6SM SCT025 BKN050 OVC100 PROB30 2122/2202
      -SHRA BKN025
     FM220200 14012G20KT 5SM -SHRA BR SCT012 OVC025
      TEMPO 2202/2206 3SM -RA BR BKN012=



000
FTUS45 KBOU 202347
TAFBJC
TAF
KBJC 202347Z 2100/2124 06008KT P6SM VCSH FEW008 OVC012
     FM210500 06006KT P6SM SCT005 OVC008
     FM210800 VRB05KT 3SM BR OVC005
      TEMPO 2109/2113 1SM BR OVC003
     FM211500 04008KT P6SM BKN008 OVC015
     FM211700 06008KT P6SM BKN015 OVC080
     FM212000 34008KT P6SM SCT020 BKN050 OVC080 PROB30 2121/2124
      -SHRA BKN020=



000
FTUS45 KBOU 202347
TAFBJC
TAF
KBJC 202347Z 2100/2124 06008KT P6SM VCSH FEW008 OVC012
     FM210500 06006KT P6SM SCT005 OVC008
     FM210800 VRB05KT 3SM BR OVC005
      TEMPO 2109/2113 1SM BR OVC003
     FM211500 04008KT P6SM BKN008 OVC015
     FM211700 06008KT P6SM BKN015 OVC080
     FM212000 34008KT P6SM SCT020 BKN050 OVC080 PROB30 2121/2124
      -SHRA BKN020=



000
FTUS45 KBOU 202347
TAFBJC
TAF
KBJC 202347Z 2100/2124 06008KT P6SM VCSH FEW008 OVC012
     FM210500 06006KT P6SM SCT005 OVC008
     FM210800 VRB05KT 3SM BR OVC005
      TEMPO 2109/2113 1SM BR OVC003
     FM211500 04008KT P6SM BKN008 OVC015
     FM211700 06008KT P6SM BKN015 OVC080
     FM212000 34008KT P6SM SCT020 BKN050 OVC080 PROB30 2121/2124
      -SHRA BKN020=



000
FTUS45 KBOU 202347
TAFBJC
TAF
KBJC 202347Z 2100/2124 06008KT P6SM VCSH FEW008 OVC012
     FM210500 06006KT P6SM SCT005 OVC008
     FM210800 VRB05KT 3SM BR OVC005
      TEMPO 2109/2113 1SM BR OVC003
     FM211500 04008KT P6SM BKN008 OVC015
     FM211700 06008KT P6SM BKN015 OVC080
     FM212000 34008KT P6SM SCT020 BKN050 OVC080 PROB30 2121/2124
      -SHRA BKN020=



000
FTUS45 KBOU 202337
TAFDEN
TAF
KDEN 202337Z 2100/2206 07009KT P6SM VCSH OVC012
      TEMPO 2103/2105 OVC009
     FM210500 16006KT P6SM SCT006 OVC012
      TEMPO 2106/2110 BKN006
     FM211200 30006KT 3SM BR OVC005
     FM211600 30006KT P6SM SCT010 BKN020
     FM212000 16010KT P6SM SCT025 OVC080
     FM212200 14012G20KT P6SM SCT025 BKN050 OVC100 PROB30 2122/2202
      -SHRA BKN025
     FM220200 14012G20KT 5SM -SHRA BR SCT012 OVC025
      TEMPO 2202/2206 3SM -RA BR BKN012=



000
FTUS45 KBOU 202337
TAFAPA
TAF
KAPA 202337Z 2100/2124 06008KT P6SM VCSH FEW007 OVC015
     FM210600 18006KT P6SM SCT007 OVC015
      TEMPO 2106/2110 BKN007
     FM211200 15010KT P6SM BKN015 OVC080
     FM211600 15010KT P6SM SCT020 BKN080
     FM212100 13012G20KT P6SM SCT025 BKN050 OVC100 PROB30 2121/2124
      -SHRA BKN025=



000
FTUS45 KBOU 202337
TAFDEN
TAF
KDEN 202337Z 2100/2206 07009KT P6SM VCSH OVC012
      TEMPO 2103/2105 OVC009
     FM210500 16006KT P6SM SCT006 OVC012
      TEMPO 2106/2110 BKN006
     FM211200 30006KT 3SM BR OVC005
     FM211600 30006KT P6SM SCT010 BKN020
     FM212000 16010KT P6SM SCT025 OVC080
     FM212200 14012G20KT P6SM SCT025 BKN050 OVC100 PROB30 2122/2202
      -SHRA BKN025
     FM220200 14012G20KT 5SM -SHRA BR SCT012 OVC025
      TEMPO 2202/2206 3SM -RA BR BKN012=



000
FTUS45 KBOU 202337
TAFAPA
TAF
KAPA 202337Z 2100/2124 06008KT P6SM VCSH FEW007 OVC015
     FM210600 18006KT P6SM SCT007 OVC015
      TEMPO 2106/2110 BKN007
     FM211200 15010KT P6SM BKN015 OVC080
     FM211600 15010KT P6SM SCT020 BKN080
     FM212100 13012G20KT P6SM SCT025 BKN050 OVC100 PROB30 2121/2124
      -SHRA BKN025=



000
FTUS45 KBOU 202104 AAB
TAFBJC
TAF AMD
KBJC 202104Z 2021/2118 04009KT P6SM SCT008 OVC014
     FM202200 06008KT P6SM VCSH SCT014 OVC020
      TEMPO 2022/2102 10008KT -SHRA BKN014
     FM210500 VRB06KT P6SM SCT005 OVC012
     FM210800 VRB05KT P6SM BKN005 OVC015
     FM211500 12012KT P6SM SCT025 BKN120=



000
FTUS45 KBOU 202104 AAB
TAFBJC
TAF AMD
KBJC 202104Z 2021/2118 04009KT P6SM SCT008 OVC014
     FM202200 06008KT P6SM VCSH SCT014 OVC020
      TEMPO 2022/2102 10008KT -SHRA BKN014
     FM210500 VRB06KT P6SM SCT005 OVC012
     FM210800 VRB05KT P6SM BKN005 OVC015
     FM211500 12012KT P6SM SCT025 BKN120=



000
FTUS45 KBOU 202056 AAB
TAFDEN
TAF AMD
KDEN 202056Z 2021/2124 07009KT P6SM OVC015
     FM202200 06009KT P6SM BKN015 OVC020
     FM210000 09009KT P6SM VCSH SCT018 OVC025
      TEMPO 2101/2104 -SHRA BKN015
     FM210500 16006KT P6SM SCT005 BKN010 OVC015
      TEMPO 2108/2111 3SM BR BKN005
     FM211500 15012KT P6SM SCT025 BKN120
     FM212000 13010KT P6SM VCSH SCT025 BKN060 OVC100=



000
FTUS45 KBOU 202056 AAB
TAFDEN
TAF AMD
KDEN 202056Z 2021/2124 07009KT P6SM OVC015
     FM202200 06009KT P6SM BKN015 OVC020
     FM210000 09009KT P6SM VCSH SCT018 OVC025
      TEMPO 2101/2104 -SHRA BKN015
     FM210500 16006KT P6SM SCT005 BKN010 OVC015
      TEMPO 2108/2111 3SM BR BKN005
     FM211500 15012KT P6SM SCT025 BKN120
     FM212000 13010KT P6SM VCSH SCT025 BKN060 OVC100=



000
FTUS45 KBOU 202056 AAB
TAFDEN
TAF AMD
KDEN 202056Z 2021/2124 07009KT P6SM OVC015
     FM202200 06009KT P6SM BKN015 OVC020
     FM210000 09009KT P6SM VCSH SCT018 OVC025
      TEMPO 2101/2104 -SHRA BKN015
     FM210500 16006KT P6SM SCT005 BKN010 OVC015
      TEMPO 2108/2111 3SM BR BKN005
     FM211500 15012KT P6SM SCT025 BKN120
     FM212000 13010KT P6SM VCSH SCT025 BKN060 OVC100=



000
FTUS45 KBOU 202056 AAB
TAFDEN
TAF AMD
KDEN 202056Z 2021/2124 07009KT P6SM OVC015
     FM202200 06009KT P6SM BKN015 OVC020
     FM210000 09009KT P6SM VCSH SCT018 OVC025
      TEMPO 2101/2104 -SHRA BKN015
     FM210500 16006KT P6SM SCT005 BKN010 OVC015
      TEMPO 2108/2111 3SM BR BKN005
     FM211500 15012KT P6SM SCT025 BKN120
     FM212000 13010KT P6SM VCSH SCT025 BKN060 OVC100=



000
FTUS45 KBOU 202001 AAA
TAFBJC
TAF AMD
KBJC 202001Z 2020/2118 04009KT P6SM SCT008 OVC014
     FM202200 06008KT P6SM VCSH SCT016 OVC020
     FM210000 10008KT P6SM -SHRA SCT010 OVC020
     FM210500 VRB06KT P6SM SCT005 OVC012
     FM210800 VRB05KT P6SM BKN005 OVC015
     FM211500 12012KT P6SM SCT025 BKN120=



000
FTUS45 KBOU 201915 AAA
TAFAPA
TAF AMD
KAPA 201915Z 2019/2118 06008KT P6SM SCT008 OVC016
     FM210000 07008KT P6SM -SHRA SCT015 OVC025
     FM210400 10006KT P6SM VCSH SCT007 OVC015
     FM210700 18006KT 5SM BR BKN007 OVC015
     FM211500 12012KT P6SM SCT025 BKN120=



000
FTUS45 KBOU 201907 AAA
TAFDEN
TAF AMD
KDEN 201907Z 2019/2124 07007KT P6SM BKN012 OVC018
     FM202000 05007KT P6SM SCT012 OVC019
     FM202200 06011KT P6SM SCT018 BKN025
     FM210100 12010KT P6SM -SHRA SCT020 OVC030
     FM210500 17006KT P6SM SCT005 OVC015
      TEMPO 2107/2111 3SM BR BKN005
     FM211500 15012KT P6SM SCT025 BKN120
     FM212000 13010KT P6SM VCSH SCT025 BKN060 OVC100=



000
FTUS45 KBOU 201907 AAA
TAFDEN
TAF AMD
KDEN 201907Z 2019/2124 07007KT P6SM BKN012 OVC018
     FM202000 05007KT P6SM SCT012 OVC019
     FM202200 06011KT P6SM SCT018 BKN025
     FM210100 12010KT P6SM -SHRA SCT020 OVC030
     FM210500 17006KT P6SM SCT005 OVC015
      TEMPO 2107/2111 3SM BR BKN005
     FM211500 15012KT P6SM SCT025 BKN120
     FM212000 13010KT P6SM VCSH SCT025 BKN060 OVC100=



000
FTUS45 KBOU 201907 AAA
TAFDEN
TAF AMD
KDEN 201907Z 2019/2124 07007KT P6SM BKN012 OVC018
     FM202000 05007KT P6SM SCT012 OVC019
     FM202200 06011KT P6SM SCT018 BKN025
     FM210100 12010KT P6SM -SHRA SCT020 OVC030
     FM210500 17006KT P6SM SCT005 OVC015
      TEMPO 2107/2111 3SM BR BKN005
     FM211500 15012KT P6SM SCT025 BKN120
     FM212000 13010KT P6SM VCSH SCT025 BKN060 OVC100=



000
FTUS45 KBOU 201739
TAFDEN
TAF
KDEN 201739Z 2018/2124 07007KT P6SM BKN012 OVC018
     FM201900 08010KT P6SM SCT012 OVC019
     FM202000 08011KT P6SM SCT018 BKN025
     FM210100 12010KT P6SM -SHRA SCT020 OVC030
     FM210500 17006KT P6SM SCT005 OVC015
      TEMPO 2107/2111 3SM BR BKN005
     FM211500 12012KT P6SM SCT025 BKN120=



000
FTUS45 KBOU 201739
TAFDEN
TAF
KDEN 201739Z 2018/2124 07007KT P6SM BKN012 OVC018
     FM201900 08010KT P6SM SCT012 OVC019
     FM202000 08011KT P6SM SCT018 BKN025
     FM210100 12010KT P6SM -SHRA SCT020 OVC030
     FM210500 17006KT P6SM SCT005 OVC015
      TEMPO 2107/2111 3SM BR BKN005
     FM211500 12012KT P6SM SCT025 BKN120=



000
FTUS45 KBOU 201739
TAFBJC
TAF
KBJC 201739Z 2018/2118 04009KT P6SM SCT008 OVC012
     FM202000 06008KT P6SM SCT016 OVC020
     FM210000 10008KT P6SM -SHRA SCT010 OVC020
     FM210500 VRB06KT P6SM SCT005 OVC012
     FM210800 VRB05KT P6SM BKN005 OVC015
     FM211500 12012KT P6SM SCT025 BKN120=



000
FTUS45 KBOU 201739
TAFAPA
TAF
KAPA 201739Z 2018/2118 06008KT P6SM SCT008 OVC016
     FM202000 08011KT P6SM SCT016 OVC020
     FM210000 10008KT P6SM -SHRA SCT015 OVC025
     FM210400 14006KT P6SM SCT007 OVC015
     FM210700 18006KT 5SM BR BKN007 OVC015
     FM211500 12012KT P6SM SCT025 BKN120=



000
FTUS45 KBOU 201739
TAFAPA
TAF
KAPA 201739Z 2018/2118 06008KT P6SM SCT008 OVC016
     FM202000 08011KT P6SM SCT016 OVC020
     FM210000 10008KT P6SM -SHRA SCT015 OVC025
     FM210400 14006KT P6SM SCT007 OVC015
     FM210700 18006KT 5SM BR BKN007 OVC015
     FM211500 12012KT P6SM SCT025 BKN120=



000
FTUS45 KBOU 201739
TAFBJC
TAF
KBJC 201739Z 2018/2118 04009KT P6SM SCT008 OVC012
     FM202000 06008KT P6SM SCT016 OVC020
     FM210000 10008KT P6SM -SHRA SCT010 OVC020
     FM210500 VRB06KT P6SM SCT005 OVC012
     FM210800 VRB05KT P6SM BKN005 OVC015
     FM211500 12012KT P6SM SCT025 BKN120=



000
FTUS45 KBOU 201453 AAB
TAFDEN
TAF AMD
KDEN 201453Z 2015/2118 08008KT 5SM BR BKN008 OVC010
     FM201530 08010KT P6SM SCT008 OVC019
     FM202000 08011KT P6SM SCT020 BKN030
     FM210100 12010KT P6SM -SHRA SCT020 OVC030
     FM210500 14006KT P6SM SCT005 OVC015=



000
FTUS45 KBOU 201453 AAB
TAFDEN
TAF AMD
KDEN 201453Z 2015/2118 08008KT 5SM BR BKN008 OVC010
     FM201530 08010KT P6SM SCT008 OVC019
     FM202000 08011KT P6SM SCT020 BKN030
     FM210100 12010KT P6SM -SHRA SCT020 OVC030
     FM210500 14006KT P6SM SCT005 OVC015=



000
FTUS45 KBOU 201453 AAB
TAFDEN
TAF AMD
KDEN 201453Z 2015/2118 08008KT 5SM BR BKN008 OVC010
     FM201530 08010KT P6SM SCT008 OVC019
     FM202000 08011KT P6SM SCT020 BKN030
     FM210100 12010KT P6SM -SHRA SCT020 OVC030
     FM210500 14006KT P6SM SCT005 OVC015=



000
FTUS45 KBOU 201453 AAB
TAFDEN
TAF AMD
KDEN 201453Z 2015/2118 08008KT 5SM BR BKN008 OVC010
     FM201530 08010KT P6SM SCT008 OVC019
     FM202000 08011KT P6SM SCT020 BKN030
     FM210100 12010KT P6SM -SHRA SCT020 OVC030
     FM210500 14006KT P6SM SCT005 OVC015=



000
FTUS45 KBOU 201305 AAA
TAFAPA
TAF AMD
KAPA 201305Z 2013/2112 02006KT 3SM BR OVC003
      TEMPO 2013/2014 1SM BR OVC002
     FM201500 03008KT P6SM BKN004 OVC008
     FM201700 06008KT P6SM SCT008 OVC016
     FM202000 08011KT P6SM SCT016 BKN028
     FM210000 10008KT P6SM -SHRA SCT015 OVC030
     FM210400 14006KT P6SM SCT007 OVC015=



000
FTUS45 KBOU 201305 AAA
TAFDEN
TAF AMD
KDEN 201305Z 2013/2118 06008KT 1SM BR OVC004
      TEMPO 2013/2014 1/2SM FG OVC002
     FM201500 08008KT 4SM BR BKN005 OVC009
     FM201630 08010KT P6SM SCT008 OVC016
     FM202000 08011KT P6SM SCT020 BKN030
     FM210100 12010KT P6SM -SHRA SCT020 OVC030
     FM210500 14006KT P6SM SCT005 OVC015=



000
FTUS45 KBOU 201305 AAA
TAFAPA
TAF AMD
KAPA 201305Z 2013/2112 02006KT 3SM BR OVC003
      TEMPO 2013/2014 1SM BR OVC002
     FM201500 03008KT P6SM BKN004 OVC008
     FM201700 06008KT P6SM SCT008 OVC016
     FM202000 08011KT P6SM SCT016 BKN028
     FM210000 10008KT P6SM -SHRA SCT015 OVC030
     FM210400 14006KT P6SM SCT007 OVC015=



000
FTUS45 KBOU 201305 AAA
TAFBJC
TAF AMD
KBJC 201305Z 2013/2112 03006KT 1SM BR OVC002
      TEMPO 2014/2015 2SM BR
     FM201500 03006KT 3SM BR BKN005 OVC008
     FM201800 04009KT P6SM SCT008 OVC012
     FM202000 06008KT P6SM SCT016 OVC020
     FM210000 10008KT P6SM -SHRA SCT010 OVC020
     FM210500 VRB06KT P6SM SCT005 OVC012=



000
FTUS45 KBOU 201305 AAA
TAFDEN
TAF AMD
KDEN 201305Z 2013/2118 06008KT 1SM BR OVC004
      TEMPO 2013/2014 1/2SM FG OVC002
     FM201500 08008KT 4SM BR BKN005 OVC009
     FM201630 08010KT P6SM SCT008 OVC016
     FM202000 08011KT P6SM SCT020 BKN030
     FM210100 12010KT P6SM -SHRA SCT020 OVC030
     FM210500 14006KT P6SM SCT005 OVC015=



000
FTUS45 KBOU 201305 AAA
TAFBJC
TAF AMD
KBJC 201305Z 2013/2112 03006KT 1SM BR OVC002
      TEMPO 2014/2015 2SM BR
     FM201500 03006KT 3SM BR BKN005 OVC008
     FM201800 04009KT P6SM SCT008 OVC012
     FM202000 06008KT P6SM SCT016 OVC020
     FM210000 10008KT P6SM -SHRA SCT010 OVC020
     FM210500 VRB06KT P6SM SCT005 OVC012=



000
FTUS45 KBOU 201305 AAA
TAFAPA
TAF AMD
KAPA 201305Z 2013/2112 02006KT 3SM BR OVC003
      TEMPO 2013/2014 1SM BR OVC002
     FM201500 03008KT P6SM BKN004 OVC008
     FM201700 06008KT P6SM SCT008 OVC016
     FM202000 08011KT P6SM SCT016 BKN028
     FM210000 10008KT P6SM -SHRA SCT015 OVC030
     FM210400 14006KT P6SM SCT007 OVC015=



000
FTUS45 KBOU 201305 AAA
TAFBJC
TAF AMD
KBJC 201305Z 2013/2112 03006KT 1SM BR OVC002
      TEMPO 2014/2015 2SM BR
     FM201500 03006KT 3SM BR BKN005 OVC008
     FM201800 04009KT P6SM SCT008 OVC012
     FM202000 06008KT P6SM SCT016 OVC020
     FM210000 10008KT P6SM -SHRA SCT010 OVC020
     FM210500 VRB06KT P6SM SCT005 OVC012=



000
FTUS45 KBOU 201305 AAA
TAFDEN
TAF AMD
KDEN 201305Z 2013/2118 06008KT 1SM BR OVC004
      TEMPO 2013/2014 1/2SM FG OVC002
     FM201500 08008KT 4SM BR BKN005 OVC009
     FM201630 08010KT P6SM SCT008 OVC016
     FM202000 08011KT P6SM SCT020 BKN030
     FM210100 12010KT P6SM -SHRA SCT020 OVC030
     FM210500 14006KT P6SM SCT005 OVC015=



000
FTUS45 KBOU 201305 AAA
TAFAPA
TAF AMD
KAPA 201305Z 2013/2112 02006KT 3SM BR OVC003
      TEMPO 2013/2014 1SM BR OVC002
     FM201500 03008KT P6SM BKN004 OVC008
     FM201700 06008KT P6SM SCT008 OVC016
     FM202000 08011KT P6SM SCT016 BKN028
     FM210000 10008KT P6SM -SHRA SCT015 OVC030
     FM210400 14006KT P6SM SCT007 OVC015=



000
FTUS45 KBOU 201305 AAA
TAFDEN
TAF AMD
KDEN 201305Z 2013/2118 06008KT 1SM BR OVC004
      TEMPO 2013/2014 1/2SM FG OVC002
     FM201500 08008KT 4SM BR BKN005 OVC009
     FM201630 08010KT P6SM SCT008 OVC016
     FM202000 08011KT P6SM SCT020 BKN030
     FM210100 12010KT P6SM -SHRA SCT020 OVC030
     FM210500 14006KT P6SM SCT005 OVC015=



000
FTUS45 KBOU 201305 AAA
TAFBJC
TAF AMD
KBJC 201305Z 2013/2112 03006KT 1SM BR OVC002
      TEMPO 2014/2015 2SM BR
     FM201500 03006KT 3SM BR BKN005 OVC008
     FM201800 04009KT P6SM SCT008 OVC012
     FM202000 06008KT P6SM SCT016 OVC020
     FM210000 10008KT P6SM -SHRA SCT010 OVC020
     FM210500 VRB06KT P6SM SCT005 OVC012=



000
FTUS45 KBOU 201125
TAFDEN
TAF
KDEN 201125Z 2012/2118 06008KT 1SM BR OVC004
      TEMPO 2012/2014 1/4SM FG OVC002
     FM201500 08008KT P6SM SCT005 OVC012
     FM201800 08010KT P6SM SCT020 OVC030
     FM202000 08011KT P6SM SCT025 BKN040
     FM210100 12010KT P6SM -SHRA SCT020 OVC030
     FM210500 14006KT P6SM SCT005 OVC015=



000
FTUS45 KBOU 201125
TAFAPA
TAF
KAPA 201125Z 2012/2112 01006KT 3SM BR OVC003
      TEMPO 2012/2013 1SM BR OVC002
     FM201400 03008KT P6SM SCT005 OVC010
     FM201700 05008KT P6SM SCT020 OVC030
     FM202000 06008KT P6SM SCT025 BKN040
     FM210000 10008KT P6SM -SHRA SCT015 OVC030
     FM210400 14006KT P6SM SCT007 OVC015=



000
FTUS45 KBOU 201125
TAFBJC
TAF
KBJC 201125Z 2012/2112 03006KT 5SM BR SCT004 OVC010
      TEMPO 2012/2015 1SM BR OVC002
     FM201500 03006KT P6SM SCT005 OVC015
     FM201800 05008KT P6SM SCT015 OVC025
     FM202100 06008KT P6SM SCT025 BKN040
     FM210000 10008KT P6SM -SHRA SCT010 OVC020
     FM210500 VRB06KT P6SM SCT005 OVC012=



000
FTUS45 KBOU 201125
TAFDEN
TAF
KDEN 201125Z 2012/2118 06008KT 1SM BR OVC004
      TEMPO 2012/2014 1/4SM FG OVC002
     FM201500 08008KT P6SM SCT005 OVC012
     FM201800 08010KT P6SM SCT020 OVC030
     FM202000 08011KT P6SM SCT025 BKN040
     FM210100 12010KT P6SM -SHRA SCT020 OVC030
     FM210500 14006KT P6SM SCT005 OVC015=



000
FTUS45 KBOU 201125
TAFBJC
TAF
KBJC 201125Z 2012/2112 03006KT 5SM BR SCT004 OVC010
      TEMPO 2012/2015 1SM BR OVC002
     FM201500 03006KT P6SM SCT005 OVC015
     FM201800 05008KT P6SM SCT015 OVC025
     FM202100 06008KT P6SM SCT025 BKN040
     FM210000 10008KT P6SM -SHRA SCT010 OVC020
     FM210500 VRB06KT P6SM SCT005 OVC012=



000
FTUS45 KBOU 201125
TAFBJC
TAF
KBJC 201125Z 2012/2112 03006KT 5SM BR SCT004 OVC010
      TEMPO 2012/2015 1SM BR OVC002
     FM201500 03006KT P6SM SCT005 OVC015
     FM201800 05008KT P6SM SCT015 OVC025
     FM202100 06008KT P6SM SCT025 BKN040
     FM210000 10008KT P6SM -SHRA SCT010 OVC020
     FM210500 VRB06KT P6SM SCT005 OVC012=



000
FTUS45 KBOU 201125
TAFDEN
TAF
KDEN 201125Z 2012/2118 06008KT 1SM BR OVC004
      TEMPO 2012/2014 1/4SM FG OVC002
     FM201500 08008KT P6SM SCT005 OVC012
     FM201800 08010KT P6SM SCT020 OVC030
     FM202000 08011KT P6SM SCT025 BKN040
     FM210100 12010KT P6SM -SHRA SCT020 OVC030
     FM210500 14006KT P6SM SCT005 OVC015=



000
FTUS45 KBOU 201125
TAFAPA
TAF
KAPA 201125Z 2012/2112 01006KT 3SM BR OVC003
      TEMPO 2012/2013 1SM BR OVC002
     FM201400 03008KT P6SM SCT005 OVC010
     FM201700 05008KT P6SM SCT020 OVC030
     FM202000 06008KT P6SM SCT025 BKN040
     FM210000 10008KT P6SM -SHRA SCT015 OVC030
     FM210400 14006KT P6SM SCT007 OVC015=



000
FTUS45 KBOU 201125
TAFBJC
TAF
KBJC 201125Z 2012/2112 03006KT 5SM BR SCT004 OVC010
      TEMPO 2012/2015 1SM BR OVC002
     FM201500 03006KT P6SM SCT005 OVC015
     FM201800 05008KT P6SM SCT015 OVC025
     FM202100 06008KT P6SM SCT025 BKN040
     FM210000 10008KT P6SM -SHRA SCT010 OVC020
     FM210500 VRB06KT P6SM SCT005 OVC012=



000
FTUS45 KBOU 201125
TAFAPA
TAF
KAPA 201125Z 2012/2112 01006KT 3SM BR OVC003
      TEMPO 2012/2013 1SM BR OVC002
     FM201400 03008KT P6SM SCT005 OVC010
     FM201700 05008KT P6SM SCT020 OVC030
     FM202000 06008KT P6SM SCT025 BKN040
     FM210000 10008KT P6SM -SHRA SCT015 OVC030
     FM210400 14006KT P6SM SCT007 OVC015=



000
FTUS45 KBOU 201125
TAFDEN
TAF
KDEN 201125Z 2012/2118 06008KT 1SM BR OVC004
      TEMPO 2012/2014 1/4SM FG OVC002
     FM201500 08008KT P6SM SCT005 OVC012
     FM201800 08010KT P6SM SCT020 OVC030
     FM202000 08011KT P6SM SCT025 BKN040
     FM210100 12010KT P6SM -SHRA SCT020 OVC030
     FM210500 14006KT P6SM SCT005 OVC015=



000
FTUS45 KBOU 201125
TAFAPA
TAF
KAPA 201125Z 2012/2112 01006KT 3SM BR OVC003
      TEMPO 2012/2013 1SM BR OVC002
     FM201400 03008KT P6SM SCT005 OVC010
     FM201700 05008KT P6SM SCT020 OVC030
     FM202000 06008KT P6SM SCT025 BKN040
     FM210000 10008KT P6SM -SHRA SCT015 OVC030
     FM210400 14006KT P6SM SCT007 OVC015=



000
FTUS45 KBOU 201023 AAB
TAFBJC
TAF AMD
KBJC 201023Z 2010/2106 03006KT 3SM BR OVC004
      TEMPO 2010/2014 1SM BR OVC002
     FM201500 03006KT P6SM SCT005 OVC010
     FM201800 05008KT P6SM SCT015 OVC025
     FM202100 06008KT P6SM SCT025 BKN040
     FM210200 10008KT P6SM -SHRA SCT010 OVC020=



000
FTUS45 KBOU 201023 AAB
TAFBJC
TAF AMD
KBJC 201023Z 2010/2106 03006KT 3SM BR OVC004
      TEMPO 2010/2014 1SM BR OVC002
     FM201500 03006KT P6SM SCT005 OVC010
     FM201800 05008KT P6SM SCT015 OVC025
     FM202100 06008KT P6SM SCT025 BKN040
     FM210200 10008KT P6SM -SHRA SCT010 OVC020=



000
FTUS45 KBOU 201023 AAB
TAFBJC
TAF AMD
KBJC 201023Z 2010/2106 03006KT 3SM BR OVC004
      TEMPO 2010/2014 1SM BR OVC002
     FM201500 03006KT P6SM SCT005 OVC010
     FM201800 05008KT P6SM SCT015 OVC025
     FM202100 06008KT P6SM SCT025 BKN040
     FM210200 10008KT P6SM -SHRA SCT010 OVC020=



000
FTUS45 KBOU 201023 AAB
TAFBJC
TAF AMD
KBJC 201023Z 2010/2106 03006KT 3SM BR OVC004
      TEMPO 2010/2014 1SM BR OVC002
     FM201500 03006KT P6SM SCT005 OVC010
     FM201800 05008KT P6SM SCT015 OVC025
     FM202100 06008KT P6SM SCT025 BKN040
     FM210200 10008KT P6SM -SHRA SCT010 OVC020=



000
FTUS45 KBOU 200900 AAB
TAFDEN
TAF AMD
KDEN 200900Z 2009/2112 06008KT 1/4SM FG VV002
      TEMPO 2012/2015 3SM BR SCT001 OVC005
     FM201500 08008KT P6SM SCT007 OVC012
     FM201800 08010KT P6SM SCT020 OVC030
     FM202000 08011KT P6SM SCT025 BKN040
     FM210300 12010KT P6SM -SHRA SCT010 OVC025=



000
FTUS45 KBOU 200900 AAB
TAFDEN
TAF AMD
KDEN 200900Z 2009/2112 06008KT 1/4SM FG VV002
      TEMPO 2012/2015 3SM BR SCT001 OVC005
     FM201500 08008KT P6SM SCT007 OVC012
     FM201800 08010KT P6SM SCT020 OVC030
     FM202000 08011KT P6SM SCT025 BKN040
     FM210300 12010KT P6SM -SHRA SCT010 OVC025=



000
FTUS45 KBOU 200900 AAB
TAFDEN
TAF AMD
KDEN 200900Z 2009/2112 06008KT 1/4SM FG VV002
      TEMPO 2012/2015 3SM BR SCT001 OVC005
     FM201500 08008KT P6SM SCT007 OVC012
     FM201800 08010KT P6SM SCT020 OVC030
     FM202000 08011KT P6SM SCT025 BKN040
     FM210300 12010KT P6SM -SHRA SCT010 OVC025=



000
FTUS45 KBOU 200900 AAB
TAFDEN
TAF AMD
KDEN 200900Z 2009/2112 06008KT 1/4SM FG VV002
      TEMPO 2012/2015 3SM BR SCT001 OVC005
     FM201500 08008KT P6SM SCT007 OVC012
     FM201800 08010KT P6SM SCT020 OVC030
     FM202000 08011KT P6SM SCT025 BKN040
     FM210300 12010KT P6SM -SHRA SCT010 OVC025=



000
FTUS45 KBOU 200847 AAA
TAFBJC
TAF AMD
KBJC 200847Z 2009/2106 03008KT 1 1/2SM BR OVC002
      TEMPO 2010/2014 1/4SM FG OVC002
     FM201500 03008KT P6SM SCT005 OVC010
     FM201800 05008KT P6SM SCT015 OVC025
     FM202100 06008KT P6SM SCT025 BKN040
     FM210200 10008KT P6SM -SHRA SCT010 OVC020=



000
FTUS45 KBOU 200847 AAA
TAFBJC
TAF AMD
KBJC 200847Z 2009/2106 03008KT 1 1/2SM BR OVC002
      TEMPO 2010/2014 1/4SM FG OVC002
     FM201500 03008KT P6SM SCT005 OVC010
     FM201800 05008KT P6SM SCT015 OVC025
     FM202100 06008KT P6SM SCT025 BKN040
     FM210200 10008KT P6SM -SHRA SCT010 OVC020=



000
FTUS45 KBOU 200552 AAA
TAFDEN
TAF AMD
KDEN 200552Z 2006/2112 06010KT 1SM BR OVC002
      TEMPO 2006/2008 1/4SM -DZ FG VV001
     FM200800 06008KT 1/4SM FG VV001
      TEMPO 2012/2015 3SM BR SCT001 OVC005
     FM201500 08008KT P6SM SCT007 OVC012
     FM201800 08010KT P6SM SCT020 OVC030
     FM202000 08011KT P6SM SCT025 BKN040
     FM210300 12010KT P6SM -SHRA SCT010 OVC025=



000
FTUS45 KBOU 200552 AAA
TAFDEN
TAF AMD
KDEN 200552Z 2006/2112 06010KT 1SM BR OVC002
      TEMPO 2006/2008 1/4SM -DZ FG VV001
     FM200800 06008KT 1/4SM FG VV001
      TEMPO 2012/2015 3SM BR SCT001 OVC005
     FM201500 08008KT P6SM SCT007 OVC012
     FM201800 08010KT P6SM SCT020 OVC030
     FM202000 08011KT P6SM SCT025 BKN040
     FM210300 12010KT P6SM -SHRA SCT010 OVC025=



000
FTUS45 KBOU 200552 AAA
TAFDEN
TAF AMD
KDEN 200552Z 2006/2112 06010KT 1SM BR OVC002
      TEMPO 2006/2008 1/4SM -DZ FG VV001
     FM200800 06008KT 1/4SM FG VV001
      TEMPO 2012/2015 3SM BR SCT001 OVC005
     FM201500 08008KT P6SM SCT007 OVC012
     FM201800 08010KT P6SM SCT020 OVC030
     FM202000 08011KT P6SM SCT025 BKN040
     FM210300 12010KT P6SM -SHRA SCT010 OVC025=



000
FTUS45 KBOU 200552 AAA
TAFDEN
TAF AMD
KDEN 200552Z 2006/2112 06010KT 1SM BR OVC002
      TEMPO 2006/2008 1/4SM -DZ FG VV001
     FM200800 06008KT 1/4SM FG VV001
      TEMPO 2012/2015 3SM BR SCT001 OVC005
     FM201500 08008KT P6SM SCT007 OVC012
     FM201800 08010KT P6SM SCT020 OVC030
     FM202000 08011KT P6SM SCT025 BKN040
     FM210300 12010KT P6SM -SHRA SCT010 OVC025=



000
FTUS45 KBOU 200521
TAFDEN
TAF
KDEN 200521Z 2006/2112 06010KT 1SM BR OVC002
      TEMPO 2007/2010 1/4SM -DZ FG VV001
     FM201000 06008KT 1/4SM FG VV001
      TEMPO 2012/2015 3SM BR SCT001 OVC005
     FM201500 08008KT P6SM SCT007 OVC012
     FM201800 08010KT P6SM SCT020 OVC030
     FM202000 08011KT P6SM SCT025 BKN040
     FM210300 12010KT P6SM -SHRA SCT010 OVC025=



000
FTUS45 KBOU 200521
TAFBJC
TAF
KBJC 200521Z 2006/2106 03008KT 1 1/2SM BR OVC002
     FM200700 03008KT 1/4SM FG OVC001
      TEMPO 2010/2013 2SM BR OVC002
     FM201500 03008KT P6SM SCT005 OVC010
     FM201800 05008KT P6SM SCT015 OVC025
     FM202100 06008KT P6SM SCT025 BKN040
     FM210200 10008KT P6SM -SHRA SCT010 OVC020=



000
FTUS45 KBOU 200521
TAFAPA
TAF
KAPA 200521Z 2006/2106 36008KT P6SM OVC008
     FM200900 01008KT P6SM VCFG OVC004
      TEMPO 2010/2013 2SM BR OVC002
     FM201500 03008KT P6SM SCT005 OVC015
     FM201700 05008KT P6SM SCT020 OVC030
     FM202000 06008KT P6SM SCT025 BKN040
     FM210200 10008KT P6SM -SHRA SCT010 OVC025=



000
FTUS45 KBOU 200521
TAFBJC
TAF
KBJC 200521Z 2006/2106 03008KT 1 1/2SM BR OVC002
     FM200700 03008KT 1/4SM FG OVC001
      TEMPO 2010/2013 2SM BR OVC002
     FM201500 03008KT P6SM SCT005 OVC010
     FM201800 05008KT P6SM SCT015 OVC025
     FM202100 06008KT P6SM SCT025 BKN040
     FM210200 10008KT P6SM -SHRA SCT010 OVC020=



000
FTUS45 KBOU 200521
TAFDEN
TAF
KDEN 200521Z 2006/2112 06010KT 1SM BR OVC002
      TEMPO 2007/2010 1/4SM -DZ FG VV001
     FM201000 06008KT 1/4SM FG VV001
      TEMPO 2012/2015 3SM BR SCT001 OVC005
     FM201500 08008KT P6SM SCT007 OVC012
     FM201800 08010KT P6SM SCT020 OVC030
     FM202000 08011KT P6SM SCT025 BKN040
     FM210300 12010KT P6SM -SHRA SCT010 OVC025=



000
FTUS45 KBOU 200521
TAFAPA
TAF
KAPA 200521Z 2006/2106 36008KT P6SM OVC008
     FM200900 01008KT P6SM VCFG OVC004
      TEMPO 2010/2013 2SM BR OVC002
     FM201500 03008KT P6SM SCT005 OVC015
     FM201700 05008KT P6SM SCT020 OVC030
     FM202000 06008KT P6SM SCT025 BKN040
     FM210200 10008KT P6SM -SHRA SCT010 OVC025=



000
FTUS45 KBOU 200422 AAC
TAFAPA
TAF AMD
KAPA 200422Z 2004/2024 36008KT P6SM VCFG BKN008 OVC025
     FM200800 05007KT 2SM BR VCFG SCT004 OVC008
      TEMPO 2009/2013 3/4SM BR BKN003
     FM201600 07008KT P6SM SCT012 OVC020
     FM201800 08009KT P6SM SCT025 BKN045
     FM202100 08010KT P6SM VCTS SCT025 BKN040CB=



000
FTUS45 KBOU 200422 AAC
TAFAPA
TAF AMD
KAPA 200422Z 2004/2024 36008KT P6SM VCFG BKN008 OVC025
     FM200800 05007KT 2SM BR VCFG SCT004 OVC008
      TEMPO 2009/2013 3/4SM BR BKN003
     FM201600 07008KT P6SM SCT012 OVC020
     FM201800 08009KT P6SM SCT025 BKN045
     FM202100 08010KT P6SM VCTS SCT025 BKN040CB=



000
FTUS45 KBOU 200313 AAB
TAFAPA
TAF AMD
KAPA 200313Z 2003/2024 31010KT P6SM SCT010 BKN030 OVC045
     FM200400 28008KT P6SM SCT010 BKN024 OVC040
     FM200700 01008KT P6SM VCFG BKN008 OVC018
     FM200900 05007KT 2SM BR VCFG SCT004 OVC008
      TEMPO 2009/2013 3/4SM BR BKN003
     FM201600 07008KT P6SM SCT012 OVC020
     FM201800 08009KT P6SM SCT025 BKN045
     FM202100 08010KT P6SM VCTS SCT025 BKN040CB=



000
FTUS45 KBOU 200313 AAB
TAFAPA
TAF AMD
KAPA 200313Z 2003/2024 31010KT P6SM SCT010 BKN030 OVC045
     FM200400 28008KT P6SM SCT010 BKN024 OVC040
     FM200700 01008KT P6SM VCFG BKN008 OVC018
     FM200900 05007KT 2SM BR VCFG SCT004 OVC008
      TEMPO 2009/2013 3/4SM BR BKN003
     FM201600 07008KT P6SM SCT012 OVC020
     FM201800 08009KT P6SM SCT025 BKN045
     FM202100 08010KT P6SM VCTS SCT025 BKN040CB=



000
FTUS45 KBOU 200300 AAC
TAFDEN
TAF AMD
KDEN 200300Z 2003/2106 06013KT P6SM BKN004 OVC006
      TEMPO 2004/2008 2SM -DZ BR OVC003
     FM200800 07008KT 1SM BR OVC005
      TEMPO 2009/2013 1/2SM -DZ FG VV002
     FM201600 08008KT P6SM BKN012 OVC020
     FM201900 06007KT P6SM VCSH SCT024 BKN045
     FM202200 09008KT P6SM VCTS SCT018 BKN030 OVC040CB=



000
FTUS45 KBOU 200300 AAC
TAFDEN
TAF AMD
KDEN 200300Z 2003/2106 06013KT P6SM BKN004 OVC006
      TEMPO 2004/2008 2SM -DZ BR OVC003
     FM200800 07008KT 1SM BR OVC005
      TEMPO 2009/2013 1/2SM -DZ FG VV002
     FM201600 08008KT P6SM BKN012 OVC020
     FM201900 06007KT P6SM VCSH SCT024 BKN045
     FM202200 09008KT P6SM VCTS SCT018 BKN030 OVC040CB=



000
FTUS45 KBOU 200218 AAB
TAFDEN
TAF AMD
KDEN 200218Z 2002/2106 06012KT P6SM VCFG BKN007 OVC010
      TEMPO 2004/2007 4SM -RA BR OVC007
     FM200900 11006KT 1SM BR BKN004 OVC010
      TEMPO 2010/2014 1/2SM -DZ FG VV002
     FM201600 07008KT P6SM SCT012 OVC020
     FM201800 04007KT P6SM SCT025 BKN045
     FM202100 09008KT P6SM VCSH SCT025 BKN035 OVC050=



000
FTUS45 KBOU 200218 AAB
TAFDEN
TAF AMD
KDEN 200218Z 2002/2106 06012KT P6SM VCFG BKN007 OVC010
      TEMPO 2004/2007 4SM -RA BR OVC007
     FM200900 11006KT 1SM BR BKN004 OVC010
      TEMPO 2010/2014 1/2SM -DZ FG VV002
     FM201600 07008KT P6SM SCT012 OVC020
     FM201800 04007KT P6SM SCT025 BKN045
     FM202100 09008KT P6SM VCSH SCT025 BKN035 OVC050=



000
FTUS45 KBOU 200218 AAB
TAFDEN
TAF AMD
KDEN 200218Z 2002/2106 06012KT P6SM VCFG BKN007 OVC010
      TEMPO 2004/2007 4SM -RA BR OVC007
     FM200900 11006KT 1SM BR BKN004 OVC010
      TEMPO 2010/2014 1/2SM -DZ FG VV002
     FM201600 07008KT P6SM SCT012 OVC020
     FM201800 04007KT P6SM SCT025 BKN045
     FM202100 09008KT P6SM VCSH SCT025 BKN035 OVC050=



000
FTUS45 KBOU 200218 AAB
TAFDEN
TAF AMD
KDEN 200218Z 2002/2106 06012KT P6SM VCFG BKN007 OVC010
      TEMPO 2004/2007 4SM -RA BR OVC007
     FM200900 11006KT 1SM BR BKN004 OVC010
      TEMPO 2010/2014 1/2SM -DZ FG VV002
     FM201600 07008KT P6SM SCT012 OVC020
     FM201800 04007KT P6SM SCT025 BKN045
     FM202100 09008KT P6SM VCSH SCT025 BKN035 OVC050=



000
FTUS45 KBOU 200214 AAA
TAFBJC
TAF AMD
KBJC 200214Z 2002/2024 VRB04KT 3SM -RA BR BKN004 OVC008
      TEMPO 2002/2005 2SM -DZ BR OVC004
     FM200500 01006KT 5SM BR BKN006 OVC012
     FM200900 03006KT 4SM BR SCT004 OVC008
      TEMPO 2009/2013 3/4SM -DZ BR OVC003
     FM201500 04006KT P6SM SCT010 OVC020
     FM201800 06007KT P6SM VCSH SCT022 BKN045
     FM202100 07008KT P6SM VCTS SCT018 BKN040CB=



000
FTUS45 KBOU 200214 AAA
TAFBJC
TAF AMD
KBJC 200214Z 2002/2024 VRB04KT 3SM -RA BR BKN004 OVC008
      TEMPO 2002/2005 2SM -DZ BR OVC004
     FM200500 01006KT 5SM BR BKN006 OVC012
     FM200900 03006KT 4SM BR SCT004 OVC008
      TEMPO 2009/2013 3/4SM -DZ BR OVC003
     FM201500 04006KT P6SM SCT010 OVC020
     FM201800 06007KT P6SM VCSH SCT022 BKN045
     FM202100 07008KT P6SM VCTS SCT018 BKN040CB=



000
FTUS45 KBOU 200206 AAA
TAFAPA
TAF AMD
KAPA 200206Z 2002/2024 30010KT P6SM SCT025 OVC040
     FM200400 28008KT P6SM SCT018 BKN025 OVC040
     FM200700 01008KT P6SM BKN010 OVC018
     FM200900 05007KT 2SM BR VCFG SCT004 OVC008
      TEMPO 2009/2013 3/4SM BR BKN003
     FM201600 07008KT P6SM SCT012 OVC020
     FM201800 08009KT P6SM SCT025 BKN045
     FM202100 08010KT P6SM VCTS SCT025 BKN040CB=



000
FTUS45 KBOU 200206 AAA
TAFAPA
TAF AMD
KAPA 200206Z 2002/2024 30010KT P6SM SCT025 OVC040
     FM200400 28008KT P6SM SCT018 BKN025 OVC040
     FM200700 01008KT P6SM BKN010 OVC018
     FM200900 05007KT 2SM BR VCFG SCT004 OVC008
      TEMPO 2009/2013 3/4SM BR BKN003
     FM201600 07008KT P6SM SCT012 OVC020
     FM201800 08009KT P6SM SCT025 BKN045
     FM202100 08010KT P6SM VCTS SCT025 BKN040CB=



000
FTUS45 KBOU 200206 AAA
TAFAPA
TAF AMD
KAPA 200206Z 2002/2024 30010KT P6SM SCT025 OVC040
     FM200400 28008KT P6SM SCT018 BKN025 OVC040
     FM200700 01008KT P6SM BKN010 OVC018
     FM200900 05007KT 2SM BR VCFG SCT004 OVC008
      TEMPO 2009/2013 3/4SM BR BKN003
     FM201600 07008KT P6SM SCT012 OVC020
     FM201800 08009KT P6SM SCT025 BKN045
     FM202100 08010KT P6SM VCTS SCT025 BKN040CB=



000
FTUS45 KBOU 200206 AAA
TAFAPA
TAF AMD
KAPA 200206Z 2002/2024 30010KT P6SM SCT025 OVC040
     FM200400 28008KT P6SM SCT018 BKN025 OVC040
     FM200700 01008KT P6SM BKN010 OVC018
     FM200900 05007KT 2SM BR VCFG SCT004 OVC008
      TEMPO 2009/2013 3/4SM BR BKN003
     FM201600 07008KT P6SM SCT012 OVC020
     FM201800 08009KT P6SM SCT025 BKN045
     FM202100 08010KT P6SM VCTS SCT025 BKN040CB=



000
FTUS45 KBOU 200148 AAA
TAFDEN
TAF AMD
KDEN 200148Z 2002/2106 08014KT P6SM -RA BKN009 BKN018 OVC025
     FM200400 09008KT 6SM BR BKN012 OVC024
      TEMPO 2004/2007 5SM -DZ BR BKN009
     FM200900 11006KT 1SM BR BKN005 OVC010
      TEMPO 2010/2014 1/2SM -DZ FG VV002
     FM201600 07008KT P6SM SCT012 OVC020
     FM201800 04007KT P6SM SCT025 BKN045
     FM202100 09008KT P6SM VCSH SCT025 BKN035 OVC050=



000
FTUS45 KBOU 200148 AAA
TAFDEN
TAF AMD
KDEN 200148Z 2002/2106 08014KT P6SM -RA BKN009 BKN018 OVC025
     FM200400 09008KT 6SM BR BKN012 OVC024
      TEMPO 2004/2007 5SM -DZ BR BKN009
     FM200900 11006KT 1SM BR BKN005 OVC010
      TEMPO 2010/2014 1/2SM -DZ FG VV002
     FM201600 07008KT P6SM SCT012 OVC020
     FM201800 04007KT P6SM SCT025 BKN045
     FM202100 09008KT P6SM VCSH SCT025 BKN035 OVC050=



    US Dept of Commerce
    National Oceanic and Atmospheric Administration
    National Weather Service
    1325 East West Highway
    Silver Spring, MD 20910
    Page Author: NWS Internet Services Team
Disclaimer
Information Quality
Credits
Glossary
Privacy Policy
Freedom of Information Act (FOIA)
About Us
Career Opportunities